<?xml version="1.0" encoding="utf-8"?>
<gpx xmlns:xsi="http://www.w3.org/2001/XMLSchema-instance" xmlns:xsd="http://www.w3.org/2001/XMLSchema" version="1.1" creator="Shapelink.com" xmlns="http://www.topografix.com/GPX/1/1" xmlns:gpxtpx="http://www.garmin.com/xmlschemas/TrackPointExtension/v1">
  <metadata>
    <name>Cycling 56.11 km, 2020-06-27</name>
    <desc></desc>
    <author><name>Marian Moron</name></author> 
    <time>2020-06-27T10:17:49Z</time>
  </metadata>
  <trk>
    <name>Cycling 56.11 km, 2020-06-27</name>
    <trkseg>
      <trkpt lat="51.228511088325" lon="4.447786587239">
        <ele>0.4</ele>
        <time>2020-06-27T10:17:49Z</time>
      </trkpt>
      <trkpt lat="51.228218895291" lon="4.447283505601">
        <ele>0</ele>
        <time>2020-06-27T10:18:00Z</time>
      </trkpt>
      <trkpt lat="51.227784461414" lon="4.447880129243">
        <ele>0</ele>
        <time>2020-06-27T10:18:16Z</time>
      </trkpt>
      <trkpt lat="51.227348518795" lon="4.448494103418">
        <ele>0</ele>
        <time>2020-06-27T10:18:29Z</time>
      </trkpt>
      <trkpt lat="51.227031599156" lon="4.449080501142">
        <ele>0</ele>
        <time>2020-06-27T10:18:40Z</time>
      </trkpt>
      <trkpt lat="51.226639158598" lon="4.449499260866">
        <ele>1</ele>
        <time>2020-06-27T10:19:09Z</time>
      </trkpt>
      <trkpt lat="51.226282089658" lon="4.448896183161">
        <ele>0</ele>
        <time>2020-06-27T10:19:23Z</time>
      </trkpt>
      <trkpt lat="51.226213358078" lon="4.448970111519">
        <ele>0</ele>
        <time>2020-06-27T10:19:25Z</time>
      </trkpt>
      <trkpt lat="51.225949914961" lon="4.449464308343">
        <ele>0</ele>
        <time>2020-06-27T10:19:34Z</time>
      </trkpt>
      <trkpt lat="51.225808596127" lon="4.449624570271">
        <ele>0</ele>
        <time>2020-06-27T10:19:38Z</time>
      </trkpt>
      <trkpt lat="51.225583290655" lon="4.449731774772">
        <ele>0</ele>
        <time>2020-06-27T10:19:43Z</time>
      </trkpt>
      <trkpt lat="51.22516796751" lon="4.449806457501">
        <ele>0</ele>
        <time>2020-06-27T10:19:52Z</time>
      </trkpt>
      <trkpt lat="51.225003933727" lon="4.449945429403">
        <ele>0</ele>
        <time>2020-06-27T10:19:56Z</time>
      </trkpt>
      <trkpt lat="51.224576121551" lon="4.45057180879">
        <ele>0</ele>
        <time>2020-06-27T10:20:07Z</time>
      </trkpt>
      <trkpt lat="51.224186363201" lon="4.451167510423">
        <ele>0</ele>
        <time>2020-06-27T10:20:17Z</time>
      </trkpt>
      <trkpt lat="51.224023754341" lon="4.451359204476">
        <ele>0</ele>
        <time>2020-06-27T10:20:21Z</time>
      </trkpt>
      <trkpt lat="51.223929877061" lon="4.451413770645">
        <ele>0</ele>
        <time>2020-06-27T10:20:23Z</time>
      </trkpt>
      <trkpt lat="51.223833485211" lon="4.451428103694">
        <ele>0</ele>
        <time>2020-06-27T10:20:25Z</time>
      </trkpt>
      <trkpt lat="51.223742625415" lon="4.45140329327">
        <ele>0</ele>
        <time>2020-06-27T10:20:27Z</time>
      </trkpt>
      <trkpt lat="51.223201909046" lon="4.451221489859">
        <ele>0</ele>
        <time>2020-06-27T10:20:39Z</time>
      </trkpt>
      <trkpt lat="51.222803182063" lon="4.451098611205">
        <ele>0</ele>
        <time>2020-06-27T10:20:48Z</time>
      </trkpt>
      <trkpt lat="51.222264393531" lon="4.451157200686">
        <ele>0</ele>
        <time>2020-06-27T10:21:00Z</time>
      </trkpt>
      <trkpt lat="51.221717893651" lon="4.451476383438">
        <ele>0</ele>
        <time>2020-06-27T10:21:12Z</time>
      </trkpt>
      <trkpt lat="51.221159575292" lon="4.451659611772">
        <ele>0</ele>
        <time>2020-06-27T10:21:26Z</time>
      </trkpt>
      <trkpt lat="51.220617014905" lon="4.451760194572">
        <ele>0</ele>
        <time>2020-06-27T10:21:37Z</time>
      </trkpt>
      <trkpt lat="51.220072945776" lon="4.451912996609">
        <ele>0</ele>
        <time>2020-06-27T10:21:48Z</time>
      </trkpt>
      <trkpt lat="51.219506245517" lon="4.451997234704">
        <ele>0</ele>
        <time>2020-06-27T10:21:59Z</time>
      </trkpt>
      <trkpt lat="51.21910533924" lon="4.452057668203">
        <ele>1.4</ele>
        <time>2020-06-27T10:22:07Z</time>
      </trkpt>
      <trkpt lat="51.219018670394" lon="4.452000252188">
        <ele>0</ele>
        <time>2020-06-27T10:22:09Z</time>
      </trkpt>
      <trkpt lat="51.218902581079" lon="4.451822555908">
        <ele>0</ele>
        <time>2020-06-27T10:22:12Z</time>
      </trkpt>
      <trkpt lat="51.218803758478" lon="4.451738653089">
        <ele>0</ele>
        <time>2020-06-27T10:22:14Z</time>
      </trkpt>
      <trkpt lat="51.218463537157" lon="4.451702862376">
        <ele>0</ele>
        <time>2020-06-27T10:22:20Z</time>
      </trkpt>
      <trkpt lat="51.218369827515" lon="4.451742089668">
        <ele>0</ele>
        <time>2020-06-27T10:22:22Z</time>
      </trkpt>
      <trkpt lat="51.218246697404" lon="4.45220376472">
        <ele>0</ele>
        <time>2020-06-27T10:22:29Z</time>
      </trkpt>
      <trkpt lat="51.218177043815" lon="4.453114458155">
        <ele>0</ele>
        <time>2020-06-27T10:22:41Z</time>
      </trkpt>
      <trkpt lat="51.21817494834" lon="4.453360131644">
        <ele>0</ele>
        <time>2020-06-27T10:22:45Z</time>
      </trkpt>
      <trkpt lat="51.21814728807" lon="4.453639835647">
        <ele>0</ele>
        <time>2020-06-27T10:24:21Z</time>
      </trkpt>
      <trkpt lat="51.218122812922" lon="4.454555893498">
        <ele>0</ele>
        <time>2020-06-27T10:24:33Z</time>
      </trkpt>
      <trkpt lat="51.218068917305" lon="4.4554240907">
        <ele>0</ele>
        <time>2020-06-27T10:24:43Z</time>
      </trkpt>
      <trkpt lat="51.218047040546" lon="4.456312823557">
        <ele>0</ele>
        <time>2020-06-27T10:24:53Z</time>
      </trkpt>
      <trkpt lat="51.217995827137" lon="4.457252350728">
        <ele>0</ele>
        <time>2020-06-27T10:25:04Z</time>
      </trkpt>
      <trkpt lat="51.218006304512" lon="4.45817083933">
        <ele>0</ele>
        <time>2020-06-27T10:25:16Z</time>
      </trkpt>
      <trkpt lat="51.218013429127" lon="4.45909117195">
        <ele>0</ele>
        <time>2020-06-27T10:25:28Z</time>
      </trkpt>
      <trkpt lat="51.218059529577" lon="4.459989124897">
        <ele>6</ele>
        <time>2020-06-27T10:25:39Z</time>
      </trkpt>
      <trkpt lat="51.217862471108" lon="4.460884479455">
        <ele>0</ele>
        <time>2020-06-27T10:25:49Z</time>
      </trkpt>
      <trkpt lat="51.217698604963" lon="4.461233753228">
        <ele>0</ele>
        <time>2020-06-27T10:25:55Z</time>
      </trkpt>
      <trkpt lat="51.217193511669" lon="4.461603562656">
        <ele>0</ele>
        <time>2020-06-27T10:26:05Z</time>
      </trkpt>
      <trkpt lat="51.216691519678" lon="4.461938671018">
        <ele>0</ele>
        <time>2020-06-27T10:26:16Z</time>
      </trkpt>
      <trkpt lat="51.216185252918" lon="4.462293393026">
        <ele>0</ele>
        <time>2020-06-27T10:26:27Z</time>
      </trkpt>
      <trkpt lat="51.215697091062" lon="4.462672674001">
        <ele>0</ele>
        <time>2020-06-27T10:26:37Z</time>
      </trkpt>
      <trkpt lat="51.215201972229" lon="4.463005183974">
        <ele>0</ele>
        <time>2020-06-27T10:26:45Z</time>
      </trkpt>
      <trkpt lat="51.215080015584" lon="4.463049188949">
        <ele>0</ele>
        <time>2020-06-27T10:26:47Z</time>
      </trkpt>
      <trkpt lat="51.214506693624" lon="4.46331229679">
        <ele>0</ele>
        <time>2020-06-27T10:26:58Z</time>
      </trkpt>
      <trkpt lat="51.213957595355" lon="4.463409191554">
        <ele>0</ele>
        <time>2020-06-27T10:27:08Z</time>
      </trkpt>
      <trkpt lat="51.213371197631" lon="4.463530477647">
        <ele>0</ele>
        <time>2020-06-27T10:27:19Z</time>
      </trkpt>
      <trkpt lat="51.212807095761" lon="4.463700714036">
        <ele>0</ele>
        <time>2020-06-27T10:27:30Z</time>
      </trkpt>
      <trkpt lat="51.212611210758" lon="4.463728541944">
        <ele>0</ele>
        <time>2020-06-27T10:27:34Z</time>
      </trkpt>
      <trkpt lat="51.212033781667" lon="4.463862903801">
        <ele>0</ele>
        <time>2020-06-27T10:27:46Z</time>
      </trkpt>
      <trkpt lat="51.211475966222" lon="4.463954517968">
        <ele>0</ele>
        <time>2020-06-27T10:27:57Z</time>
      </trkpt>
      <trkpt lat="51.210913205456" lon="4.463851672055">
        <ele>0</ele>
        <time>2020-06-27T10:28:10Z</time>
      </trkpt>
      <trkpt lat="51.210829218818" lon="4.463824011785">
        <ele>0</ele>
        <time>2020-06-27T10:28:12Z</time>
      </trkpt>
      <trkpt lat="51.210285736422" lon="4.463610860068">
        <ele>0</ele>
        <time>2020-06-27T10:28:23Z</time>
      </trkpt>
      <trkpt lat="51.209943168169" lon="4.463466356112">
        <ele>0</ele>
        <time>2020-06-27T10:28:31Z</time>
      </trkpt>
      <trkpt lat="51.209662542157" lon="4.463422686413">
        <ele>7.8</ele>
        <time>2020-06-27T10:29:58Z</time>
      </trkpt>
      <trkpt lat="51.209593726758" lon="4.463601639978">
        <ele>8.2</ele>
        <time>2020-06-27T10:30:02Z</time>
      </trkpt>
      <trkpt lat="51.209459783996" lon="4.463616895036">
        <ele>8.4</ele>
        <time>2020-06-27T10:30:05Z</time>
      </trkpt>
      <trkpt lat="51.208920324912" lon="4.46358135578">
        <ele>5</ele>
        <time>2020-06-27T10:30:15Z</time>
      </trkpt>
      <trkpt lat="51.208355468671" lon="4.463530729104">
        <ele>3.8</ele>
        <time>2020-06-27T10:30:26Z</time>
      </trkpt>
      <trkpt lat="51.208258993002" lon="4.463450765778">
        <ele>5.2</ele>
        <time>2020-06-27T10:30:29Z</time>
      </trkpt>
      <trkpt lat="51.208034190444" lon="4.463555204252">
        <ele>2.8</ele>
        <time>2020-06-27T10:30:36Z</time>
      </trkpt>
      <trkpt lat="51.207934613472" lon="4.463519832634">
        <ele>2</ele>
        <time>2020-06-27T10:30:38Z</time>
      </trkpt>
      <trkpt lat="51.20741342693" lon="4.463235686224">
        <ele>3.6</ele>
        <time>2020-06-27T10:30:48Z</time>
      </trkpt>
      <trkpt lat="51.206984106012" lon="4.463120686556">
        <ele>4.2</ele>
        <time>2020-06-27T10:30:56Z</time>
      </trkpt>
      <trkpt lat="51.206873381113" lon="4.463149520292">
        <ele>5.2</ele>
        <time>2020-06-27T10:30:58Z</time>
      </trkpt>
      <trkpt lat="51.206720579076" lon="4.463237530242">
        <ele>5.6</ele>
        <time>2020-06-27T10:31:00Z</time>
      </trkpt>
      <trkpt lat="51.206277595661" lon="4.463537183167">
        <ele>5.8</ele>
        <time>2020-06-27T10:31:10Z</time>
      </trkpt>
      <trkpt lat="51.206034269104" lon="4.463559479021">
        <ele>4.2</ele>
        <time>2020-06-27T10:31:15Z</time>
      </trkpt>
      <trkpt lat="51.205489697061" lon="4.463289581841">
        <ele>2.8</ele>
        <time>2020-06-27T10:31:27Z</time>
      </trkpt>
      <trkpt lat="51.204947555769" lon="4.463085063481">
        <ele>9.4</ele>
        <time>2020-06-27T10:31:39Z</time>
      </trkpt>
      <trkpt lat="51.204395775292" lon="4.462844754408">
        <ele>15.8</ele>
        <time>2020-06-27T10:31:51Z</time>
      </trkpt>
      <trkpt lat="51.203844833005" lon="4.462581311291">
        <ele>20.4</ele>
        <time>2020-06-27T10:32:04Z</time>
      </trkpt>
      <trkpt lat="51.203314510192" lon="4.462321053296">
        <ele>18.2</ele>
        <time>2020-06-27T10:32:14Z</time>
      </trkpt>
      <trkpt lat="51.202866329999" lon="4.462123911008">
        <ele>10.6</ele>
        <time>2020-06-27T10:32:24Z</time>
      </trkpt>
      <trkpt lat="51.20277153071" lon="4.462141261541">
        <ele>9.6</ele>
        <time>2020-06-27T10:32:26Z</time>
      </trkpt>
      <trkpt lat="51.202496101476" lon="4.462250729155">
        <ele>4.8</ele>
        <time>2020-06-27T10:32:33Z</time>
      </trkpt>
      <trkpt lat="51.20244128385" lon="4.4621463745">
        <ele>4.2</ele>
        <time>2020-06-27T10:32:35Z</time>
      </trkpt>
      <trkpt lat="51.202161831304" lon="4.461389740387">
        <ele>1.6</ele>
        <time>2020-06-27T10:32:47Z</time>
      </trkpt>
      <trkpt lat="51.20191992967" lon="4.461041723899">
        <ele>0</ele>
        <time>2020-06-27T10:32:55Z</time>
      </trkpt>
      <trkpt lat="51.2014899382" lon="4.460469491586">
        <ele>0</ele>
        <time>2020-06-27T10:33:08Z</time>
      </trkpt>
      <trkpt lat="51.20097193678" lon="4.460220130061">
        <ele>4</ele>
        <time>2020-06-27T10:33:20Z</time>
      </trkpt>
      <trkpt lat="51.200639845902" lon="4.46008694167">
        <ele>6.2</ele>
        <time>2020-06-27T10:33:26Z</time>
      </trkpt>
      <trkpt lat="51.200246567154" lon="4.459769686755">
        <ele>10</ele>
        <time>2020-06-27T10:34:38Z</time>
      </trkpt>
      <trkpt lat="51.199677687601" lon="4.459718808622">
        <ele>6.6</ele>
        <time>2020-06-27T10:34:53Z</time>
      </trkpt>
      <trkpt lat="51.199349871492" lon="4.459652172517">
        <ele>3</ele>
        <time>2020-06-27T10:35:00Z</time>
      </trkpt>
      <trkpt lat="51.198904708783" lon="4.45954463274">
        <ele>0</ele>
        <time>2020-06-27T10:35:10Z</time>
      </trkpt>
      <trkpt lat="51.198880904187" lon="4.459310358635">
        <ele>0</ele>
        <time>2020-06-27T10:35:14Z</time>
      </trkpt>
      <trkpt lat="51.198890040458" lon="4.458406873634">
        <ele>0</ele>
        <time>2020-06-27T10:35:24Z</time>
      </trkpt>
      <trkpt lat="51.198893309399" lon="4.457470447766">
        <ele>2.6</ele>
        <time>2020-06-27T10:35:35Z</time>
      </trkpt>
      <trkpt lat="51.19886807988" lon="4.456548857861">
        <ele>5.6</ele>
        <time>2020-06-27T10:35:46Z</time>
      </trkpt>
      <trkpt lat="51.19879515735" lon="4.45563531458">
        <ele>5.8</ele>
        <time>2020-06-27T10:35:57Z</time>
      </trkpt>
      <trkpt lat="51.198662304235" lon="4.455059729507">
        <ele>4.4</ele>
        <time>2020-06-27T10:36:05Z</time>
      </trkpt>
      <trkpt lat="51.198570354792" lon="4.454829897809">
        <ele>3.4</ele>
        <time>2020-06-27T10:36:09Z</time>
      </trkpt>
      <trkpt lat="51.198428533044" lon="4.454488419203">
        <ele>1</ele>
        <time>2020-06-27T10:36:15Z</time>
      </trkpt>
      <trkpt lat="51.198409003217" lon="4.454235453461">
        <ele>1.6</ele>
        <time>2020-06-27T10:36:19Z</time>
      </trkpt>
      <trkpt lat="51.198439680971" lon="4.454101091604">
        <ele>1.8</ele>
        <time>2020-06-27T10:36:21Z</time>
      </trkpt>
      <trkpt lat="51.198590303714" lon="4.453608152065">
        <ele>2.4</ele>
        <time>2020-06-27T10:36:28Z</time>
      </trkpt>
      <trkpt lat="51.198500701203" lon="4.453081601107">
        <ele>9.8</ele>
        <time>2020-06-27T10:36:58Z</time>
      </trkpt>
      <trkpt lat="51.197977000091" lon="4.452872388883">
        <ele>2.6</ele>
        <time>2020-06-27T10:37:09Z</time>
      </trkpt>
      <trkpt lat="51.197609202319" lon="4.45272092795">
        <ele>1.4</ele>
        <time>2020-06-27T10:37:16Z</time>
      </trkpt>
      <trkpt lat="51.197534854866" lon="4.452653286017">
        <ele>4</ele>
        <time>2020-06-27T10:37:18Z</time>
      </trkpt>
      <trkpt lat="51.197484647285" lon="4.452599474219">
        <ele>3</ele>
        <time>2020-06-27T10:37:20Z</time>
      </trkpt>
      <trkpt lat="51.197303765883" lon="4.452640796986">
        <ele>3</ele>
        <time>2020-06-27T10:37:25Z</time>
      </trkpt>
      <trkpt lat="51.196765396446" lon="4.452381125724">
        <ele>2.8</ele>
        <time>2020-06-27T10:37:36Z</time>
      </trkpt>
      <trkpt lat="51.196212861598" lon="4.452168057826">
        <ele>5.2</ele>
        <time>2020-06-27T10:37:48Z</time>
      </trkpt>
      <trkpt lat="51.195925110971" lon="4.452008801726">
        <ele>4</ele>
        <time>2020-06-27T10:37:56Z</time>
      </trkpt>
      <trkpt lat="51.195377269987" lon="4.451791291421">
        <ele>3.8</ele>
        <time>2020-06-27T10:38:07Z</time>
      </trkpt>
      <trkpt lat="51.194826746795" lon="4.451549808882">
        <ele>2.8</ele>
        <time>2020-06-27T10:38:17Z</time>
      </trkpt>
      <trkpt lat="51.194194667716" lon="4.451261136246">
        <ele>3</ele>
        <time>2020-06-27T10:38:30Z</time>
      </trkpt>
      <trkpt lat="51.193669122586" lon="4.451045553778">
        <ele>2.8</ele>
        <time>2020-06-27T10:38:41Z</time>
      </trkpt>
      <trkpt lat="51.193104853078" lon="4.45081153113">
        <ele>1</ele>
        <time>2020-06-27T10:38:52Z</time>
      </trkpt>
      <trkpt lat="51.19254812728" lon="4.450589243142">
        <ele>0.8</ele>
        <time>2020-06-27T10:39:03Z</time>
      </trkpt>
      <trkpt lat="51.19202425853" lon="4.450288584389">
        <ele>1.8</ele>
        <time>2020-06-27T10:39:14Z</time>
      </trkpt>
      <trkpt lat="51.191526457489" lon="4.449874183253">
        <ele>2.2</ele>
        <time>2020-06-27T10:39:26Z</time>
      </trkpt>
      <trkpt lat="51.191008623707" lon="4.449483502894">
        <ele>1.6</ele>
        <time>2020-06-27T10:39:38Z</time>
      </trkpt>
      <trkpt lat="51.190722130365" lon="4.449179659019">
        <ele>1.6</ele>
        <time>2020-06-27T10:39:46Z</time>
      </trkpt>
      <trkpt lat="51.190686088195" lon="4.449025851154">
        <ele>2.2</ele>
        <time>2020-06-27T10:39:49Z</time>
      </trkpt>
      <trkpt lat="51.190604448489" lon="4.449058121469">
        <ele>0.8</ele>
        <time>2020-06-27T10:39:52Z</time>
      </trkpt>
      <trkpt lat="51.190530017217" lon="4.449134396759">
        <ele>0</ele>
        <time>2020-06-27T10:39:54Z</time>
      </trkpt>
      <trkpt lat="51.189996844558" lon="4.449312428315">
        <ele>2</ele>
        <time>2020-06-27T10:40:04Z</time>
      </trkpt>
      <trkpt lat="51.189437101276" lon="4.449327012821">
        <ele>6.6</ele>
        <time>2020-06-27T10:40:15Z</time>
      </trkpt>
      <trkpt lat="51.189335512648" lon="4.449309997564">
        <ele>6</ele>
        <time>2020-06-27T10:40:16Z</time>
      </trkpt>
      <trkpt lat="51.188950531981" lon="4.449259287069">
        <ele>9</ele>
        <time>2020-06-27T10:40:25Z</time>
      </trkpt>
      <trkpt lat="51.188693626746" lon="4.449166918531">
        <ele>10.8</ele>
        <time>2020-06-27T10:40:30Z</time>
      </trkpt>
      <trkpt lat="51.188558175242" lon="4.449252078635">
        <ele>9.6</ele>
        <time>2020-06-27T10:40:33Z</time>
      </trkpt>
      <trkpt lat="51.188374863089" lon="4.449491130423">
        <ele>8.6</ele>
        <time>2020-06-27T10:40:39Z</time>
      </trkpt>
      <trkpt lat="51.188183001398" lon="4.449743006518">
        <ele>8.8</ele>
        <time>2020-06-27T10:43:31Z</time>
      </trkpt>
      <trkpt lat="51.187783603863" lon="4.450361590738">
        <ele>9.4</ele>
        <time>2020-06-27T10:43:41Z</time>
      </trkpt>
      <trkpt lat="51.187612445465" lon="4.450640037456">
        <ele>9</ele>
        <time>2020-06-27T10:43:45Z</time>
      </trkpt>
      <trkpt lat="51.187465259301" lon="4.450786804525">
        <ele>8.4</ele>
        <time>2020-06-27T10:43:48Z</time>
      </trkpt>
      <trkpt lat="51.187096790977" lon="4.451545031199">
        <ele>8.4</ele>
        <time>2020-06-27T10:43:57Z</time>
      </trkpt>
      <trkpt lat="51.186781296261" lon="4.452256403052">
        <ele>7.6</ele>
        <time>2020-06-27T10:44:05Z</time>
      </trkpt>
      <trkpt lat="51.186441410216" lon="4.452948245078">
        <ele>6</ele>
        <time>2020-06-27T10:44:14Z</time>
      </trkpt>
      <trkpt lat="51.186074953548" lon="4.453705633562">
        <ele>6</ele>
        <time>2020-06-27T10:44:23Z</time>
      </trkpt>
      <trkpt lat="51.185735067503" lon="4.454394122828">
        <ele>7.6</ele>
        <time>2020-06-27T10:44:31Z</time>
      </trkpt>
      <trkpt lat="51.185397444571" lon="4.455086132492">
        <ele>7</ele>
        <time>2020-06-27T10:44:40Z</time>
      </trkpt>
      <trkpt lat="51.185055127775" lon="4.455761462175">
        <ele>6.6</ele>
        <time>2020-06-27T10:44:50Z</time>
      </trkpt>
      <trkpt lat="51.184700908681" lon="4.456483059946">
        <ele>7.2</ele>
        <time>2020-06-27T10:45:02Z</time>
      </trkpt>
      <trkpt lat="51.184383989042" lon="4.45718512789">
        <ele>8</ele>
        <time>2020-06-27T10:45:12Z</time>
      </trkpt>
      <trkpt lat="51.184034463812" lon="4.457849477284">
        <ele>7.8</ele>
        <time>2020-06-27T10:45:22Z</time>
      </trkpt>
      <trkpt lat="51.183678652157" lon="4.458577277661">
        <ele>5.4</ele>
        <time>2020-06-27T10:45:33Z</time>
      </trkpt>
      <trkpt lat="51.183342873243" lon="4.45931077773">
        <ele>6.8</ele>
        <time>2020-06-27T10:45:43Z</time>
      </trkpt>
      <trkpt lat="51.183004663578" lon="4.460017874814">
        <ele>5.6</ele>
        <time>2020-06-27T10:45:54Z</time>
      </trkpt>
      <trkpt lat="51.1826809546" lon="4.460742490069">
        <ele>5.8</ele>
        <time>2020-06-27T10:46:04Z</time>
      </trkpt>
      <trkpt lat="51.182408291393" lon="4.461531226859">
        <ele>5.2</ele>
        <time>2020-06-27T10:46:14Z</time>
      </trkpt>
      <trkpt lat="51.182128335933" lon="4.462279059977">
        <ele>7.2</ele>
        <time>2020-06-27T10:46:24Z</time>
      </trkpt>
      <trkpt lat="51.181834298881" lon="4.46304826694">
        <ele>9.2</ele>
        <time>2020-06-27T10:46:34Z</time>
      </trkpt>
      <trkpt lat="51.181523246572" lon="4.46377413948">
        <ele>9.8</ele>
        <time>2020-06-27T10:46:45Z</time>
      </trkpt>
      <trkpt lat="51.181201465431" lon="4.464558182406">
        <ele>8.8</ele>
        <time>2020-06-27T10:46:56Z</time>
      </trkpt>
      <trkpt lat="51.180897453918" lon="4.465370556154">
        <ele>8.6</ele>
        <time>2020-06-27T10:47:06Z</time>
      </trkpt>
      <trkpt lat="51.180606685807" lon="4.466157448926">
        <ele>8.4</ele>
        <time>2020-06-27T10:47:17Z</time>
      </trkpt>
      <trkpt lat="51.18052932087" lon="4.466393734687">
        <ele>8.4</ele>
        <time>2020-06-27T10:47:21Z</time>
      </trkpt>
      <trkpt lat="51.18051339526" lon="4.46654100467">
        <ele>8</ele>
        <time>2020-06-27T10:47:23Z</time>
      </trkpt>
      <trkpt lat="51.180294711489" lon="4.467398892135">
        <ele>9</ele>
        <time>2020-06-27T10:47:33Z</time>
      </trkpt>
      <trkpt lat="51.180026993603" lon="4.468224676923">
        <ele>10.2</ele>
        <time>2020-06-27T10:47:42Z</time>
      </trkpt>
      <trkpt lat="51.179776542431" lon="4.469011904971">
        <ele>9</ele>
        <time>2020-06-27T10:47:51Z</time>
      </trkpt>
      <trkpt lat="51.179471441271" lon="4.469761246831">
        <ele>7.6</ele>
        <time>2020-06-27T10:48:01Z</time>
      </trkpt>
      <trkpt lat="51.179113534141" lon="4.470472702503">
        <ele>7.2</ele>
        <time>2020-06-27T10:48:12Z</time>
      </trkpt>
      <trkpt lat="51.178718411375" lon="4.471081815176">
        <ele>7.4</ele>
        <time>2020-06-27T10:48:22Z</time>
      </trkpt>
      <trkpt lat="51.178673735848" lon="4.471136129888">
        <ele>7.4</ele>
        <time>2020-06-27T10:48:23Z</time>
      </trkpt>
      <trkpt lat="51.178236703582" lon="4.471674499325">
        <ele>7.4</ele>
        <time>2020-06-27T10:48:34Z</time>
      </trkpt>
      <trkpt lat="51.177831941631" lon="4.47225578409">
        <ele>6</ele>
        <time>2020-06-27T10:48:45Z</time>
      </trkpt>
      <trkpt lat="51.177440339263" lon="4.472861963098">
        <ele>6.2</ele>
        <time>2020-06-27T10:48:56Z</time>
      </trkpt>
      <trkpt lat="51.177027782145" lon="4.47350301081">
        <ele>6.6</ele>
        <time>2020-06-27T10:49:09Z</time>
      </trkpt>
      <trkpt lat="51.176824437251" lon="4.473826216874">
        <ele>7.6</ele>
        <time>2020-06-27T10:49:15Z</time>
      </trkpt>
      <trkpt lat="51.176417831282" lon="4.474437341203">
        <ele>7.6</ele>
        <time>2020-06-27T10:49:26Z</time>
      </trkpt>
      <trkpt lat="51.175955820954" lon="4.474907481974">
        <ele>6.6</ele>
        <time>2020-06-27T10:49:36Z</time>
      </trkpt>
      <trkpt lat="51.17546665327" lon="4.475376868374">
        <ele>8</ele>
        <time>2020-06-27T10:49:46Z</time>
      </trkpt>
      <trkpt lat="51.175001876915" lon="4.475816666667">
        <ele>7.2</ele>
        <time>2020-06-27T10:49:57Z</time>
      </trkpt>
      <trkpt lat="51.174526958461" lon="4.476308181283">
        <ele>5.8</ele>
        <time>2020-06-27T10:50:09Z</time>
      </trkpt>
      <trkpt lat="51.174057152966" lon="4.476876390284">
        <ele>8.8</ele>
        <time>2020-06-27T10:50:20Z</time>
      </trkpt>
      <trkpt lat="51.173624227831" lon="4.477390452211">
        <ele>8.6</ele>
        <time>2020-06-27T10:50:31Z</time>
      </trkpt>
      <trkpt lat="51.173555999165" lon="4.477480473817">
        <ele>8.2</ele>
        <time>2020-06-27T10:50:32Z</time>
      </trkpt>
      <trkpt lat="51.173247880521" lon="4.477959750859">
        <ele>8.8</ele>
        <time>2020-06-27T10:50:43Z</time>
      </trkpt>
      <trkpt lat="51.173152913594" lon="4.478096459648">
        <ele>8.4</ele>
        <time>2020-06-27T10:50:46Z</time>
      </trkpt>
      <trkpt lat="51.17272241921" lon="4.478719318637">
        <ele>8.2</ele>
        <time>2020-06-27T10:50:58Z</time>
      </trkpt>
      <trkpt lat="51.172340707484" lon="4.479308985302">
        <ele>10</ele>
        <time>2020-06-27T10:51:09Z</time>
      </trkpt>
      <trkpt lat="51.172390076875" lon="4.479497326595">
        <ele>9.2</ele>
        <time>2020-06-27T10:51:12Z</time>
      </trkpt>
      <trkpt lat="51.172469202011" lon="4.47960251944">
        <ele>8.6</ele>
        <time>2020-06-27T10:51:14Z</time>
      </trkpt>
      <trkpt lat="51.172608090094" lon="4.47950109845">
        <ele>6.2</ele>
        <time>2020-06-27T10:51:17Z</time>
      </trkpt>
      <trkpt lat="51.172614879433" lon="4.479344273101">
        <ele>6</ele>
        <time>2020-06-27T10:51:19Z</time>
      </trkpt>
      <trkpt lat="51.172595517244" lon="4.479143694234">
        <ele>4.8</ele>
        <time>2020-06-27T10:51:23Z</time>
      </trkpt>
      <trkpt lat="51.172629715396" lon="4.479324156541">
        <ele>3.4</ele>
        <time>2020-06-27T10:51:28Z</time>
      </trkpt>
      <trkpt lat="51.172597696538" lon="4.479350140431">
        <ele>3.6</ele>
        <time>2020-06-27T10:51:30Z</time>
      </trkpt>
      <trkpt lat="51.172370463229" lon="4.478943785919">
        <ele>0.4</ele>
        <time>2020-06-27T10:51:39Z</time>
      </trkpt>
      <trkpt lat="51.171945668537" lon="4.478338612739">
        <ele>8.6</ele>
        <time>2020-06-27T10:51:58Z</time>
      </trkpt>
      <trkpt lat="51.171556832196" lon="4.477733188102">
        <ele>8.2</ele>
        <time>2020-06-27T10:52:10Z</time>
      </trkpt>
      <trkpt lat="51.171152573159" lon="4.477100941385">
        <ele>9.6</ele>
        <time>2020-06-27T10:52:21Z</time>
      </trkpt>
      <trkpt lat="51.170765580836" lon="4.476469951953">
        <ele>10.2</ele>
        <time>2020-06-27T10:52:33Z</time>
      </trkpt>
      <trkpt lat="51.170430891569" lon="4.475752126037">
        <ele>11.8</ele>
        <time>2020-06-27T10:52:48Z</time>
      </trkpt>
      <trkpt lat="51.170029650016" lon="4.475791353329">
        <ele>11.2</ele>
        <time>2020-06-27T10:53:00Z</time>
      </trkpt>
      <trkpt lat="51.169526736016" lon="4.476161330395">
        <ele>9</ele>
        <time>2020-06-27T10:53:13Z</time>
      </trkpt>
      <trkpt lat="51.169266980935" lon="4.476306085808">
        <ele>10.8</ele>
        <time>2020-06-27T10:53:19Z</time>
      </trkpt>
      <trkpt lat="51.1691441861" lon="4.476276749158">
        <ele>9.8</ele>
        <time>2020-06-27T10:53:22Z</time>
      </trkpt>
      <trkpt lat="51.169083668782" lon="4.476167365363">
        <ele>9.6</ele>
        <time>2020-06-27T10:53:24Z</time>
      </trkpt>
      <trkpt lat="51.169018541419" lon="4.475976341862">
        <ele>10.4</ele>
        <time>2020-06-27T10:53:27Z</time>
      </trkpt>
      <trkpt lat="51.168946457079" lon="4.475701415542">
        <ele>12</ele>
        <time>2020-06-27T10:53:31Z</time>
      </trkpt>
      <trkpt lat="51.16895224059" lon="4.47548533016">
        <ele>13.2</ele>
        <time>2020-06-27T10:53:34Z</time>
      </trkpt>
      <trkpt lat="51.169071431208" lon="4.474605985031">
        <ele>18.4</ele>
        <time>2020-06-27T10:53:46Z</time>
      </trkpt>
      <trkpt lat="51.169184838315" lon="4.473703673496">
        <ele>18.4</ele>
        <time>2020-06-27T10:53:57Z</time>
      </trkpt>
      <trkpt lat="51.169221048123" lon="4.473245854118">
        <ele>18</ele>
        <time>2020-06-27T10:54:03Z</time>
      </trkpt>
      <trkpt lat="51.168944110147" lon="4.472989870892">
        <ele>12.8</ele>
        <time>2020-06-27T10:54:12Z</time>
      </trkpt>
      <trkpt lat="51.168438094844" lon="4.473034714057">
        <ele>15.6</ele>
        <time>2020-06-27T10:55:21Z</time>
      </trkpt>
      <trkpt lat="51.168363663572" lon="4.473224396454">
        <ele>17</ele>
        <time>2020-06-27T10:55:24Z</time>
      </trkpt>
      <trkpt lat="51.16829258506" lon="4.47411069856">
        <ele>19.4</ele>
        <time>2020-06-27T10:55:34Z</time>
      </trkpt>
      <trkpt lat="51.168198037228" lon="4.474992809716">
        <ele>17.4</ele>
        <time>2020-06-27T10:55:44Z</time>
      </trkpt>
      <trkpt lat="51.168102651206" lon="4.475874753234">
        <ele>17.6</ele>
        <time>2020-06-27T10:55:54Z</time>
      </trkpt>
      <trkpt lat="51.168002822777" lon="4.47676692267">
        <ele>16.6</ele>
        <time>2020-06-27T10:56:04Z</time>
      </trkpt>
      <trkpt lat="51.16790450309" lon="4.47767887339">
        <ele>17</ele>
        <time>2020-06-27T10:56:14Z</time>
      </trkpt>
      <trkpt lat="51.167823953031" lon="4.478564756401">
        <ele>16.6</ele>
        <time>2020-06-27T10:56:24Z</time>
      </trkpt>
      <trkpt lat="51.16779721477" lon="4.479452986344">
        <ele>15.4</ele>
        <time>2020-06-27T10:56:34Z</time>
      </trkpt>
      <trkpt lat="51.167707779897" lon="4.480344066133">
        <ele>14</ele>
        <time>2020-06-27T10:56:44Z</time>
      </trkpt>
      <trkpt lat="51.167634270634" lon="4.481278312707">
        <ele>14.8</ele>
        <time>2020-06-27T10:56:54Z</time>
      </trkpt>
      <trkpt lat="51.167477193828" lon="4.48279769972">
        <ele>17.2</ele>
        <time>2020-06-27T10:57:11Z</time>
      </trkpt>
      <trkpt lat="51.167375269924" lon="4.483678302134">
        <ele>19.2</ele>
        <time>2020-06-27T10:57:21Z</time>
      </trkpt>
      <trkpt lat="51.167305364878" lon="4.484530154631">
        <ele>21.8</ele>
        <time>2020-06-27T10:57:31Z</time>
      </trkpt>
      <trkpt lat="51.167251385442" lon="4.485072715018">
        <ele>22</ele>
        <time>2020-06-27T10:57:38Z</time>
      </trkpt>
      <trkpt lat="51.167190700486" lon="4.485182769365">
        <ele>21.6</ele>
        <time>2020-06-27T10:57:40Z</time>
      </trkpt>
      <trkpt lat="51.167100343604" lon="4.485244963063">
        <ele>20.8</ele>
        <time>2020-06-27T10:57:42Z</time>
      </trkpt>
      <trkpt lat="51.166568092954" lon="4.485463646834">
        <ele>14</ele>
        <time>2020-06-27T10:57:53Z</time>
      </trkpt>
      <trkpt lat="51.166016647753" lon="4.485705548468">
        <ele>10</ele>
        <time>2020-06-27T10:58:05Z</time>
      </trkpt>
      <trkpt lat="51.16583501198" lon="4.485837563393">
        <ele>9.4</ele>
        <time>2020-06-27T10:58:09Z</time>
      </trkpt>
      <trkpt lat="51.165661590469" lon="4.48591157557">
        <ele>9.6</ele>
        <time>2020-06-27T10:58:13Z</time>
      </trkpt>
      <trkpt lat="51.165141325936" lon="4.486184154958">
        <ele>13.2</ele>
        <time>2020-06-27T10:58:24Z</time>
      </trkpt>
      <trkpt lat="51.164625839086" lon="4.48643628251">
        <ele>12.2</ele>
        <time>2020-06-27T10:58:36Z</time>
      </trkpt>
      <trkpt lat="51.164490974315" lon="4.486511887248">
        <ele>14.8</ele>
        <time>2020-06-27T10:58:39Z</time>
      </trkpt>
      <trkpt lat="51.164091073866" lon="4.486844313402">
        <ele>14.2</ele>
        <time>2020-06-27T10:58:49Z</time>
      </trkpt>
      <trkpt lat="51.16361632305" lon="4.487349322877">
        <ele>14.8</ele>
        <time>2020-06-27T10:59:01Z</time>
      </trkpt>
      <trkpt lat="51.163152636342" lon="4.487849806126">
        <ele>14</ele>
        <time>2020-06-27T10:59:13Z</time>
      </trkpt>
      <trkpt lat="51.162685010141" lon="4.488287257487">
        <ele>13.8</ele>
        <time>2020-06-27T10:59:22Z</time>
      </trkpt>
      <trkpt lat="51.162208582945" lon="4.488794194799">
        <ele>14</ele>
        <time>2020-06-27T10:59:32Z</time>
      </trkpt>
      <trkpt lat="51.161726791333" lon="4.489267520692">
        <ele>14.6</ele>
        <time>2020-06-27T10:59:42Z</time>
      </trkpt>
      <trkpt lat="51.161605589059" lon="4.48944035547">
        <ele>12.4</ele>
        <time>2020-06-27T10:59:45Z</time>
      </trkpt>
      <trkpt lat="51.161221027487" lon="4.490055084016">
        <ele>17.4</ele>
        <time>2020-06-27T10:59:55Z</time>
      </trkpt>
      <trkpt lat="51.161021957362" lon="4.490293716709">
        <ele>17.8</ele>
        <time>2020-06-27T11:00:00Z</time>
      </trkpt>
      <trkpt lat="51.160907795884" lon="4.490406369445">
        <ele>19.4</ele>
        <time>2020-06-27T11:00:03Z</time>
      </trkpt>
      <trkpt lat="51.160661368024" lon="4.491110951959">
        <ele>19.8</ele>
        <time>2020-06-27T11:01:33Z</time>
      </trkpt>
      <trkpt lat="51.16061727923" lon="4.491119082402">
        <ele>19.8</ele>
        <time>2020-06-27T11:01:34Z</time>
      </trkpt>
      <trkpt lat="51.160055189016" lon="4.491236848097">
        <ele>19.4</ele>
        <time>2020-06-27T11:01:45Z</time>
      </trkpt>
      <trkpt lat="51.159511036068" lon="4.49139501455">
        <ele>11.8</ele>
        <time>2020-06-27T11:01:56Z</time>
      </trkpt>
      <trkpt lat="51.159260417258" lon="4.491504482164">
        <ele>12</ele>
        <time>2020-06-27T11:02:01Z</time>
      </trkpt>
      <trkpt lat="51.159170982385" lon="4.491530130778">
        <ele>10.8</ele>
        <time>2020-06-27T11:02:03Z</time>
      </trkpt>
      <trkpt lat="51.158656585182" lon="4.49160204748">
        <ele>13</ele>
        <time>2020-06-27T11:02:16Z</time>
      </trkpt>
      <trkpt lat="51.158166830765" lon="4.491798603035">
        <ele>36.8</ele>
        <time>2020-06-27T11:11:19Z</time>
      </trkpt>
      <trkpt lat="51.157911769548" lon="4.491772367688">
        <ele>36.2</ele>
        <time>2020-06-27T11:11:26Z</time>
      </trkpt>
      <trkpt lat="51.157418913828" lon="4.4922206317">
        <ele>31.6</ele>
        <time>2020-06-27T11:11:39Z</time>
      </trkpt>
      <trkpt lat="51.157305841997" lon="4.492242340821">
        <ele>29.6</ele>
        <time>2020-06-27T11:11:42Z</time>
      </trkpt>
      <trkpt lat="51.157029490754" lon="4.491498279558">
        <ele>22.4</ele>
        <time>2020-06-27T11:11:54Z</time>
      </trkpt>
      <trkpt lat="51.156877862183" lon="4.491142132627">
        <ele>17.6</ele>
        <time>2020-06-27T11:12:05Z</time>
      </trkpt>
      <trkpt lat="51.15670041736" lon="4.490654473685">
        <ele>13</ele>
        <time>2020-06-27T11:12:16Z</time>
      </trkpt>
      <trkpt lat="51.156798234133" lon="4.491174654399">
        <ele>13.4</ele>
        <time>2020-06-27T11:13:13Z</time>
      </trkpt>
      <trkpt lat="51.156314095589" lon="4.491569441889">
        <ele>13.6</ele>
        <time>2020-06-27T11:13:24Z</time>
      </trkpt>
      <trkpt lat="51.155825598457" lon="4.491991470554">
        <ele>13.4</ele>
        <time>2020-06-27T11:13:35Z</time>
      </trkpt>
      <trkpt lat="51.155565927195" lon="4.492240999717">
        <ele>13</ele>
        <time>2020-06-27T11:13:44Z</time>
      </trkpt>
      <trkpt lat="51.155607920514" lon="4.492472340157">
        <ele>12.8</ele>
        <time>2020-06-27T11:13:48Z</time>
      </trkpt>
      <trkpt lat="51.155828113027" lon="4.493324108835">
        <ele>11.4</ele>
        <time>2020-06-27T11:13:58Z</time>
      </trkpt>
      <trkpt lat="51.156093064886" lon="4.494082000233">
        <ele>10.2</ele>
        <time>2020-06-27T11:14:07Z</time>
      </trkpt>
      <trkpt lat="51.156169675452" lon="4.494172692391">
        <ele>9.4</ele>
        <time>2020-06-27T11:14:09Z</time>
      </trkpt>
      <trkpt lat="51.156281825274" lon="4.494140589714">
        <ele>9</ele>
        <time>2020-06-27T11:14:11Z</time>
      </trkpt>
      <trkpt lat="51.156736124254" lon="4.4936287909">
        <ele>7</ele>
        <time>2020-06-27T11:14:20Z</time>
      </trkpt>
      <trkpt lat="51.157197128754" lon="4.493069801989">
        <ele>7.2</ele>
        <time>2020-06-27T11:14:30Z</time>
      </trkpt>
      <trkpt lat="51.157295280803" lon="4.493012218336">
        <ele>8.6</ele>
        <time>2020-06-27T11:14:32Z</time>
      </trkpt>
      <trkpt lat="51.157378680708" lon="4.493079441174">
        <ele>9.6</ele>
        <time>2020-06-27T11:14:34Z</time>
      </trkpt>
      <trkpt lat="51.157446825555" lon="4.493195111394">
        <ele>10</ele>
        <time>2020-06-27T11:14:36Z</time>
      </trkpt>
      <trkpt lat="51.15773306744" lon="4.493992313903">
        <ele>10.8</ele>
        <time>2020-06-27T11:14:47Z</time>
      </trkpt>
      <trkpt lat="51.157752848724" lon="4.494065655528">
        <ele>10.6</ele>
        <time>2020-06-27T11:14:48Z</time>
      </trkpt>
      <trkpt lat="51.157754357466" lon="4.494205633258">
        <ele>9</ele>
        <time>2020-06-27T11:14:50Z</time>
      </trkpt>
      <trkpt lat="51.157688224275" lon="4.494308814447">
        <ele>8.4</ele>
        <time>2020-06-27T11:14:52Z</time>
      </trkpt>
      <trkpt lat="51.157269632189" lon="4.494800748158">
        <ele>8</ele>
        <time>2020-06-27T11:15:03Z</time>
      </trkpt>
      <trkpt lat="51.15724440267" lon="4.494916166921">
        <ele>9.6</ele>
        <time>2020-06-27T11:15:05Z</time>
      </trkpt>
      <trkpt lat="51.157360240528" lon="4.495257226432">
        <ele>8.6</ele>
        <time>2020-06-27T11:15:10Z</time>
      </trkpt>
      <trkpt lat="51.157444394804" lon="4.495358563603">
        <ele>9</ele>
        <time>2020-06-27T11:15:12Z</time>
      </trkpt>
      <trkpt lat="51.157655618684" lon="4.495403322949">
        <ele>11.4</ele>
        <time>2020-06-27T11:15:16Z</time>
      </trkpt>
      <trkpt lat="51.158002880801" lon="4.496097008993">
        <ele>8.4</ele>
        <time>2020-06-27T11:15:28Z</time>
      </trkpt>
      <trkpt lat="51.158360117379" lon="4.496814918728">
        <ele>7.6</ele>
        <time>2020-06-27T11:15:37Z</time>
      </trkpt>
      <trkpt lat="51.158595984045" lon="4.497222781982">
        <ele>8.2</ele>
        <time>2020-06-27T11:15:43Z</time>
      </trkpt>
      <trkpt lat="51.158688771678" lon="4.497290088639">
        <ele>8</ele>
        <time>2020-06-27T11:15:45Z</time>
      </trkpt>
      <trkpt lat="51.158725232943" lon="4.497415062768">
        <ele>7.4</ele>
        <time>2020-06-27T11:15:47Z</time>
      </trkpt>
      <trkpt lat="51.158691202429" lon="4.497541545639">
        <ele>7.2</ele>
        <time>2020-06-27T11:15:49Z</time>
      </trkpt>
      <trkpt lat="51.158609311266" lon="4.497640284421">
        <ele>7.6</ele>
        <time>2020-06-27T11:15:51Z</time>
      </trkpt>
      <trkpt lat="51.158118299564" lon="4.498047393304">
        <ele>10.6</ele>
        <time>2020-06-27T11:16:00Z</time>
      </trkpt>
      <trkpt lat="51.157629215699" lon="4.498498590981">
        <ele>10</ele>
        <time>2020-06-27T11:16:09Z</time>
      </trkpt>
      <trkpt lat="51.157404161684" lon="4.498678634193">
        <ele>8.4</ele>
        <time>2020-06-27T11:16:14Z</time>
      </trkpt>
      <trkpt lat="51.157403826408" lon="4.498677293089">
        <ele>10.6</ele>
        <time>2020-06-27T11:16:55Z</time>
      </trkpt>
      <trkpt lat="51.15737264574" lon="4.498702103513">
        <ele>11</ele>
        <time>2020-06-27T11:16:57Z</time>
      </trkpt>
      <trkpt lat="51.156908791394" lon="4.499171825189">
        <ele>11.8</ele>
        <time>2020-06-27T11:17:08Z</time>
      </trkpt>
      <trkpt lat="51.156423563203" lon="4.499649342032">
        <ele>11.6</ele>
        <time>2020-06-27T11:17:17Z</time>
      </trkpt>
      <trkpt lat="51.155926935628" lon="4.500130127816">
        <ele>11</ele>
        <time>2020-06-27T11:17:26Z</time>
      </trkpt>
      <trkpt lat="51.1554397796" lon="4.500600100949">
        <ele>10.2</ele>
        <time>2020-06-27T11:17:35Z</time>
      </trkpt>
      <trkpt lat="51.154940553636" lon="4.501083736579">
        <ele>10.8</ele>
        <time>2020-06-27T11:17:45Z</time>
      </trkpt>
      <trkpt lat="51.154454151979" lon="4.50154298088">
        <ele>9.8</ele>
        <time>2020-06-27T11:17:55Z</time>
      </trkpt>
      <trkpt lat="51.153972444186" lon="4.50201823461">
        <ele>7.2</ele>
        <time>2020-06-27T11:18:05Z</time>
      </trkpt>
      <trkpt lat="51.153488221823" lon="4.502501199688">
        <ele>6.8</ele>
        <time>2020-06-27T11:18:15Z</time>
      </trkpt>
      <trkpt lat="51.15329904234" lon="4.50268459566">
        <ele>5.4</ele>
        <time>2020-06-27T11:18:19Z</time>
      </trkpt>
      <trkpt lat="51.153203991594" lon="4.502789117953">
        <ele>5.6</ele>
        <time>2020-06-27T11:18:21Z</time>
      </trkpt>
      <trkpt lat="51.153103073518" lon="4.502884001061">
        <ele>6.4</ele>
        <time>2020-06-27T11:18:23Z</time>
      </trkpt>
      <trkpt lat="51.153043226752" lon="4.503097739511">
        <ele>3.8</ele>
        <time>2020-06-27T11:18:26Z</time>
      </trkpt>
      <trkpt lat="51.153173649116" lon="4.503248529892">
        <ele>3</ele>
        <time>2020-06-27T11:18:29Z</time>
      </trkpt>
      <trkpt lat="51.153650579226" lon="4.503676844982">
        <ele>3</ele>
        <time>2020-06-27T11:18:38Z</time>
      </trkpt>
      <trkpt lat="51.154125749137" lon="4.504110943583">
        <ele>3.4</ele>
        <time>2020-06-27T11:18:47Z</time>
      </trkpt>
      <trkpt lat="51.154628495499" lon="4.504574881748">
        <ele>5</ele>
        <time>2020-06-27T11:18:58Z</time>
      </trkpt>
      <trkpt lat="51.155095786424" lon="4.504977967319">
        <ele>4.4</ele>
        <time>2020-06-27T11:19:09Z</time>
      </trkpt>
      <trkpt lat="51.155663660149" lon="4.504903703685">
        <ele>6.4</ele>
        <time>2020-06-27T11:19:20Z</time>
      </trkpt>
      <trkpt lat="51.156244358181" lon="4.504810077862">
        <ele>8.2</ele>
        <time>2020-06-27T11:19:31Z</time>
      </trkpt>
      <trkpt lat="51.156798401771" lon="4.504666328277">
        <ele>8</ele>
        <time>2020-06-27T11:19:44Z</time>
      </trkpt>
      <trkpt lat="51.157350517524" lon="4.504526769642">
        <ele>10.8</ele>
        <time>2020-06-27T11:19:55Z</time>
      </trkpt>
      <trkpt lat="51.157923168932" lon="4.504410931784">
        <ele>12.8</ele>
        <time>2020-06-27T11:20:06Z</time>
      </trkpt>
      <trkpt lat="51.15810187104" lon="4.504388216835">
        <ele>13.8</ele>
        <time>2020-06-27T11:20:10Z</time>
      </trkpt>
      <trkpt lat="51.158171943724" lon="4.504567002762">
        <ele>14.2</ele>
        <time>2020-06-27T11:20:13Z</time>
      </trkpt>
      <trkpt lat="51.15824184877" lon="4.505046195985">
        <ele>12.6</ele>
        <time>2020-06-27T11:20:19Z</time>
      </trkpt>
      <trkpt lat="51.158463550025" lon="4.505924535286">
        <ele>5.8</ele>
        <time>2020-06-27T11:20:29Z</time>
      </trkpt>
      <trkpt lat="51.158677959027" lon="4.506774208489">
        <ele>0</ele>
        <time>2020-06-27T11:20:39Z</time>
      </trkpt>
      <trkpt lat="51.158906449621" lon="4.507625893348">
        <ele>3.2</ele>
        <time>2020-06-27T11:20:48Z</time>
      </trkpt>
      <trkpt lat="51.159118846967" lon="4.508447487186">
        <ele>6.6</ele>
        <time>2020-06-27T11:20:57Z</time>
      </trkpt>
      <trkpt lat="51.159357144384" lon="4.509330352713">
        <ele>7.8</ele>
        <time>2020-06-27T11:21:06Z</time>
      </trkpt>
      <trkpt lat="51.159561914201" lon="4.510170386731">
        <ele>9.2</ele>
        <time>2020-06-27T11:21:15Z</time>
      </trkpt>
      <trkpt lat="51.159682948837" lon="4.510633319068">
        <ele>13.2</ele>
        <time>2020-06-27T11:21:43Z</time>
      </trkpt>
      <trkpt lat="51.159851257389" lon="4.51086113911">
        <ele>13.2</ele>
        <time>2020-06-27T11:21:49Z</time>
      </trkpt>
      <trkpt lat="51.159902889893" lon="4.510989214542">
        <ele>13</ele>
        <time>2020-06-27T11:21:51Z</time>
      </trkpt>
      <trkpt lat="51.160009172385" lon="4.511364639843">
        <ele>13.4</ele>
        <time>2020-06-27T11:21:56Z</time>
      </trkpt>
      <trkpt lat="51.160065414934" lon="4.511508473247">
        <ele>12.8</ele>
        <time>2020-06-27T11:21:58Z</time>
      </trkpt>
      <trkpt lat="51.160285942723" lon="4.512367953273">
        <ele>11.2</ele>
        <time>2020-06-27T11:22:07Z</time>
      </trkpt>
      <trkpt lat="51.160457687854" lon="4.513182673953">
        <ele>13</ele>
        <time>2020-06-27T11:22:15Z</time>
      </trkpt>
      <trkpt lat="51.160551313677" lon="4.514121279115">
        <ele>12.6</ele>
        <time>2020-06-27T11:22:24Z</time>
      </trkpt>
      <trkpt lat="51.160613339737" lon="4.515064745779">
        <ele>11.6</ele>
        <time>2020-06-27T11:22:33Z</time>
      </trkpt>
      <trkpt lat="51.160679221471" lon="4.5159665544">
        <ele>10.6</ele>
        <time>2020-06-27T11:22:42Z</time>
      </trkpt>
      <trkpt lat="51.16074719868" lon="4.516864926442">
        <ele>10.4</ele>
        <time>2020-06-27T11:22:51Z</time>
      </trkpt>
      <trkpt lat="51.160820624124" lon="4.51776363376">
        <ele>9.8</ele>
        <time>2020-06-27T11:23:00Z</time>
      </trkpt>
      <trkpt lat="51.160891032084" lon="4.51866720258">
        <ele>9.6</ele>
        <time>2020-06-27T11:23:09Z</time>
      </trkpt>
      <trkpt lat="51.160960350397" lon="4.519592061426">
        <ele>9.6</ele>
        <time>2020-06-27T11:23:18Z</time>
      </trkpt>
      <trkpt lat="51.161024304294" lon="4.520499988834">
        <ele>8.4</ele>
        <time>2020-06-27T11:23:27Z</time>
      </trkpt>
      <trkpt lat="51.161021035353" lon="4.521428787173">
        <ele>8</ele>
        <time>2020-06-27T11:23:36Z</time>
      </trkpt>
      <trkpt lat="51.160648124622" lon="4.522619436068">
        <ele>8.2</ele>
        <time>2020-06-27T11:23:49Z</time>
      </trkpt>
      <trkpt lat="51.160369845542" lon="4.523429630522">
        <ele>7.6</ele>
        <time>2020-06-27T11:23:58Z</time>
      </trkpt>
      <trkpt lat="51.160209835071" lon="4.524264803038">
        <ele>8</ele>
        <time>2020-06-27T11:24:07Z</time>
      </trkpt>
      <trkpt lat="51.160195418203" lon="4.524350214599">
        <ele>8.2</ele>
        <time>2020-06-27T11:24:08Z</time>
      </trkpt>
      <trkpt lat="51.160125848433" lon="4.524459011661">
        <ele>8</ele>
        <time>2020-06-27T11:24:10Z</time>
      </trkpt>
      <trkpt lat="51.160030462411" lon="4.524452892874">
        <ele>8.4</ele>
        <time>2020-06-27T11:24:12Z</time>
      </trkpt>
      <trkpt lat="51.159496367743" lon="4.524281063924">
        <ele>8</ele>
        <time>2020-06-27T11:24:22Z</time>
      </trkpt>
      <trkpt lat="51.158953723537" lon="4.524188276291">
        <ele>7.6</ele>
        <time>2020-06-27T11:24:33Z</time>
      </trkpt>
      <trkpt lat="51.158711402808" lon="4.524128764801">
        <ele>7.6</ele>
        <time>2020-06-27T11:24:38Z</time>
      </trkpt>
      <trkpt lat="51.158266407737" lon="4.523841014174">
        <ele>7.6</ele>
        <time>2020-06-27T11:24:49Z</time>
      </trkpt>
      <trkpt lat="51.15771798002" lon="4.52374998674">
        <ele>8.4</ele>
        <time>2020-06-27T11:25:02Z</time>
      </trkpt>
      <trkpt lat="51.157168881751" lon="4.523852665015">
        <ele>11.2</ele>
        <time>2020-06-27T11:25:12Z</time>
      </trkpt>
      <trkpt lat="51.156618861473" lon="4.52394528501">
        <ele>11.2</ele>
        <time>2020-06-27T11:25:23Z</time>
      </trkpt>
      <trkpt lat="51.156146876684" lon="4.524066319646">
        <ele>11.6</ele>
        <time>2020-06-27T11:25:35Z</time>
      </trkpt>
      <trkpt lat="51.156089293031" lon="4.524184504436">
        <ele>11.4</ele>
        <time>2020-06-27T11:25:37Z</time>
      </trkpt>
      <trkpt lat="51.155795255979" lon="4.524996626727">
        <ele>10.8</ele>
        <time>2020-06-27T11:25:48Z</time>
      </trkpt>
      <trkpt lat="51.15564597434" lon="4.525734485384">
        <ele>9.8</ele>
        <time>2020-06-27T11:25:56Z</time>
      </trkpt>
      <trkpt lat="51.155676903551" lon="4.526608717554">
        <ele>7.2</ele>
        <time>2020-06-27T11:26:05Z</time>
      </trkpt>
      <trkpt lat="51.155635496965" lon="4.527516477324">
        <ele>7</ele>
        <time>2020-06-27T11:26:14Z</time>
      </trkpt>
      <trkpt lat="51.155563999358" lon="4.528405796914">
        <ele>7</ele>
        <time>2020-06-27T11:26:23Z</time>
      </trkpt>
      <trkpt lat="51.155489065172" lon="4.529328476466">
        <ele>6.8</ele>
        <time>2020-06-27T11:26:33Z</time>
      </trkpt>
      <trkpt lat="51.155425698008" lon="4.530208156871">
        <ele>6.8</ele>
        <time>2020-06-27T11:26:43Z</time>
      </trkpt>
      <trkpt lat="51.155438857591" lon="4.531115497546">
        <ele>6.6</ele>
        <time>2020-06-27T11:26:53Z</time>
      </trkpt>
      <trkpt lat="51.155493339941" lon="4.532018228176">
        <ele>6.4</ele>
        <time>2020-06-27T11:27:03Z</time>
      </trkpt>
      <trkpt lat="51.155535165622" lon="4.532891622156">
        <ele>5.8</ele>
        <time>2020-06-27T11:27:12Z</time>
      </trkpt>
      <trkpt lat="51.155522341315" lon="4.533794771881">
        <ele>5.4</ele>
        <time>2020-06-27T11:27:21Z</time>
      </trkpt>
      <trkpt lat="51.155395774625" lon="4.534677888865">
        <ele>5</ele>
        <time>2020-06-27T11:27:30Z</time>
      </trkpt>
      <trkpt lat="51.155212294834" lon="4.535496129943">
        <ele>6.8</ele>
        <time>2020-06-27T11:27:39Z</time>
      </trkpt>
      <trkpt lat="51.155023031532" lon="4.536337253608">
        <ele>7.4</ele>
        <time>2020-06-27T11:27:48Z</time>
      </trkpt>
      <trkpt lat="51.154832510945" lon="4.537146358415">
        <ele>6.6</ele>
        <time>2020-06-27T11:27:57Z</time>
      </trkpt>
      <trkpt lat="51.154632854087" lon="4.53801514235">
        <ele>6.8</ele>
        <time>2020-06-27T11:28:07Z</time>
      </trkpt>
      <trkpt lat="51.154446859726" lon="4.538822151682">
        <ele>5.8</ele>
        <time>2020-06-27T11:28:17Z</time>
      </trkpt>
      <trkpt lat="51.154197079106" lon="4.539667047202">
        <ele>4.8</ele>
        <time>2020-06-27T11:28:27Z</time>
      </trkpt>
      <trkpt lat="51.153919805854" lon="4.540472966887">
        <ele>6.2</ele>
        <time>2020-06-27T11:28:37Z</time>
      </trkpt>
      <trkpt lat="51.153775301898" lon="4.54136203502">
        <ele>2.2</ele>
        <time>2020-06-27T11:28:47Z</time>
      </trkpt>
      <trkpt lat="51.15379105987" lon="4.542240709597">
        <ele>0</ele>
        <time>2020-06-27T11:28:58Z</time>
      </trkpt>
      <trkpt lat="51.153809080955" lon="4.543107900971">
        <ele>2.2</ele>
        <time>2020-06-27T11:29:09Z</time>
      </trkpt>
      <trkpt lat="51.15360917264" lon="4.54396377678">
        <ele>1.2</ele>
        <time>2020-06-27T11:29:21Z</time>
      </trkpt>
      <trkpt lat="51.153562569276" lon="4.544115992084">
        <ele>1.4</ele>
        <time>2020-06-27T11:29:23Z</time>
      </trkpt>
      <trkpt lat="51.153323601307" lon="4.544902968675">
        <ele>0.8</ele>
        <time>2020-06-27T11:29:33Z</time>
      </trkpt>
      <trkpt lat="51.153080526207" lon="4.545678378244">
        <ele>2.6</ele>
        <time>2020-06-27T11:29:43Z</time>
      </trkpt>
      <trkpt lat="51.152854382545" lon="4.546470300156">
        <ele>4.2</ele>
        <time>2020-06-27T11:29:52Z</time>
      </trkpt>
      <trkpt lat="51.1526569888" lon="4.547355177339">
        <ele>4.2</ele>
        <time>2020-06-27T11:30:02Z</time>
      </trkpt>
      <trkpt lat="51.152481471814" lon="4.548249945164">
        <ele>2.8</ele>
        <time>2020-06-27T11:30:12Z</time>
      </trkpt>
      <trkpt lat="51.152293046702" lon="4.549124009696">
        <ele>2.4</ele>
        <time>2020-06-27T11:30:22Z</time>
      </trkpt>
      <trkpt lat="51.152127001263" lon="4.549886092044">
        <ele>3.2</ele>
        <time>2020-06-27T11:30:31Z</time>
      </trkpt>
      <trkpt lat="51.152159858311" lon="4.549991033432">
        <ele>2.4</ele>
        <time>2020-06-27T11:30:33Z</time>
      </trkpt>
      <trkpt lat="51.152275193255" lon="4.549954236891">
        <ele>0.8</ele>
        <time>2020-06-27T11:30:36Z</time>
      </trkpt>
      <trkpt lat="51.152509634998" lon="4.54979255004">
        <ele>1.4</ele>
        <time>2020-06-27T11:30:42Z</time>
      </trkpt>
      <trkpt lat="51.152753967383" lon="4.549627091334">
        <ele>4</ele>
        <time>2020-06-27T11:31:23Z</time>
      </trkpt>
      <trkpt lat="51.153277919952" lon="4.549316290482">
        <ele>2.8</ele>
        <time>2020-06-27T11:31:33Z</time>
      </trkpt>
      <trkpt lat="51.153813355724" lon="4.548995347531">
        <ele>0</ele>
        <time>2020-06-27T11:31:43Z</time>
      </trkpt>
      <trkpt lat="51.154339739044" lon="4.548585137345">
        <ele>0</ele>
        <time>2020-06-27T11:31:53Z</time>
      </trkpt>
      <trkpt lat="51.154565715068" lon="4.548337368381">
        <ele>0</ele>
        <time>2020-06-27T11:31:58Z</time>
      </trkpt>
      <trkpt lat="51.154675685596" lon="4.548328315929">
        <ele>0</ele>
        <time>2020-06-27T11:32:00Z</time>
      </trkpt>
      <trkpt lat="51.154781884269" lon="4.548394784396">
        <ele>0</ele>
        <time>2020-06-27T11:32:02Z</time>
      </trkpt>
      <trkpt lat="51.155263424424" lon="4.548939524077">
        <ele>0</ele>
        <time>2020-06-27T11:32:13Z</time>
      </trkpt>
      <trkpt lat="51.155791651762" lon="4.549345543313">
        <ele>0</ele>
        <time>2020-06-27T11:32:24Z</time>
      </trkpt>
      <trkpt lat="51.156308479716" lon="4.549685429358">
        <ele>1</ele>
        <time>2020-06-27T11:32:34Z</time>
      </trkpt>
      <trkpt lat="51.156441584288" lon="4.549835800644">
        <ele>0.8</ele>
        <time>2020-06-27T11:32:37Z</time>
      </trkpt>
      <trkpt lat="51.156503694167" lon="4.549989440871">
        <ele>0.2</ele>
        <time>2020-06-27T11:32:39Z</time>
      </trkpt>
      <trkpt lat="51.156544597839" lon="4.550265121562">
        <ele>1</ele>
        <time>2020-06-27T11:32:42Z</time>
      </trkpt>
      <trkpt lat="51.156603606415" lon="4.550530660154">
        <ele>1</ele>
        <time>2020-06-27T11:32:45Z</time>
      </trkpt>
      <trkpt lat="51.156700584998" lon="4.550772561788">
        <ele>0.8</ele>
        <time>2020-06-27T11:32:48Z</time>
      </trkpt>
      <trkpt lat="51.156884735341" lon="4.551096438404">
        <ele>1.6</ele>
        <time>2020-06-27T11:32:53Z</time>
      </trkpt>
      <trkpt lat="51.156886746997" lon="4.551257370884">
        <ele>1.8</ele>
        <time>2020-06-27T11:32:55Z</time>
      </trkpt>
      <trkpt lat="51.156839053986" lon="4.551408747998">
        <ele>2</ele>
        <time>2020-06-27T11:32:57Z</time>
      </trkpt>
      <trkpt lat="51.156691364908" lon="4.551789453896">
        <ele>2.4</ele>
        <time>2020-06-27T11:33:02Z</time>
      </trkpt>
      <trkpt lat="51.156626153726" lon="4.55192993454">
        <ele>3</ele>
        <time>2020-06-27T11:33:04Z</time>
      </trkpt>
      <trkpt lat="51.156621543681" lon="4.552081479292">
        <ele>2.8</ele>
        <time>2020-06-27T11:33:06Z</time>
      </trkpt>
      <trkpt lat="51.156668817597" lon="4.552195724589">
        <ele>3</ele>
        <time>2020-06-27T11:33:08Z</time>
      </trkpt>
      <trkpt lat="51.156786499473" lon="4.552276190829">
        <ele>3.4</ele>
        <time>2020-06-27T11:33:11Z</time>
      </trkpt>
      <trkpt lat="51.157351607171" lon="4.552514236789">
        <ele>0.6</ele>
        <time>2020-06-27T11:33:21Z</time>
      </trkpt>
      <trkpt lat="51.157874386274" lon="4.552753623853">
        <ele>1.4</ele>
        <time>2020-06-27T11:33:30Z</time>
      </trkpt>
      <trkpt lat="51.158411749883" lon="4.553017486065">
        <ele>3.4</ele>
        <time>2020-06-27T11:33:39Z</time>
      </trkpt>
      <trkpt lat="51.158953052985" lon="4.553270787083">
        <ele>3.6</ele>
        <time>2020-06-27T11:33:48Z</time>
      </trkpt>
      <trkpt lat="51.159472898423" lon="4.5535677578">
        <ele>3.8</ele>
        <time>2020-06-27T11:33:57Z</time>
      </trkpt>
      <trkpt lat="51.159984613418" lon="4.553897920841">
        <ele>2.6</ele>
        <time>2020-06-27T11:34:07Z</time>
      </trkpt>
      <trkpt lat="51.160490209626" lon="4.554234035031">
        <ele>1.6</ele>
        <time>2020-06-27T11:34:16Z</time>
      </trkpt>
      <trkpt lat="51.161017012041" lon="4.554622117001">
        <ele>0.6</ele>
        <time>2020-06-27T11:34:25Z</time>
      </trkpt>
      <trkpt lat="51.161512801426" lon="4.554965523444">
        <ele>0</ele>
        <time>2020-06-27T11:34:34Z</time>
      </trkpt>
      <trkpt lat="51.161547837768" lon="4.554988992764">
        <ele>0</ele>
        <time>2020-06-27T11:34:37Z</time>
      </trkpt>
      <trkpt lat="51.161548173044" lon="4.555014138464">
        <ele>0.8</ele>
        <time>2020-06-27T11:35:12Z</time>
      </trkpt>
      <trkpt lat="51.16157197764" lon="4.555023610011">
        <ele>0.8</ele>
        <time>2020-06-27T11:35:14Z</time>
      </trkpt>
      <trkpt lat="51.161841707182" lon="4.555435328939">
        <ele>1</ele>
        <time>2020-06-27T11:35:23Z</time>
      </trkpt>
      <trkpt lat="51.161905158165" lon="4.555610259192">
        <ele>1</ele>
        <time>2020-06-27T11:35:25Z</time>
      </trkpt>
      <trkpt lat="51.162031054303" lon="4.556516258763">
        <ele>0.2</ele>
        <time>2020-06-27T11:35:34Z</time>
      </trkpt>
      <trkpt lat="51.162159297373" lon="4.557429131492">
        <ele>0</ele>
        <time>2020-06-27T11:35:43Z</time>
      </trkpt>
      <trkpt lat="51.162222580718" lon="4.557600876623">
        <ele>0</ele>
        <time>2020-06-27T11:35:45Z</time>
      </trkpt>
      <trkpt lat="51.162315200713" lon="4.557745045303">
        <ele>0</ele>
        <time>2020-06-27T11:35:47Z</time>
      </trkpt>
      <trkpt lat="51.16243363696" lon="4.557853590908">
        <ele>0</ele>
        <time>2020-06-27T11:35:49Z</time>
      </trkpt>
      <trkpt lat="51.162957002796" lon="4.558177551343">
        <ele>0</ele>
        <time>2020-06-27T11:35:57Z</time>
      </trkpt>
      <trkpt lat="51.163464443022" lon="4.55857426667">
        <ele>0.8</ele>
        <time>2020-06-27T11:36:06Z</time>
      </trkpt>
      <trkpt lat="51.163509537644" lon="4.558635203083">
        <ele>0.8</ele>
        <time>2020-06-27T11:36:07Z</time>
      </trkpt>
      <trkpt lat="51.163714307461" lon="4.559182289696">
        <ele>1.6</ele>
        <time>2020-06-27T11:36:14Z</time>
      </trkpt>
      <trkpt lat="51.163702572801" lon="4.560118464107">
        <ele>0</ele>
        <time>2020-06-27T11:36:24Z</time>
      </trkpt>
      <trkpt lat="51.163672230323" lon="4.561008202792">
        <ele>0</ele>
        <time>2020-06-27T11:36:34Z</time>
      </trkpt>
      <trkpt lat="51.163679019662" lon="4.561272903194">
        <ele>0</ele>
        <time>2020-06-27T11:36:37Z</time>
      </trkpt>
      <trkpt lat="51.163830564414" lon="4.562111344651">
        <ele>0</ele>
        <time>2020-06-27T11:36:47Z</time>
      </trkpt>
      <trkpt lat="51.163996693672" lon="4.562959844388">
        <ele>0</ele>
        <time>2020-06-27T11:36:57Z</time>
      </trkpt>
      <trkpt lat="51.164131642262" lon="4.563839440974">
        <ele>0</ele>
        <time>2020-06-27T11:37:08Z</time>
      </trkpt>
      <trkpt lat="51.164152345555" lon="4.564722893234">
        <ele>0</ele>
        <time>2020-06-27T11:37:17Z</time>
      </trkpt>
      <trkpt lat="51.164152010279" lon="4.565323204912">
        <ele>0</ele>
        <time>2020-06-27T11:37:23Z</time>
      </trkpt>
      <trkpt lat="51.163996526034" lon="4.566087047459">
        <ele>0</ele>
        <time>2020-06-27T11:37:32Z</time>
      </trkpt>
      <trkpt lat="51.164034076946" lon="4.566955579937">
        <ele>0.6</ele>
        <time>2020-06-27T11:37:42Z</time>
      </trkpt>
      <trkpt lat="51.164065509071" lon="4.567895442384">
        <ele>0.6</ele>
        <time>2020-06-27T11:37:53Z</time>
      </trkpt>
      <trkpt lat="51.164066766356" lon="4.568602623287">
        <ele>0.6</ele>
        <time>2020-06-27T11:38:01Z</time>
      </trkpt>
      <trkpt lat="51.163994598197" lon="4.569430252093">
        <ele>0.4</ele>
        <time>2020-06-27T11:38:10Z</time>
      </trkpt>
      <trkpt lat="51.163944642073" lon="4.569581880664">
        <ele>0.2</ele>
        <time>2020-06-27T11:38:12Z</time>
      </trkpt>
      <trkpt lat="51.163883035108" lon="4.569719427643">
        <ele>0</ele>
        <time>2020-06-27T11:38:14Z</time>
      </trkpt>
      <trkpt lat="51.16385772177" lon="4.569962083648">
        <ele>0</ele>
        <time>2020-06-27T11:38:17Z</time>
      </trkpt>
      <trkpt lat="51.163799216108" lon="4.570110694735">
        <ele>0</ele>
        <time>2020-06-27T11:38:19Z</time>
      </trkpt>
      <trkpt lat="51.163500317554" lon="4.570846709374">
        <ele>0</ele>
        <time>2020-06-27T11:38:28Z</time>
      </trkpt>
      <trkpt lat="51.163220194456" lon="4.571612479758">
        <ele>0</ele>
        <time>2020-06-27T11:38:37Z</time>
      </trkpt>
      <trkpt lat="51.162902604265" lon="4.572349248768">
        <ele>0</ele>
        <time>2020-06-27T11:38:46Z</time>
      </trkpt>
      <trkpt lat="51.162508319689" lon="4.572992056679">
        <ele>0</ele>
        <time>2020-06-27T11:38:56Z</time>
      </trkpt>
      <trkpt lat="51.16202879119" lon="4.573511063927">
        <ele>0</ele>
        <time>2020-06-27T11:39:06Z</time>
      </trkpt>
      <trkpt lat="51.161536941298" lon="4.573904007399">
        <ele>0</ele>
        <time>2020-06-27T11:39:16Z</time>
      </trkpt>
      <trkpt lat="51.16103302147" lon="4.574288904247">
        <ele>0</ele>
        <time>2020-06-27T11:39:26Z</time>
      </trkpt>
      <trkpt lat="51.160534885153" lon="4.574655947648">
        <ele>0</ele>
        <time>2020-06-27T11:39:37Z</time>
      </trkpt>
      <trkpt lat="51.159985619246" lon="4.574967419052">
        <ele>0.2</ele>
        <time>2020-06-27T11:39:48Z</time>
      </trkpt>
      <trkpt lat="51.15985787909" lon="4.575040425401">
        <ele>0.6</ele>
        <time>2020-06-27T11:39:51Z</time>
      </trkpt>
      <trkpt lat="51.159824770585" lon="4.575143690409">
        <ele>0</ele>
        <time>2020-06-27T11:39:53Z</time>
      </trkpt>
      <trkpt lat="51.159843294584" lon="4.575275370058">
        <ele>0</ele>
        <time>2020-06-27T11:39:55Z</time>
      </trkpt>
      <trkpt lat="51.159914456915" lon="4.575605700737">
        <ele>0.2</ele>
        <time>2020-06-27T11:39:59Z</time>
      </trkpt>
      <trkpt lat="51.159953013655" lon="4.575745343191">
        <ele>0.2</ele>
        <time>2020-06-27T11:40:01Z</time>
      </trkpt>
      <trkpt lat="51.160151413228" lon="4.576524273158">
        <ele>1.4</ele>
        <time>2020-06-27T11:40:10Z</time>
      </trkpt>
      <trkpt lat="51.160148311925" lon="4.576714039374">
        <ele>2.2</ele>
        <time>2020-06-27T11:40:12Z</time>
      </trkpt>
      <trkpt lat="51.159932561819" lon="4.577507050933">
        <ele>2.2</ele>
        <time>2020-06-27T11:40:21Z</time>
      </trkpt>
      <trkpt lat="51.159676327136" lon="4.578335937024">
        <ele>0.8</ele>
        <time>2020-06-27T11:40:31Z</time>
      </trkpt>
      <trkpt lat="51.159425875964" lon="4.579200110914">
        <ele>1.4</ele>
        <time>2020-06-27T11:40:41Z</time>
      </trkpt>
      <trkpt lat="51.159202665967" lon="4.580076690016">
        <ele>1.6</ele>
        <time>2020-06-27T11:40:51Z</time>
      </trkpt>
      <trkpt lat="51.158984568929" lon="4.580870204489">
        <ele>2.4</ele>
        <time>2020-06-27T11:41:02Z</time>
      </trkpt>
      <trkpt lat="51.158938719936" lon="4.581006578002">
        <ele>2.4</ele>
        <time>2020-06-27T11:41:04Z</time>
      </trkpt>
      <trkpt lat="51.158705032564" lon="4.581785759426">
        <ele>2.4</ele>
        <time>2020-06-27T11:41:14Z</time>
      </trkpt>
      <trkpt lat="51.158603611574" lon="4.582117179752">
        <ele>2.4</ele>
        <time>2020-06-27T11:41:18Z</time>
      </trkpt>
      <trkpt lat="51.158595145855" lon="4.58231096928">
        <ele>2.4</ele>
        <time>2020-06-27T11:41:20Z</time>
      </trkpt>
      <trkpt lat="51.158635378975" lon="4.582501322229">
        <ele>2.2</ele>
        <time>2020-06-27T11:41:22Z</time>
      </trkpt>
      <trkpt lat="51.158902007214" lon="4.583274468685">
        <ele>0.4</ele>
        <time>2020-06-27T11:41:31Z</time>
      </trkpt>
      <trkpt lat="51.159064196979" lon="4.583811832294">
        <ele>0</ele>
        <time>2020-06-27T11:41:37Z</time>
      </trkpt>
      <trkpt lat="51.159035866157" lon="4.58399321661">
        <ele>0</ele>
        <time>2020-06-27T11:41:39Z</time>
      </trkpt>
      <trkpt lat="51.158735794137" lon="4.584726800498">
        <ele>0.8</ele>
        <time>2020-06-27T11:41:48Z</time>
      </trkpt>
      <trkpt lat="51.158707211858" lon="4.584786563445">
        <ele>1</ele>
        <time>2020-06-27T11:41:49Z</time>
      </trkpt>
      <trkpt lat="51.158641749219" lon="4.584826712746">
        <ele>0.8</ele>
        <time>2020-06-27T11:41:51Z</time>
      </trkpt>
      <trkpt lat="51.158126932921" lon="4.584359589459">
        <ele>0</ele>
        <time>2020-06-27T11:42:03Z</time>
      </trkpt>
      <trkpt lat="51.157613290089" lon="4.583906715402">
        <ele>0</ele>
        <time>2020-06-27T11:42:14Z</time>
      </trkpt>
      <trkpt lat="51.15709604304" lon="4.583481417796">
        <ele>0</ele>
        <time>2020-06-27T11:42:25Z</time>
      </trkpt>
      <trkpt lat="51.156576700516" lon="4.583055617276">
        <ele>0</ele>
        <time>2020-06-27T11:42:36Z</time>
      </trkpt>
      <trkpt lat="51.156084934443" lon="4.582652028791">
        <ele>0</ele>
        <time>2020-06-27T11:42:46Z</time>
      </trkpt>
      <trkpt lat="51.155581098434" lon="4.582239639311">
        <ele>0</ele>
        <time>2020-06-27T11:42:58Z</time>
      </trkpt>
      <trkpt lat="51.155457046314" lon="4.582139559425">
        <ele>0</ele>
        <time>2020-06-27T11:43:01Z</time>
      </trkpt>
      <trkpt lat="51.154952204477" lon="4.581725242108">
        <ele>0</ele>
        <time>2020-06-27T11:43:11Z</time>
      </trkpt>
      <trkpt lat="51.154731928145" lon="4.581536900815">
        <ele>0</ele>
        <time>2020-06-27T11:43:16Z</time>
      </trkpt>
      <trkpt lat="51.154243933927" lon="4.581107915173">
        <ele>0</ele>
        <time>2020-06-27T11:43:29Z</time>
      </trkpt>
      <trkpt lat="51.15375334132" lon="4.58070164448">
        <ele>0</ele>
        <time>2020-06-27T11:43:40Z</time>
      </trkpt>
      <trkpt lat="51.153655105452" lon="4.580560325646">
        <ele>0.6</ele>
        <time>2020-06-27T11:43:43Z</time>
      </trkpt>
      <trkpt lat="51.153785024902" lon="4.580201915602">
        <ele>0.8</ele>
        <time>2020-06-27T11:43:51Z</time>
      </trkpt>
      <trkpt lat="51.154235719665" lon="4.579677627757">
        <ele>0</ele>
        <time>2020-06-27T11:44:02Z</time>
      </trkpt>
      <trkpt lat="51.154649617887" lon="4.579110843679">
        <ele>0</ele>
        <time>2020-06-27T11:44:13Z</time>
      </trkpt>
      <trkpt lat="51.154705776617" lon="4.57900766249">
        <ele>0</ele>
        <time>2020-06-27T11:44:15Z</time>
      </trkpt>
      <trkpt lat="51.154767718858" lon="4.578922418567">
        <ele>0</ele>
        <time>2020-06-27T11:44:17Z</time>
      </trkpt>
      <trkpt lat="51.15480778434" lon="4.578800210465">
        <ele>0</ele>
        <time>2020-06-27T11:44:19Z</time>
      </trkpt>
      <trkpt lat="51.154839803198" lon="4.578906325319">
        <ele>0.2</ele>
        <time>2020-06-27T11:44:24Z</time>
      </trkpt>
      <trkpt lat="51.154674428311" lon="4.579053595302">
        <ele>0</ele>
        <time>2020-06-27T11:44:28Z</time>
      </trkpt>
      <trkpt lat="51.154407464796" lon="4.579400019229">
        <ele>1.6</ele>
        <time>2020-06-27T11:44:36Z</time>
      </trkpt>
      <trkpt lat="51.154314006611" lon="4.579449640077">
        <ele>1.4</ele>
        <time>2020-06-27T11:44:38Z</time>
      </trkpt>
      <trkpt lat="51.154225996661" lon="4.579404377817">
        <ele>1.2</ele>
        <time>2020-06-27T11:44:40Z</time>
      </trkpt>
      <trkpt lat="51.154162461859" lon="4.579303459741">
        <ele>0.8</ele>
        <time>2020-06-27T11:44:42Z</time>
      </trkpt>
      <trkpt lat="51.153835819216" lon="4.578547328542">
        <ele>3.4</ele>
        <time>2020-06-27T11:44:55Z</time>
      </trkpt>
      <trkpt lat="51.153696847314" lon="4.57839578379">
        <ele>3</ele>
        <time>2020-06-27T11:45:00Z</time>
      </trkpt>
      <trkpt lat="51.153262413437" lon="4.578922837662">
        <ele>1.8</ele>
        <time>2020-06-27T11:45:12Z</time>
      </trkpt>
      <trkpt lat="51.152906937058" lon="4.579593724938">
        <ele>3</ele>
        <time>2020-06-27T11:45:23Z</time>
      </trkpt>
      <trkpt lat="51.152566883375" lon="4.580303336592">
        <ele>3.4</ele>
        <time>2020-06-27T11:45:35Z</time>
      </trkpt>
      <trkpt lat="51.152528410454" lon="4.580349185585">
        <ele>3.2</ele>
        <time>2020-06-27T11:45:37Z</time>
      </trkpt>
      <trkpt lat="51.152506198419" lon="4.580341138961">
        <ele>3.6</ele>
        <time>2020-06-27T11:45:44Z</time>
      </trkpt>
      <trkpt lat="51.152492033008" lon="4.58030350423">
        <ele>4.2</ele>
        <time>2020-06-27T11:45:46Z</time>
      </trkpt>
      <trkpt lat="51.152494882854" lon="4.580211051873">
        <ele>6.2</ele>
        <time>2020-06-27T11:45:49Z</time>
      </trkpt>
      <trkpt lat="51.152772994296" lon="4.579608309444">
        <ele>1.8</ele>
        <time>2020-06-27T11:46:00Z</time>
      </trkpt>
      <trkpt lat="51.152752207184" lon="4.579527675566">
        <ele>1.4</ele>
        <time>2020-06-27T11:46:02Z</time>
      </trkpt>
      <trkpt lat="51.152293884892" lon="4.578937422168">
        <ele>0</ele>
        <time>2020-06-27T11:46:14Z</time>
      </trkpt>
      <trkpt lat="51.151900857601" lon="4.578249854911">
        <ele>0</ele>
        <time>2020-06-27T11:46:26Z</time>
      </trkpt>
      <trkpt lat="51.15154722524" lon="4.57759698872">
        <ele>0</ele>
        <time>2020-06-27T11:46:37Z</time>
      </trkpt>
      <trkpt lat="51.15117506888" lon="4.576883521392">
        <ele>0</ele>
        <time>2020-06-27T11:46:50Z</time>
      </trkpt>
      <trkpt lat="51.150826214202" lon="4.576149853685">
        <ele>2.2</ele>
        <time>2020-06-27T11:47:03Z</time>
      </trkpt>
      <trkpt lat="51.150491608754" lon="4.575436889271">
        <ele>1.4</ele>
        <time>2020-06-27T11:47:15Z</time>
      </trkpt>
      <trkpt lat="51.150142334981" lon="4.574765415262">
        <ele>0</ele>
        <time>2020-06-27T11:47:28Z</time>
      </trkpt>
      <trkpt lat="51.150109645571" lon="4.574835404127">
        <ele>0</ele>
        <time>2020-06-27T11:47:30Z</time>
      </trkpt>
      <trkpt lat="51.149987521288" lon="4.575736542196">
        <ele>0</ele>
        <time>2020-06-27T11:47:42Z</time>
      </trkpt>
      <trkpt lat="51.149784176394" lon="4.576581353897">
        <ele>0</ele>
        <time>2020-06-27T11:47:53Z</time>
      </trkpt>
      <trkpt lat="51.149584770993" lon="4.577311501206">
        <ele>0</ele>
        <time>2020-06-27T11:48:03Z</time>
      </trkpt>
      <trkpt lat="51.14933691821" lon="4.577684831032">
        <ele>4.6</ele>
        <time>2020-06-27T11:48:54Z</time>
      </trkpt>
      <trkpt lat="51.149306408094" lon="4.577674269838">
        <ele>4.6</ele>
        <time>2020-06-27T11:48:55Z</time>
      </trkpt>
      <trkpt lat="51.148824700301" lon="4.577259617245">
        <ele>3.6</ele>
        <time>2020-06-27T11:49:07Z</time>
      </trkpt>
      <trkpt lat="51.1483067827" lon="4.576829290499">
        <ele>1.8</ele>
        <time>2020-06-27T11:49:17Z</time>
      </trkpt>
      <trkpt lat="51.147780902294" lon="4.576514801611">
        <ele>0</ele>
        <time>2020-06-27T11:49:28Z</time>
      </trkpt>
      <trkpt lat="51.147287040746" lon="4.576243647146">
        <ele>0</ele>
        <time>2020-06-27T11:49:39Z</time>
      </trkpt>
      <trkpt lat="51.146748419852" lon="4.576126635822">
        <ele>0</ele>
        <time>2020-06-27T11:49:52Z</time>
      </trkpt>
      <trkpt lat="51.146224132007" lon="4.576374488605">
        <ele>0</ele>
        <time>2020-06-27T11:50:06Z</time>
      </trkpt>
      <trkpt lat="51.145809144138" lon="4.576522177683">
        <ele>0</ele>
        <time>2020-06-27T11:50:22Z</time>
      </trkpt>
      <trkpt lat="51.146346591566" lon="4.576340038996">
        <ele>0</ele>
        <time>2020-06-27T11:50:35Z</time>
      </trkpt>
      <trkpt lat="51.14656837664" lon="4.576271391235">
        <ele>0</ele>
        <time>2020-06-27T11:50:40Z</time>
      </trkpt>
      <trkpt lat="51.146695613882" lon="4.576240629662">
        <ele>0</ele>
        <time>2020-06-27T11:50:44Z</time>
      </trkpt>
      <trkpt lat="51.146612465434" lon="4.577106479932">
        <ele>0</ele>
        <time>2020-06-27T11:50:58Z</time>
      </trkpt>
      <trkpt lat="51.146531328642" lon="4.577758927028">
        <ele>0</ele>
        <time>2020-06-27T11:51:10Z</time>
      </trkpt>
      <trkpt lat="51.146480785785" lon="4.578008288553">
        <ele>0.8</ele>
        <time>2020-06-27T11:51:50Z</time>
      </trkpt>
      <trkpt lat="51.145929759679" lon="4.577826149866">
        <ele>0</ele>
        <time>2020-06-27T11:52:06Z</time>
      </trkpt>
      <trkpt lat="51.145383511256" lon="4.577787509307">
        <ele>0.4</ele>
        <time>2020-06-27T11:52:17Z</time>
      </trkpt>
      <trkpt lat="51.144813709694" lon="4.577859174552">
        <ele>0</ele>
        <time>2020-06-27T11:52:28Z</time>
      </trkpt>
      <trkpt lat="51.144362847293" lon="4.577905023545">
        <ele>0.2</ele>
        <time>2020-06-27T11:52:37Z</time>
      </trkpt>
      <trkpt lat="51.143813497567" lon="4.578007953277">
        <ele>0</ele>
        <time>2020-06-27T11:52:49Z</time>
      </trkpt>
      <trkpt lat="51.143282168926" lon="4.578217668415">
        <ele>0</ele>
        <time>2020-06-27T11:53:00Z</time>
      </trkpt>
      <trkpt lat="51.142763496954" lon="4.578477339677">
        <ele>0</ele>
        <time>2020-06-27T11:53:12Z</time>
      </trkpt>
      <trkpt lat="51.142275083641" lon="4.578941361661">
        <ele>0</ele>
        <time>2020-06-27T11:53:25Z</time>
      </trkpt>
      <trkpt lat="51.142128400391" lon="4.579211510298">
        <ele>0</ele>
        <time>2020-06-27T11:53:34Z</time>
      </trkpt>
      <trkpt lat="51.142093112592" lon="4.579304633207">
        <ele>0</ele>
        <time>2020-06-27T11:53:37Z</time>
      </trkpt>
      <trkpt lat="51.141831597312" lon="4.579114783172">
        <ele>2</ele>
        <time>2020-06-27T11:54:39Z</time>
      </trkpt>
      <trkpt lat="51.141728583761" lon="4.578928285897">
        <ele>2.2</ele>
        <time>2020-06-27T11:54:45Z</time>
      </trkpt>
      <trkpt lat="51.141710897952" lon="4.579225088976">
        <ele>1.4</ele>
        <time>2020-06-27T11:54:51Z</time>
      </trkpt>
      <trkpt lat="51.141689356469" lon="4.579378561565">
        <ele>1.6</ele>
        <time>2020-06-27T11:54:53Z</time>
      </trkpt>
      <trkpt lat="51.141630012617" lon="4.57952398753">
        <ele>1</ele>
        <time>2020-06-27T11:54:55Z</time>
      </trkpt>
      <trkpt lat="51.141542421762" lon="4.579631024393">
        <ele>0.6</ele>
        <time>2020-06-27T11:54:57Z</time>
      </trkpt>
      <trkpt lat="51.141293479332" lon="4.579801847515">
        <ele>0.2</ele>
        <time>2020-06-27T11:55:02Z</time>
      </trkpt>
      <trkpt lat="51.141011763673" lon="4.579804194447">
        <ele>0</ele>
        <time>2020-06-27T11:55:07Z</time>
      </trkpt>
      <trkpt lat="51.140894584711" lon="4.579766308259">
        <ele>0</ele>
        <time>2020-06-27T11:55:11Z</time>
      </trkpt>
      <trkpt lat="51.140729209824" lon="4.579586097409">
        <ele>0</ele>
        <time>2020-06-27T11:55:32Z</time>
      </trkpt>
      <trkpt lat="51.140650839059" lon="4.579441341996">
        <ele>0</ele>
        <time>2020-06-27T11:55:35Z</time>
      </trkpt>
      <trkpt lat="51.140399130602" lon="4.578678086182">
        <ele>0.4</ele>
        <time>2020-06-27T11:55:46Z</time>
      </trkpt>
      <trkpt lat="51.1401595759" lon="4.577887505374">
        <ele>4.4</ele>
        <time>2020-06-27T11:55:57Z</time>
      </trkpt>
      <trkpt lat="51.139986238208" lon="4.577384507555">
        <ele>5.4</ele>
        <time>2020-06-27T11:56:04Z</time>
      </trkpt>
      <trkpt lat="51.139524898432" lon="4.576859549158">
        <ele>5</ele>
        <time>2020-06-27T11:56:16Z</time>
      </trkpt>
      <trkpt lat="51.139003795709" lon="4.576537432741">
        <ele>4.2</ele>
        <time>2020-06-27T11:56:27Z</time>
      </trkpt>
      <trkpt lat="51.138540276639" lon="4.575997303105">
        <ele>4.2</ele>
        <time>2020-06-27T11:56:38Z</time>
      </trkpt>
      <trkpt lat="51.138490069058" lon="4.575887164939">
        <ele>4.2</ele>
        <time>2020-06-27T11:56:39Z</time>
      </trkpt>
      <trkpt lat="51.138450087395" lon="4.575765711208">
        <ele>4.4</ele>
        <time>2020-06-27T11:56:42Z</time>
      </trkpt>
      <trkpt lat="51.138409183723" lon="4.575573430422">
        <ele>4.4</ele>
        <time>2020-06-27T11:56:45Z</time>
      </trkpt>
      <trkpt lat="51.138242300094" lon="4.574288066057">
        <ele>4.4</ele>
        <time>2020-06-27T11:57:04Z</time>
      </trkpt>
      <trkpt lat="51.138232241814" lon="4.574221765228">
        <ele>4</ele>
        <time>2020-06-27T11:57:05Z</time>
      </trkpt>
      <trkpt lat="51.138106261857" lon="4.573373181672">
        <ele>4.8</ele>
        <time>2020-06-27T11:57:18Z</time>
      </trkpt>
      <trkpt lat="51.137992100379" lon="4.572536248957">
        <ele>3.4</ele>
        <time>2020-06-27T11:57:31Z</time>
      </trkpt>
      <trkpt lat="51.138002410116" lon="4.572283953767">
        <ele>6</ele>
        <time>2020-06-27T11:57:39Z</time>
      </trkpt>
      <trkpt lat="51.137989250533" lon="4.57224514557">
        <ele>6.6</ele>
        <time>2020-06-27T11:57:44Z</time>
      </trkpt>
      <trkpt lat="51.137982042099" lon="4.572233075634">
        <ele>6.6</ele>
        <time>2020-06-27T11:57:45Z</time>
      </trkpt>
      <trkpt lat="51.137930158138" lon="4.572202649337">
        <ele>7.4</ele>
        <time>2020-06-27T11:57:48Z</time>
      </trkpt>
      <trkpt lat="51.137501843048" lon="4.572141712924">
        <ele>4</ele>
        <time>2020-06-27T11:58:01Z</time>
      </trkpt>
      <trkpt lat="51.137413078727" lon="4.57212612259">
        <ele>0</ele>
        <time>2020-06-27T11:58:53Z</time>
      </trkpt>
      <trkpt lat="51.137773835703" lon="4.572462572056">
        <ele>0</ele>
        <time>2020-06-27T11:59:07Z</time>
      </trkpt>
      <trkpt lat="51.137879280005" lon="4.57331048506">
        <ele>0</ele>
        <time>2020-06-27T11:59:18Z</time>
      </trkpt>
      <trkpt lat="51.137995620777" lon="4.574202151582">
        <ele>0</ele>
        <time>2020-06-27T11:59:29Z</time>
      </trkpt>
      <trkpt lat="51.138036775906" lon="4.575024332153">
        <ele>0</ele>
        <time>2020-06-27T11:59:40Z</time>
      </trkpt>
      <trkpt lat="51.138023197228" lon="4.57562640403">
        <ele>0</ele>
        <time>2020-06-27T11:59:51Z</time>
      </trkpt>
      <trkpt lat="51.137934013812" lon="4.57568926828">
        <ele>0</ele>
        <time>2020-06-27T11:59:53Z</time>
      </trkpt>
      <trkpt lat="51.137407295216" lon="4.57595832727">
        <ele>2.2</ele>
        <time>2020-06-27T12:00:03Z</time>
      </trkpt>
      <trkpt lat="51.13692500069" lon="4.576357473348">
        <ele>2.2</ele>
        <time>2020-06-27T12:00:13Z</time>
      </trkpt>
      <trkpt lat="51.136522753309" lon="4.576944793081">
        <ele>1.4</ele>
        <time>2020-06-27T12:00:24Z</time>
      </trkpt>
      <trkpt lat="51.136409094745" lon="4.577147383604">
        <ele>1.2</ele>
        <time>2020-06-27T12:00:28Z</time>
      </trkpt>
      <trkpt lat="51.136005841536" lon="4.577810224256">
        <ele>0.6</ele>
        <time>2020-06-27T12:00:39Z</time>
      </trkpt>
      <trkpt lat="51.135625387095" lon="4.578435849272">
        <ele>1.6</ele>
        <time>2020-06-27T12:00:50Z</time>
      </trkpt>
      <trkpt lat="51.13541793507" lon="4.57877967481">
        <ele>1.6</ele>
        <time>2020-06-27T12:00:56Z</time>
      </trkpt>
      <trkpt lat="51.135037815905" lon="4.579380154126">
        <ele>0.6</ele>
        <time>2020-06-27T12:01:07Z</time>
      </trkpt>
      <trkpt lat="51.1348370694" lon="4.579586097409">
        <ele>1</ele>
        <time>2020-06-27T12:01:13Z</time>
      </trkpt>
      <trkpt lat="51.134666413916" lon="4.579664635812">
        <ele>1.8</ele>
        <time>2020-06-27T12:01:33Z</time>
      </trkpt>
      <trkpt lat="51.134310266985" lon="4.579805032637">
        <ele>0.6</ele>
        <time>2020-06-27T12:01:40Z</time>
      </trkpt>
      <trkpt lat="51.133774998851" lon="4.579917433916">
        <ele>0</ele>
        <time>2020-06-27T12:01:50Z</time>
      </trkpt>
      <trkpt lat="51.133224643297" lon="4.580043832968">
        <ele>0</ele>
        <time>2020-06-27T12:02:01Z</time>
      </trkpt>
      <trkpt lat="51.132686525317" lon="4.580192695512">
        <ele>0.2</ele>
        <time>2020-06-27T12:02:12Z</time>
      </trkpt>
      <trkpt lat="51.132108090398" lon="4.580331583595">
        <ele>1</ele>
        <time>2020-06-27T12:02:24Z</time>
      </trkpt>
      <trkpt lat="51.131954953085" lon="4.580430154739">
        <ele>1.2</ele>
        <time>2020-06-27T12:02:29Z</time>
      </trkpt>
      <trkpt lat="51.132058804826" lon="4.580993669876">
        <ele>0.6</ele>
        <time>2020-06-27T12:02:38Z</time>
      </trkpt>
      <trkpt lat="51.131967861211" lon="4.58115175251">
        <ele>1.6</ele>
        <time>2020-06-27T12:02:41Z</time>
      </trkpt>
      <trkpt lat="51.131921425485" lon="4.581266333083">
        <ele>1.8</ele>
        <time>2020-06-27T12:02:43Z</time>
      </trkpt>
      <trkpt lat="51.131968615582" lon="4.581395246705">
        <ele>1.4</ele>
        <time>2020-06-27T12:02:45Z</time>
      </trkpt>
      <trkpt lat="51.132067941097" lon="4.581490129813">
        <ele>1.2</ele>
        <time>2020-06-27T12:02:47Z</time>
      </trkpt>
      <trkpt lat="51.132526263389" lon="4.58200922088">
        <ele>1.8</ele>
        <time>2020-06-27T12:02:56Z</time>
      </trkpt>
      <trkpt lat="51.13298718407" lon="4.582528395766">
        <ele>2.2</ele>
        <time>2020-06-27T12:03:05Z</time>
      </trkpt>
      <trkpt lat="51.133185751281" lon="4.582776667644">
        <ele>2.2</ele>
        <time>2020-06-27T12:03:09Z</time>
      </trkpt>
      <trkpt lat="51.133298906931" lon="4.583016389984">
        <ele>1.8</ele>
        <time>2020-06-27T12:03:12Z</time>
      </trkpt>
      <trkpt lat="51.13339286803" lon="4.583619551508">
        <ele>2</ele>
        <time>2020-06-27T12:03:19Z</time>
      </trkpt>
      <trkpt lat="51.133235623586" lon="4.584509960745">
        <ele>0</ele>
        <time>2020-06-27T12:03:29Z</time>
      </trkpt>
      <trkpt lat="51.133090784354" lon="4.585345049442">
        <ele>0</ele>
        <time>2020-06-27T12:03:38Z</time>
      </trkpt>
      <trkpt lat="51.133085503757" lon="4.585544287205">
        <ele>0.2</ele>
        <time>2020-06-27T12:03:39Z</time>
      </trkpt>
      <trkpt lat="51.133164712712" lon="4.586450370595">
        <ele>0</ele>
        <time>2020-06-27T12:03:49Z</time>
      </trkpt>
      <trkpt lat="51.133282310769" lon="4.587305324395">
        <ele>0.8</ele>
        <time>2020-06-27T12:03:59Z</time>
      </trkpt>
      <trkpt lat="51.133453804443" lon="4.588213335622">
        <ele>1</ele>
        <time>2020-06-27T12:04:09Z</time>
      </trkpt>
      <trkpt lat="51.133622615909" lon="4.589002994421">
        <ele>0</ele>
        <time>2020-06-27T12:04:19Z</time>
      </trkpt>
      <trkpt lat="51.133696711905" lon="4.589057392952">
        <ele>0</ele>
        <time>2020-06-27T12:04:21Z</time>
      </trkpt>
      <trkpt lat="51.133804754596" lon="4.589033923632">
        <ele>0</ele>
        <time>2020-06-27T12:04:23Z</time>
      </trkpt>
      <trkpt lat="51.134091583214" lon="4.589015315814">
        <ele>0</ele>
        <time>2020-06-27T12:04:28Z</time>
      </trkpt>
      <trkpt lat="51.134191495462" lon="4.589071726001">
        <ele>0</ele>
        <time>2020-06-27T12:04:30Z</time>
      </trkpt>
      <trkpt lat="51.134269530951" lon="4.589170632421">
        <ele>0</ele>
        <time>2020-06-27T12:04:32Z</time>
      </trkpt>
      <trkpt lat="51.134400120953" lon="4.589436087194">
        <ele>0</ele>
        <time>2020-06-27T12:04:37Z</time>
      </trkpt>
      <trkpt lat="51.134536326828" lon="4.589747139503">
        <ele>0</ele>
        <time>2020-06-27T12:04:44Z</time>
      </trkpt>
      <trkpt lat="51.134465835049" lon="4.590022149642">
        <ele>0</ele>
        <time>2020-06-27T12:04:50Z</time>
      </trkpt>
      <trkpt lat="51.133969710388" lon="4.590462199392">
        <ele>0</ele>
        <time>2020-06-27T12:05:00Z</time>
      </trkpt>
      <trkpt lat="51.133459420316" lon="4.590976848052">
        <ele>1</ele>
        <time>2020-06-27T12:05:10Z</time>
      </trkpt>
      <trkpt lat="51.132986429699" lon="4.591395775414">
        <ele>0.8</ele>
        <time>2020-06-27T12:05:21Z</time>
      </trkpt>
      <trkpt lat="51.132489718305" lon="4.591790395266">
        <ele>1.6</ele>
        <time>2020-06-27T12:05:32Z</time>
      </trkpt>
      <trkpt lat="51.132404809658" lon="4.591826856531">
        <ele>1.4</ele>
        <time>2020-06-27T12:05:34Z</time>
      </trkpt>
      <trkpt lat="51.131875492673" lon="4.59211527771">
        <ele>1</ele>
        <time>2020-06-27T12:05:47Z</time>
      </trkpt>
      <trkpt lat="51.131433598905" lon="4.592295320922">
        <ele>1.6</ele>
        <time>2020-06-27T12:05:56Z</time>
      </trkpt>
      <trkpt lat="51.131353216484" lon="4.592309318695">
        <ele>1.8</ele>
        <time>2020-06-27T12:05:58Z</time>
      </trkpt>
      <trkpt lat="51.13109371286" lon="4.592366986167">
        <ele>0.8</ele>
        <time>2020-06-27T12:06:05Z</time>
      </trkpt>
      <trkpt lat="51.130942503384" lon="4.592392299505">
        <ele>1</ele>
        <time>2020-06-27T12:06:08Z</time>
      </trkpt>
      <trkpt lat="51.130842172041" lon="4.592413757169">
        <ele>0.8</ele>
        <time>2020-06-27T12:06:10Z</time>
      </trkpt>
      <trkpt lat="51.130293995781" lon="4.592466144044">
        <ele>0.8</ele>
        <time>2020-06-27T12:06:21Z</time>
      </trkpt>
      <trkpt lat="51.130118730252" lon="4.592470586451">
        <ele>0.8</ele>
        <time>2020-06-27T12:06:25Z</time>
      </trkpt>
      <trkpt lat="51.129858723714" lon="4.592448458235">
        <ele>0.8</ele>
        <time>2020-06-27T12:06:31Z</time>
      </trkpt>
      <trkpt lat="51.129772976877" lon="4.592432029711">
        <ele>0.6</ele>
        <time>2020-06-27T12:06:33Z</time>
      </trkpt>
      <trkpt lat="51.129224046246" lon="4.592318454966">
        <ele>0.2</ele>
        <time>2020-06-27T12:06:46Z</time>
      </trkpt>
      <trkpt lat="51.128892793558" lon="4.592230025921">
        <ele>0</ele>
        <time>2020-06-27T12:06:53Z</time>
      </trkpt>
      <trkpt lat="51.128787684532" lon="4.592083342671">
        <ele>0</ele>
        <time>2020-06-27T12:06:58Z</time>
      </trkpt>
      <trkpt lat="51.128803023409" lon="4.591933055204">
        <ele>0</ele>
        <time>2020-06-27T12:07:00Z</time>
      </trkpt>
      <trkpt lat="51.128913245394" lon="4.591105426398">
        <ele>0</ele>
        <time>2020-06-27T12:07:11Z</time>
      </trkpt>
      <trkpt lat="51.128885249848" lon="4.590241671603">
        <ele>0</ele>
        <time>2020-06-27T12:07:22Z</time>
      </trkpt>
      <trkpt lat="51.128708643215" lon="4.589428292027">
        <ele>0</ele>
        <time>2020-06-27T12:07:33Z</time>
      </trkpt>
      <trkpt lat="51.128261217393" lon="4.589050519794">
        <ele>0</ele>
        <time>2020-06-27T12:07:50Z</time>
      </trkpt>
      <trkpt lat="51.128227773612" lon="4.589112126759">
        <ele>0</ele>
        <time>2020-06-27T12:07:52Z</time>
      </trkpt>
      <trkpt lat="51.128221151911" lon="4.589300803328">
        <ele>0</ele>
        <time>2020-06-27T12:07:55Z</time>
      </trkpt>
      <trkpt lat="51.128257026443" lon="4.590156595318">
        <ele>1.8</ele>
        <time>2020-06-27T12:08:05Z</time>
      </trkpt>
      <trkpt lat="51.128182092257" lon="4.591042813605">
        <ele>5</ele>
        <time>2020-06-27T12:08:15Z</time>
      </trkpt>
      <trkpt lat="51.127996768448" lon="4.59188729003">
        <ele>7.8</ele>
        <time>2020-06-27T12:08:28Z</time>
      </trkpt>
      <trkpt lat="51.127972125662" lon="4.591985525898">
        <ele>8</ele>
        <time>2020-06-27T12:08:30Z</time>
      </trkpt>
      <trkpt lat="51.127880427676" lon="4.592396574274">
        <ele>9.6</ele>
        <time>2020-06-27T12:10:38Z</time>
      </trkpt>
      <trkpt lat="51.127687476338" lon="4.593203667425">
        <ele>5.2</ele>
        <time>2020-06-27T12:10:48Z</time>
      </trkpt>
      <trkpt lat="51.127490501688" lon="4.594110002272">
        <ele>2.8</ele>
        <time>2020-06-27T12:10:57Z</time>
      </trkpt>
      <trkpt lat="51.127288916993" lon="4.594971745411">
        <ele>0.6</ele>
        <time>2020-06-27T12:11:05Z</time>
      </trkpt>
      <trkpt lat="51.127185651985" lon="4.595377597009">
        <ele>0</ele>
        <time>2020-06-27T12:11:09Z</time>
      </trkpt>
      <trkpt lat="51.127098312587" lon="4.595432079359">
        <ele>0</ele>
        <time>2020-06-27T12:11:11Z</time>
      </trkpt>
      <trkpt lat="51.127008961533" lon="4.595269051404">
        <ele>0</ele>
        <time>2020-06-27T12:11:14Z</time>
      </trkpt>
      <trkpt lat="51.1269748472" lon="4.59511348334">
        <ele>0</ele>
        <time>2020-06-27T12:11:16Z</time>
      </trkpt>
      <trkpt lat="51.127008458619" lon="4.594997310206">
        <ele>0</ele>
        <time>2020-06-27T12:11:18Z</time>
      </trkpt>
      <trkpt lat="51.127122284821" lon="4.595397378293">
        <ele>0</ele>
        <time>2020-06-27T12:11:26Z</time>
      </trkpt>
      <trkpt lat="51.127349015216" lon="4.59549653617">
        <ele>0</ele>
        <time>2020-06-27T12:11:32Z</time>
      </trkpt>
      <trkpt lat="51.127441132297" lon="4.595386984737">
        <ele>0</ele>
        <time>2020-06-27T12:11:34Z</time>
      </trkpt>
      <trkpt lat="51.127798368875" lon="4.594669745554">
        <ele>0</ele>
        <time>2020-06-27T12:11:43Z</time>
      </trkpt>
      <trkpt lat="51.128124173328" lon="4.593957954606">
        <ele>0</ele>
        <time>2020-06-27T12:11:53Z</time>
      </trkpt>
      <trkpt lat="51.128395327793" lon="4.593214731533">
        <ele>0.4</ele>
        <time>2020-06-27T12:12:04Z</time>
      </trkpt>
      <trkpt lat="51.128204555749" lon="4.592832181617">
        <ele>4.8</ele>
        <time>2020-06-27T12:12:12Z</time>
      </trkpt>
      <trkpt lat="51.127679262076" lon="4.592593381286">
        <ele>3.2</ele>
        <time>2020-06-27T12:12:23Z</time>
      </trkpt>
      <trkpt lat="51.127147179064" lon="4.592251818861">
        <ele>0.2</ele>
        <time>2020-06-27T12:12:34Z</time>
      </trkpt>
      <trkpt lat="51.126643678331" lon="4.591871196782">
        <ele>0</ele>
        <time>2020-06-27T12:12:45Z</time>
      </trkpt>
      <trkpt lat="51.126154594466" lon="4.591434164516">
        <ele>0</ele>
        <time>2020-06-27T12:12:57Z</time>
      </trkpt>
      <trkpt lat="51.125686465351" lon="4.590923622987">
        <ele>0</ele>
        <time>2020-06-27T12:13:11Z</time>
      </trkpt>
      <trkpt lat="51.125233423656" lon="4.590355162529">
        <ele>0</ele>
        <time>2020-06-27T12:13:25Z</time>
      </trkpt>
      <trkpt lat="51.125043908897" lon="4.590114434361">
        <ele>0</ele>
        <time>2020-06-27T12:13:31Z</time>
      </trkpt>
      <trkpt lat="51.124606792812" lon="4.589531640854">
        <ele>0</ele>
        <time>2020-06-27T12:13:45Z</time>
      </trkpt>
      <trkpt lat="51.124576031239" lon="4.589486965327">
        <ele>0</ele>
        <time>2020-06-27T12:13:46Z</time>
      </trkpt>
      <trkpt lat="51.124480812855" lon="4.589364086673">
        <ele>0</ele>
        <time>2020-06-27T12:13:49Z</time>
      </trkpt>
      <trkpt lat="51.124340667487" lon="4.589164932729">
        <ele>0</ele>
        <time>2020-06-27T12:13:53Z</time>
      </trkpt>
      <trkpt lat="51.123931966043" lon="4.588577696815">
        <ele>0</ele>
        <time>2020-06-27T12:14:06Z</time>
      </trkpt>
      <trkpt lat="51.123539609304" lon="4.587965231382">
        <ele>0</ele>
        <time>2020-06-27T12:14:19Z</time>
      </trkpt>
      <trkpt lat="51.123170135152" lon="4.587340863651">
        <ele>0</ele>
        <time>2020-06-27T12:14:32Z</time>
      </trkpt>
      <trkpt lat="51.122809964909" lon="4.586684057967">
        <ele>0.4</ele>
        <time>2020-06-27T12:14:46Z</time>
      </trkpt>
      <trkpt lat="51.122450884313" lon="4.585998753823">
        <ele>0</ele>
        <time>2020-06-27T12:14:58Z</time>
      </trkpt>
      <trkpt lat="51.122295064792" lon="4.585689210256">
        <ele>0</ele>
        <time>2020-06-27T12:15:04Z</time>
      </trkpt>
      <trkpt lat="51.121964063561" lon="4.584969875598">
        <ele>0</ele>
        <time>2020-06-27T12:15:18Z</time>
      </trkpt>
      <trkpt lat="51.121653262709" lon="4.58426646655">
        <ele>0</ele>
        <time>2020-06-27T12:15:32Z</time>
      </trkpt>
      <trkpt lat="51.121518146481" lon="4.583968406186">
        <ele>0</ele>
        <time>2020-06-27T12:15:39Z</time>
      </trkpt>
      <trkpt lat="51.121223271239" lon="4.58318687783">
        <ele>0</ele>
        <time>2020-06-27T12:15:52Z</time>
      </trkpt>
      <trkpt lat="51.120944992159" lon="4.582390094416">
        <ele>0</ele>
        <time>2020-06-27T12:16:05Z</time>
      </trkpt>
      <trkpt lat="51.120504355676" lon="4.581039937964">
        <ele>0</ele>
        <time>2020-06-27T12:16:26Z</time>
      </trkpt>
      <trkpt lat="51.120283492611" lon="4.580252207002">
        <ele>0</ele>
        <time>2020-06-27T12:16:39Z</time>
      </trkpt>
      <trkpt lat="51.120128092185" lon="4.579750131192">
        <ele>0</ele>
        <time>2020-06-27T12:16:47Z</time>
      </trkpt>
      <trkpt lat="51.120035975104" lon="4.579551815438">
        <ele>0</ele>
        <time>2020-06-27T12:16:51Z</time>
      </trkpt>
      <trkpt lat="51.120029101946" lon="4.57934293849">
        <ele>0</ele>
        <time>2020-06-27T12:16:54Z</time>
      </trkpt>
      <trkpt lat="51.11985190858" lon="4.578496785685">
        <ele>0.2</ele>
        <time>2020-06-27T12:17:06Z</time>
      </trkpt>
      <trkpt lat="51.119687204245" lon="4.577669575974">
        <ele>1.6</ele>
        <time>2020-06-27T12:17:20Z</time>
      </trkpt>
      <trkpt lat="51.119598439924" lon="4.577260371616">
        <ele>2.4</ele>
        <time>2020-06-27T12:17:34Z</time>
      </trkpt>
      <trkpt lat="51.119498779133" lon="4.576785201705">
        <ele>1.2</ele>
        <time>2020-06-27T12:17:43Z</time>
      </trkpt>
      <trkpt lat="51.119324854708" lon="4.575946173515">
        <ele>0.6</ele>
        <time>2020-06-27T12:17:54Z</time>
      </trkpt>
      <trkpt lat="51.119120252529" lon="4.575108821705">
        <ele>0.2</ele>
        <time>2020-06-27T12:18:06Z</time>
      </trkpt>
      <trkpt lat="51.118982957007" lon="4.574395438196">
        <ele>0.6</ele>
        <time>2020-06-27T12:18:16Z</time>
      </trkpt>
      <trkpt lat="51.118819342319" lon="4.573681300316">
        <ele>0</ele>
        <time>2020-06-27T12:18:27Z</time>
      </trkpt>
      <trkpt lat="51.118751784205" lon="4.573406625453">
        <ele>0</ele>
        <time>2020-06-27T12:18:31Z</time>
      </trkpt>
      <trkpt lat="51.118580541988" lon="4.572578912828">
        <ele>0</ele>
        <time>2020-06-27T12:18:42Z</time>
      </trkpt>
      <trkpt lat="51.118395553455" lon="4.571742147751">
        <ele>0</ele>
        <time>2020-06-27T12:18:54Z</time>
      </trkpt>
      <trkpt lat="51.118355068878" lon="4.571611054835">
        <ele>0</ele>
        <time>2020-06-27T12:18:56Z</time>
      </trkpt>
      <trkpt lat="51.118312405007" lon="4.571496474262">
        <ele>0</ele>
        <time>2020-06-27T12:18:58Z</time>
      </trkpt>
      <trkpt lat="51.118275608466" lon="4.571363788785">
        <ele>0</ele>
        <time>2020-06-27T12:19:00Z</time>
      </trkpt>
      <trkpt lat="51.118104114792" lon="4.5705159596">
        <ele>0</ele>
        <time>2020-06-27T12:19:12Z</time>
      </trkpt>
      <trkpt lat="51.117924490675" lon="4.569675674125">
        <ele>0.2</ele>
        <time>2020-06-27T12:19:25Z</time>
      </trkpt>
      <trkpt lat="51.117889538152" lon="4.569545503218">
        <ele>0.2</ele>
        <time>2020-06-27T12:19:27Z</time>
      </trkpt>
      <trkpt lat="51.117850478498" lon="4.56941206337">
        <ele>0</ele>
        <time>2020-06-27T12:19:29Z</time>
      </trkpt>
      <trkpt lat="51.117744531282" lon="4.568859109427">
        <ele>0.2</ele>
        <time>2020-06-27T12:19:37Z</time>
      </trkpt>
      <trkpt lat="51.117553004867" lon="4.567979429022">
        <ele>0.2</ele>
        <time>2020-06-27T12:19:49Z</time>
      </trkpt>
      <trkpt lat="51.11743037767" lon="4.567452207512">
        <ele>0</ele>
        <time>2020-06-27T12:19:56Z</time>
      </trkpt>
      <trkpt lat="51.117396766251" lon="4.567263614762">
        <ele>0</ele>
        <time>2020-06-27T12:19:59Z</time>
      </trkpt>
      <trkpt lat="51.117325771558" lon="4.567016851626">
        <ele>0</ele>
        <time>2020-06-27T12:20:03Z</time>
      </trkpt>
      <trkpt lat="51.117211693899" lon="4.566441182734">
        <ele>0</ele>
        <time>2020-06-27T12:20:11Z</time>
      </trkpt>
      <trkpt lat="51.117103818846" lon="4.565989314505">
        <ele>0</ele>
        <time>2020-06-27T12:20:19Z</time>
      </trkpt>
      <trkpt lat="51.117072386721" lon="4.565787813629">
        <ele>0</ele>
        <time>2020-06-27T12:20:22Z</time>
      </trkpt>
      <trkpt lat="51.116919500865" lon="4.565107538625">
        <ele>0</ele>
        <time>2020-06-27T12:20:32Z</time>
      </trkpt>
      <trkpt lat="51.116724202595" lon="4.564278317258">
        <ele>0</ele>
        <time>2020-06-27T12:20:44Z</time>
      </trkpt>
      <trkpt lat="51.116539968433" lon="4.563394613541">
        <ele>0</ele>
        <time>2020-06-27T12:20:54Z</time>
      </trkpt>
      <trkpt lat="51.116363948533" lon="4.562557094093">
        <ele>0</ele>
        <time>2020-06-27T12:21:04Z</time>
      </trkpt>
      <trkpt lat="51.116151718825" lon="4.561733488599">
        <ele>0</ele>
        <time>2020-06-27T12:21:15Z</time>
      </trkpt>
      <trkpt lat="51.115957091107" lon="4.560850958348">
        <ele>0</ele>
        <time>2020-06-27T12:21:26Z</time>
      </trkpt>
      <trkpt lat="51.115787441451" lon="4.560033052546">
        <ele>0</ele>
        <time>2020-06-27T12:21:36Z</time>
      </trkpt>
      <trkpt lat="51.115607230601" lon="4.559224785929">
        <ele>0</ele>
        <time>2020-06-27T12:21:46Z</time>
      </trkpt>
      <trkpt lat="51.115411094141" lon="4.558327084439">
        <ele>0</ele>
        <time>2020-06-27T12:21:56Z</time>
      </trkpt>
      <trkpt lat="51.115324425295" lon="4.557945707989">
        <ele>0</ele>
        <time>2020-06-27T12:22:01Z</time>
      </trkpt>
      <trkpt lat="51.115150165594" lon="4.557119085011">
        <ele>0</ele>
        <time>2020-06-27T12:22:12Z</time>
      </trkpt>
      <trkpt lat="51.114956795161" lon="4.556299921924">
        <ele>0</ele>
        <time>2020-06-27T12:22:24Z</time>
      </trkpt>
      <trkpt lat="51.11486803084" lon="4.555906559357">
        <ele>0</ele>
        <time>2020-06-27T12:22:30Z</time>
      </trkpt>
      <trkpt lat="51.114694609329" lon="4.555040876725">
        <ele>0</ele>
        <time>2020-06-27T12:22:42Z</time>
      </trkpt>
      <trkpt lat="51.114520768723" lon="4.554206710037">
        <ele>0.4</ele>
        <time>2020-06-27T12:22:55Z</time>
      </trkpt>
      <trkpt lat="51.114335444914" lon="4.553397018497">
        <ele>0</ele>
        <time>2020-06-27T12:23:06Z</time>
      </trkpt>
      <trkpt lat="51.114157832453" lon="4.552564528189">
        <ele>0</ele>
        <time>2020-06-27T12:23:17Z</time>
      </trkpt>
      <trkpt lat="51.114020788388" lon="4.551950302557">
        <ele>0</ele>
        <time>2020-06-27T12:23:26Z</time>
      </trkpt>
      <trkpt lat="51.113986422598" lon="4.55182599898">
        <ele>0</ele>
        <time>2020-06-27T12:23:28Z</time>
      </trkpt>
      <trkpt lat="51.113960690165" lon="4.551698677919">
        <ele>0</ele>
        <time>2020-06-27T12:23:30Z</time>
      </trkpt>
      <trkpt lat="51.113762877325" lon="4.550885298343">
        <ele>0</ele>
        <time>2020-06-27T12:23:42Z</time>
      </trkpt>
      <trkpt lat="51.113560789716" lon="4.550087090006">
        <ele>0</ele>
        <time>2020-06-27T12:23:53Z</time>
      </trkpt>
      <trkpt lat="51.113379237762" lon="4.549397008179">
        <ele>0</ele>
        <time>2020-06-27T12:24:03Z</time>
      </trkpt>
      <trkpt lat="51.113323498127" lon="4.54919743514">
        <ele>0</ele>
        <time>2020-06-27T12:24:06Z</time>
      </trkpt>
      <trkpt lat="51.113210510115" lon="4.548816980699">
        <ele>0</ele>
        <time>2020-06-27T12:24:13Z</time>
      </trkpt>
      <trkpt lat="51.113024934849" lon="4.548009468453">
        <ele>0</ele>
        <time>2020-06-27T12:24:26Z</time>
      </trkpt>
      <trkpt lat="51.112810525847" lon="4.547217043627">
        <ele>0.4</ele>
        <time>2020-06-27T12:24:44Z</time>
      </trkpt>
      <trkpt lat="51.112628722436" lon="4.546526375067">
        <ele>0</ele>
        <time>2020-06-27T12:24:55Z</time>
      </trkpt>
      <trkpt lat="51.112423617343" lon="4.545727496178">
        <ele>0</ele>
        <time>2020-06-27T12:25:06Z</time>
      </trkpt>
      <trkpt lat="51.112200323527" lon="4.544918223733">
        <ele>0</ele>
        <time>2020-06-27T12:25:16Z</time>
      </trkpt>
      <trkpt lat="51.111967809621" lon="4.544079698457">
        <ele>0</ele>
        <time>2020-06-27T12:25:29Z</time>
      </trkpt>
      <trkpt lat="51.111814001756" lon="4.543497324045">
        <ele>0</ele>
        <time>2020-06-27T12:25:37Z</time>
      </trkpt>
      <trkpt lat="51.111613255251" lon="4.542686794315">
        <ele>0</ele>
        <time>2020-06-27T12:25:47Z</time>
      </trkpt>
      <trkpt lat="51.111525412939" lon="4.542322181665">
        <ele>0</ele>
        <time>2020-06-27T12:25:52Z</time>
      </trkpt>
      <trkpt lat="51.111507475673" lon="4.541893782756">
        <ele>0</ele>
        <time>2020-06-27T12:25:57Z</time>
      </trkpt>
      <trkpt lat="51.11129566506" lon="4.541067075959">
        <ele>0</ele>
        <time>2020-06-27T12:26:07Z</time>
      </trkpt>
      <trkpt lat="51.111122243549" lon="4.540411359922">
        <ele>0</ele>
        <time>2020-06-27T12:26:16Z</time>
      </trkpt>
      <trkpt lat="51.110934153713" lon="4.539608792997">
        <ele>0</ele>
        <time>2020-06-27T12:26:29Z</time>
      </trkpt>
      <trkpt lat="51.11070222654" lon="4.538783511123">
        <ele>0</ele>
        <time>2020-06-27T12:26:40Z</time>
      </trkpt>
      <trkpt lat="51.110558309317" lon="4.537951859005">
        <ele>0</ele>
        <time>2020-06-27T12:26:51Z</time>
      </trkpt>
      <trkpt lat="51.110536935472" lon="4.537813473836">
        <ele>0</ele>
        <time>2020-06-27T12:26:53Z</time>
      </trkpt>
      <trkpt lat="51.110476166697" lon="4.537535530032">
        <ele>0</ele>
        <time>2020-06-27T12:26:57Z</time>
      </trkpt>
      <trkpt lat="51.110177854876" lon="4.536821308333">
        <ele>0</ele>
        <time>2020-06-27T12:27:08Z</time>
      </trkpt>
      <trkpt lat="51.109909717895" lon="4.536044473841">
        <ele>0</ele>
        <time>2020-06-27T12:27:19Z</time>
      </trkpt>
      <trkpt lat="51.10977099745" lon="4.535555725252">
        <ele>0</ele>
        <time>2020-06-27T12:27:25Z</time>
      </trkpt>
      <trkpt lat="51.109628253693" lon="4.53499430559">
        <ele>0</ele>
        <time>2020-06-27T12:27:33Z</time>
      </trkpt>
      <trkpt lat="51.109517612613" lon="4.534516369652">
        <ele>0</ele>
        <time>2020-06-27T12:27:39Z</time>
      </trkpt>
      <trkpt lat="51.109280404843" lon="4.533665858259">
        <ele>0</ele>
        <time>2020-06-27T12:27:47Z</time>
      </trkpt>
      <trkpt lat="51.109210164521" lon="4.533306610025">
        <ele>0</ele>
        <time>2020-06-27T12:27:51Z</time>
      </trkpt>
      <trkpt lat="51.109125339693" lon="4.532424834145">
        <ele>1.2</ele>
        <time>2020-06-27T12:28:00Z</time>
      </trkpt>
      <trkpt lat="51.10900824455" lon="4.531542471532">
        <ele>0</ele>
        <time>2020-06-27T12:28:09Z</time>
      </trkpt>
      <trkpt lat="51.108885198258" lon="4.530652900485">
        <ele>1.6</ele>
        <time>2020-06-27T12:28:21Z</time>
      </trkpt>
      <trkpt lat="51.108784280182" lon="4.529738099919">
        <ele>2</ele>
        <time>2020-06-27T12:28:32Z</time>
      </trkpt>
      <trkpt lat="51.108606416264" lon="4.528879877178">
        <ele>3.2</ele>
        <time>2020-06-27T12:28:42Z</time>
      </trkpt>
      <trkpt lat="51.108400975895" lon="4.528282163889">
        <ele>2.6</ele>
        <time>2020-06-27T12:28:52Z</time>
      </trkpt>
      <trkpt lat="51.108331741401" lon="4.528053002743">
        <ele>0</ele>
        <time>2020-06-27T12:29:30Z</time>
      </trkpt>
      <trkpt lat="51.108091683785" lon="4.527240964271">
        <ele>0</ele>
        <time>2020-06-27T12:29:41Z</time>
      </trkpt>
      <trkpt lat="51.107824804089" lon="4.526429177256">
        <ele>0</ele>
        <time>2020-06-27T12:29:52Z</time>
      </trkpt>
      <trkpt lat="51.107516182531" lon="4.525680925043">
        <ele>0</ele>
        <time>2020-06-27T12:30:02Z</time>
      </trkpt>
      <trkpt lat="51.10716674112" lon="4.524975923434">
        <ele>0</ele>
        <time>2020-06-27T12:30:14Z</time>
      </trkpt>
      <trkpt lat="51.106797853701" lon="4.524256840233">
        <ele>0</ele>
        <time>2020-06-27T12:30:26Z</time>
      </trkpt>
      <trkpt lat="51.106404323496" lon="4.523610931019">
        <ele>0</ele>
        <time>2020-06-27T12:30:35Z</time>
      </trkpt>
      <trkpt lat="51.105988162161" lon="4.522968458384">
        <ele>1</ele>
        <time>2020-06-27T12:30:45Z</time>
      </trkpt>
      <trkpt lat="51.105569234799" lon="4.52238206066">
        <ele>1</ele>
        <time>2020-06-27T12:30:54Z</time>
      </trkpt>
      <trkpt lat="51.105137566949" lon="4.521746377364">
        <ele>0.4</ele>
        <time>2020-06-27T12:31:04Z</time>
      </trkpt>
      <trkpt lat="51.104722914356" lon="4.521131732637">
        <ele>0</ele>
        <time>2020-06-27T12:31:15Z</time>
      </trkpt>
      <trkpt lat="51.104273979792" lon="4.520527649104">
        <ele>0.8</ele>
        <time>2020-06-27T12:31:26Z</time>
      </trkpt>
      <trkpt lat="51.103825883418" lon="4.520040241619">
        <ele>0</ele>
        <time>2020-06-27T12:31:37Z</time>
      </trkpt>
      <trkpt lat="51.103746842101" lon="4.519953572773">
        <ele>0.2</ele>
        <time>2020-06-27T12:31:39Z</time>
      </trkpt>
      <trkpt lat="51.103331686594" lon="4.519530370642">
        <ele>0</ele>
        <time>2020-06-27T12:31:49Z</time>
      </trkpt>
      <trkpt lat="51.102846039308" lon="4.519104486303">
        <ele>0</ele>
        <time>2020-06-27T12:32:00Z</time>
      </trkpt>
      <trkpt lat="51.102340191643" lon="4.518688576425">
        <ele>0</ele>
        <time>2020-06-27T12:32:15Z</time>
      </trkpt>
      <trkpt lat="51.101600237511" lon="4.517975109097">
        <ele>0.2</ele>
        <time>2020-06-27T12:32:33Z</time>
      </trkpt>
      <trkpt lat="51.101160020123" lon="4.517451575623">
        <ele>1.6</ele>
        <time>2020-06-27T12:32:45Z</time>
      </trkpt>
      <trkpt lat="51.10072944192" lon="4.51683575743">
        <ele>2.6</ele>
        <time>2020-06-27T12:32:58Z</time>
      </trkpt>
      <trkpt lat="51.100340605579" lon="4.516116338953">
        <ele>2.2</ele>
        <time>2020-06-27T12:33:09Z</time>
      </trkpt>
      <trkpt lat="51.100152851019" lon="4.515669918959">
        <ele>1.8</ele>
        <time>2020-06-27T12:33:15Z</time>
      </trkpt>
      <trkpt lat="51.100009520529" lon="4.515282926636">
        <ele>2</ele>
        <time>2020-06-27T12:33:21Z</time>
      </trkpt>
      <trkpt lat="51.099757476796" lon="4.514481030263">
        <ele>1.8</ele>
        <time>2020-06-27T12:33:31Z</time>
      </trkpt>
      <trkpt lat="51.099551617332" lon="4.513647701765">
        <ele>2.2</ele>
        <time>2020-06-27T12:33:40Z</time>
      </trkpt>
      <trkpt lat="51.099348356257" lon="4.512813618896">
        <ele>1.8</ele>
        <time>2020-06-27T12:33:52Z</time>
      </trkpt>
      <trkpt lat="51.099146855381" lon="4.512002670071">
        <ele>1</ele>
        <time>2020-06-27T12:34:04Z</time>
      </trkpt>
      <trkpt lat="51.098873605441" lon="4.511227763416">
        <ele>1.8</ele>
        <time>2020-06-27T12:34:18Z</time>
      </trkpt>
      <trkpt lat="51.098526175686" lon="4.510525695472">
        <ele>1.8</ele>
        <time>2020-06-27T12:34:30Z</time>
      </trkpt>
      <trkpt lat="51.09810925998" lon="4.50990476432">
        <ele>0.8</ele>
        <time>2020-06-27T12:34:41Z</time>
      </trkpt>
      <trkpt lat="51.098072295801" lon="4.509856065481">
        <ele>0.2</ele>
        <time>2020-06-27T12:34:42Z</time>
      </trkpt>
      <trkpt lat="51.098001384927" lon="4.509775180146">
        <ele>0</ele>
        <time>2020-06-27T12:34:44Z</time>
      </trkpt>
      <trkpt lat="51.097554629657" lon="4.509230356646">
        <ele>1</ele>
        <time>2020-06-27T12:34:59Z</time>
      </trkpt>
      <trkpt lat="51.097067557448" lon="4.508835066242">
        <ele>1</ele>
        <time>2020-06-27T12:35:15Z</time>
      </trkpt>
      <trkpt lat="51.096843425442" lon="4.508739177306">
        <ele>0.4</ele>
        <time>2020-06-27T12:35:21Z</time>
      </trkpt>
      <trkpt lat="51.096716439657" lon="4.508714953615">
        <ele>0</ele>
        <time>2020-06-27T12:35:25Z</time>
      </trkpt>
      <trkpt lat="51.096200868988" lon="4.508428544092">
        <ele>0</ele>
        <time>2020-06-27T12:35:36Z</time>
      </trkpt>
      <trkpt lat="51.09576568074" lon="4.508260989911">
        <ele>0</ele>
        <time>2020-06-27T12:35:45Z</time>
      </trkpt>
      <trkpt lat="51.095578261456" lon="4.508271886381">
        <ele>0</ele>
        <time>2020-06-27T12:35:49Z</time>
      </trkpt>
      <trkpt lat="51.09513284729" lon="4.508108020236">
        <ele>0</ele>
        <time>2020-06-27T12:35:58Z</time>
      </trkpt>
      <trkpt lat="51.095052213412" lon="4.508097207585">
        <ele>0</ele>
        <time>2020-06-27T12:36:00Z</time>
      </trkpt>
      <trkpt lat="51.094498924193" lon="4.507940717512">
        <ele>0</ele>
        <time>2020-06-27T12:36:15Z</time>
      </trkpt>
      <trkpt lat="51.094130120593" lon="4.50782689131">
        <ele>0</ele>
        <time>2020-06-27T12:36:30Z</time>
      </trkpt>
      <trkpt lat="51.094229613746" lon="4.507242589061">
        <ele>7.4</ele>
        <time>2020-06-27T12:39:26Z</time>
      </trkpt>
      <trkpt lat="51.094343859043" lon="4.506665830522">
        <ele>5.6</ele>
        <time>2020-06-27T12:39:37Z</time>
      </trkpt>
      <trkpt lat="51.094611157834" lon="4.505911124246">
        <ele>3.2</ele>
        <time>2020-06-27T12:39:46Z</time>
      </trkpt>
      <trkpt lat="51.094821794981" lon="4.50554030899">
        <ele>2</ele>
        <time>2020-06-27T12:39:51Z</time>
      </trkpt>
      <trkpt lat="51.095079370768" lon="4.505306705437">
        <ele>0.2</ele>
        <time>2020-06-27T12:39:56Z</time>
      </trkpt>
      <trkpt lat="51.095196130635" lon="4.505266137041">
        <ele>0</ele>
        <time>2020-06-27T12:39:58Z</time>
      </trkpt>
      <trkpt lat="51.09531892547" lon="4.50529388113">
        <ele>0</ele>
        <time>2020-06-27T12:40:00Z</time>
      </trkpt>
      <trkpt lat="51.095416909881" lon="4.505409970445">
        <ele>0</ele>
        <time>2020-06-27T12:40:02Z</time>
      </trkpt>
      <trkpt lat="51.09551338555" lon="4.505660840712">
        <ele>0.4</ele>
        <time>2020-06-27T12:40:05Z</time>
      </trkpt>
      <trkpt lat="51.095672138736" lon="4.50619996452">
        <ele>1.6</ele>
        <time>2020-06-27T12:40:11Z</time>
      </trkpt>
      <trkpt lat="51.095790574983" lon="4.506275736896">
        <ele>1.4</ele>
        <time>2020-06-27T12:40:13Z</time>
      </trkpt>
      <trkpt lat="51.095951172187" lon="4.506320412423">
        <ele>0</ele>
        <time>2020-06-27T12:40:16Z</time>
      </trkpt>
      <trkpt lat="51.096455594929" lon="4.506714026447">
        <ele>0.4</ele>
        <time>2020-06-27T12:40:25Z</time>
      </trkpt>
      <trkpt lat="51.096514603505" lon="4.506744201287">
        <ele>0.2</ele>
        <time>2020-06-27T12:40:26Z</time>
      </trkpt>
      <trkpt lat="51.096633039752" lon="4.506776890697">
        <ele>1.4</ele>
        <time>2020-06-27T12:40:28Z</time>
      </trkpt>
      <trkpt lat="51.097188424446" lon="4.506794073592">
        <ele>0.4</ele>
        <time>2020-06-27T12:40:37Z</time>
      </trkpt>
      <trkpt lat="51.097746742805" lon="4.506858362765">
        <ele>0</ele>
        <time>2020-06-27T12:40:46Z</time>
      </trkpt>
      <trkpt lat="51.098291482486" lon="4.506883424646">
        <ele>0</ele>
        <time>2020-06-27T12:40:55Z</time>
      </trkpt>
      <trkpt lat="51.098508657515" lon="4.506886106854">
        <ele>0</ele>
        <time>2020-06-27T12:40:59Z</time>
      </trkpt>
      <trkpt lat="51.098658525887" lon="4.506926172336">
        <ele>0</ele>
        <time>2020-06-27T12:41:02Z</time>
      </trkpt>
      <trkpt lat="51.098793055382" lon="4.506974284442">
        <ele>0</ele>
        <time>2020-06-27T12:41:05Z</time>
      </trkpt>
      <trkpt lat="51.098877712572" lon="4.507029018249">
        <ele>0</ele>
        <time>2020-06-27T12:41:07Z</time>
      </trkpt>
      <trkpt lat="51.099318265236" lon="4.506909995269">
        <ele>0</ele>
        <time>2020-06-27T12:41:22Z</time>
      </trkpt>
      <trkpt lat="51.099417758389" lon="4.506594332915">
        <ele>0</ele>
        <time>2020-06-27T12:41:28Z</time>
      </trkpt>
      <trkpt lat="51.099471570187" lon="4.5064614798">
        <ele>0</ele>
        <time>2020-06-27T12:41:30Z</time>
      </trkpt>
      <trkpt lat="51.099903992408" lon="4.505884385985">
        <ele>0</ele>
        <time>2020-06-27T12:41:41Z</time>
      </trkpt>
      <trkpt lat="51.100367511478" lon="4.505425896055">
        <ele>0</ele>
        <time>2020-06-27T12:41:51Z</time>
      </trkpt>
      <trkpt lat="51.100833293661" lon="4.504934213801">
        <ele>0</ele>
        <time>2020-06-27T12:42:02Z</time>
      </trkpt>
      <trkpt lat="51.101131437844" lon="4.504629028822">
        <ele>0</ele>
        <time>2020-06-27T12:42:10Z</time>
      </trkpt>
      <trkpt lat="51.10142513962" lon="4.504314288477">
        <ele>0.8</ele>
        <time>2020-06-27T12:42:18Z</time>
      </trkpt>
      <trkpt lat="51.101881785532" lon="4.503841884593">
        <ele>1.8</ele>
        <time>2020-06-27T12:42:31Z</time>
      </trkpt>
      <trkpt lat="51.102339437272" lon="4.503333438539">
        <ele>1.6</ele>
        <time>2020-06-27T12:42:42Z</time>
      </trkpt>
      <trkpt lat="51.10247287712" lon="4.503093129466">
        <ele>3.6</ele>
        <time>2020-06-27T12:42:46Z</time>
      </trkpt>
      <trkpt lat="51.102779989936" lon="4.502376393197">
        <ele>5.8</ele>
        <time>2020-06-27T12:42:57Z</time>
      </trkpt>
      <trkpt lat="51.102920889675" lon="4.501959058396">
        <ele>4.8</ele>
        <time>2020-06-27T12:43:04Z</time>
      </trkpt>
      <trkpt lat="51.103154912323" lon="4.501159006041">
        <ele>4.8</ele>
        <time>2020-06-27T12:43:17Z</time>
      </trkpt>
      <trkpt lat="51.103407794246" lon="4.500365994482">
        <ele>5.4</ele>
        <time>2020-06-27T12:43:28Z</time>
      </trkpt>
      <trkpt lat="51.103525895217" lon="4.500010685741">
        <ele>4.8</ele>
        <time>2020-06-27T12:43:33Z</time>
      </trkpt>
      <trkpt lat="51.103727396093" lon="4.499195881242">
        <ele>7.6</ele>
        <time>2020-06-27T12:43:46Z</time>
      </trkpt>
      <trkpt lat="51.104000310757" lon="4.498431368143">
        <ele>5.4</ele>
        <time>2020-06-27T12:43:58Z</time>
      </trkpt>
      <trkpt lat="51.104135091709" lon="4.49800917184">
        <ele>7.2</ele>
        <time>2020-06-27T12:44:05Z</time>
      </trkpt>
      <trkpt lat="51.104503979128" lon="4.497287657888">
        <ele>7.8</ele>
        <time>2020-06-27T12:44:17Z</time>
      </trkpt>
      <trkpt lat="51.104880829352" lon="4.496664547442">
        <ele>6</ele>
        <time>2020-06-27T12:44:28Z</time>
      </trkpt>
      <trkpt lat="51.105180063182" lon="4.496286356114">
        <ele>3.2</ele>
        <time>2020-06-27T12:44:36Z</time>
      </trkpt>
      <trkpt lat="51.105280729801" lon="4.496262886794">
        <ele>2.2</ele>
        <time>2020-06-27T12:44:38Z</time>
      </trkpt>
      <trkpt lat="51.105378965669" lon="4.496256851826">
        <ele>2.8</ele>
        <time>2020-06-27T12:44:40Z</time>
      </trkpt>
      <trkpt lat="51.105468651999" lon="4.496182336735">
        <ele>3.2</ele>
        <time>2020-06-27T12:44:42Z</time>
      </trkpt>
      <trkpt lat="51.105523637263" lon="4.496041185539">
        <ele>3.4</ele>
        <time>2020-06-27T12:44:44Z</time>
      </trkpt>
      <trkpt lat="51.105585244228" lon="4.495897519773">
        <ele>4</ele>
        <time>2020-06-27T12:44:46Z</time>
      </trkpt>
      <trkpt lat="51.106065191822" lon="4.495486387578">
        <ele>5</ele>
        <time>2020-06-27T12:44:56Z</time>
      </trkpt>
      <trkpt lat="51.10660850658" lon="4.495251610559">
        <ele>6.2</ele>
        <time>2020-06-27T12:45:06Z</time>
      </trkpt>
      <trkpt lat="51.10680548123" lon="4.495196792933">
        <ele>5.8</ele>
        <time>2020-06-27T12:45:10Z</time>
      </trkpt>
      <trkpt lat="51.107159784143" lon="4.495158403831">
        <ele>5.6</ele>
        <time>2020-06-27T12:45:17Z</time>
      </trkpt>
      <trkpt lat="51.107312837637" lon="4.495116913426">
        <ele>5.4</ele>
        <time>2020-06-27T12:45:19Z</time>
      </trkpt>
      <trkpt lat="51.107903258673" lon="4.495056479927">
        <ele>4.6</ele>
        <time>2020-06-27T12:45:30Z</time>
      </trkpt>
      <trkpt lat="51.108480017212" lon="4.494998309541">
        <ele>4</ele>
        <time>2020-06-27T12:45:40Z</time>
      </trkpt>
      <trkpt lat="51.109071779352" lon="4.494939552422">
        <ele>4.2</ele>
        <time>2020-06-27T12:45:51Z</time>
      </trkpt>
      <trkpt lat="51.10965448904" lon="4.494844753133">
        <ele>6</ele>
        <time>2020-06-27T12:46:02Z</time>
      </trkpt>
      <trkpt lat="51.110221608394" lon="4.494782727073">
        <ele>5.4</ele>
        <time>2020-06-27T12:46:12Z</time>
      </trkpt>
      <trkpt lat="51.11077598726" lon="4.494779961046">
        <ele>5.4</ele>
        <time>2020-06-27T12:46:22Z</time>
      </trkpt>
      <trkpt lat="51.11136691121" lon="4.494810471162">
        <ele>5.4</ele>
        <time>2020-06-27T12:46:32Z</time>
      </trkpt>
      <trkpt lat="51.11193688041" lon="4.494839304898">
        <ele>3.2</ele>
        <time>2020-06-27T12:46:42Z</time>
      </trkpt>
      <trkpt lat="51.112500395547" lon="4.494870317928">
        <ele>2.8</ele>
        <time>2020-06-27T12:46:52Z</time>
      </trkpt>
      <trkpt lat="51.113077824638" lon="4.49490870703">
        <ele>2.4</ele>
        <time>2020-06-27T12:47:03Z</time>
      </trkpt>
      <trkpt lat="51.113639831033" lon="4.494937289309">
        <ele>2.4</ele>
        <time>2020-06-27T12:47:13Z</time>
      </trkpt>
      <trkpt lat="51.114193204071" lon="4.494964195208">
        <ele>2.4</ele>
        <time>2020-06-27T12:47:24Z</time>
      </trkpt>
      <trkpt lat="51.114780691442" lon="4.494994118591">
        <ele>1.8</ele>
        <time>2020-06-27T12:47:35Z</time>
      </trkpt>
      <trkpt lat="51.115352923755" lon="4.495026472725">
        <ele>2</ele>
        <time>2020-06-27T12:47:45Z</time>
      </trkpt>
      <trkpt lat="51.115893053391" lon="4.495075171564">
        <ele>2.6</ele>
        <time>2020-06-27T12:47:55Z</time>
      </trkpt>
      <trkpt lat="51.116469392835" lon="4.495117081064">
        <ele>2.6</ele>
        <time>2020-06-27T12:48:06Z</time>
      </trkpt>
      <trkpt lat="51.117021927683" lon="4.495044409991">
        <ele>4.2</ele>
        <time>2020-06-27T12:48:16Z</time>
      </trkpt>
      <trkpt lat="51.117121001741" lon="4.495010211839">
        <ele>4.2</ele>
        <time>2020-06-27T12:48:17Z</time>
      </trkpt>
      <trkpt lat="51.117654928771" lon="4.49478465491">
        <ele>3.4</ele>
        <time>2020-06-27T12:48:28Z</time>
      </trkpt>
      <trkpt lat="51.118180390082" lon="4.494495898455">
        <ele>2.2</ele>
        <time>2020-06-27T12:48:39Z</time>
      </trkpt>
      <trkpt lat="51.118737702613" lon="4.494168166165">
        <ele>1.8</ele>
        <time>2020-06-27T12:48:49Z</time>
      </trkpt>
      <trkpt lat="51.119298284085" lon="4.493831716699">
        <ele>2.2</ele>
        <time>2020-06-27T12:48:59Z</time>
      </trkpt>
      <trkpt lat="51.119817039876" lon="4.493562322433">
        <ele>4.2</ele>
        <time>2020-06-27T12:49:08Z</time>
      </trkpt>
      <trkpt lat="51.120332275269" lon="4.493272727788">
        <ele>7.2</ele>
        <time>2020-06-27T12:49:18Z</time>
      </trkpt>
      <trkpt lat="51.120851785431" lon="4.492975505614">
        <ele>10.4</ele>
        <time>2020-06-27T12:49:28Z</time>
      </trkpt>
      <trkpt lat="51.121367942833" lon="4.49272103113">
        <ele>8.8</ele>
        <time>2020-06-27T12:49:38Z</time>
      </trkpt>
      <trkpt lat="51.121598025988" lon="4.492596476096">
        <ele>9.4</ele>
        <time>2020-06-27T12:49:43Z</time>
      </trkpt>
      <trkpt lat="51.121634990167" lon="4.492501257712">
        <ele>9.4</ele>
        <time>2020-06-27T12:49:46Z</time>
      </trkpt>
      <trkpt lat="51.121585956052" lon="4.491614452692">
        <ele>10.4</ele>
        <time>2020-06-27T12:50:00Z</time>
      </trkpt>
      <trkpt lat="51.121517727386" lon="4.490682217774">
        <ele>9.4</ele>
        <time>2020-06-27T12:50:13Z</time>
      </trkpt>
      <trkpt lat="51.121487049632" lon="4.490319784418">
        <ele>9.6</ele>
        <time>2020-06-27T12:50:18Z</time>
      </trkpt>
      <trkpt lat="51.121560307438" lon="4.489228461038">
        <ele>11.4</ele>
        <time>2020-06-27T12:50:41Z</time>
      </trkpt>
      <trkpt lat="51.121553350461" lon="4.48925846824">
        <ele>11.8</ele>
        <time>2020-06-27T12:50:44Z</time>
      </trkpt>
      <trkpt lat="51.121508423477" lon="4.489334659711">
        <ele>10.8</ele>
        <time>2020-06-27T12:50:47Z</time>
      </trkpt>
      <trkpt lat="51.121526360743" lon="4.489918878141">
        <ele>9.6</ele>
        <time>2020-06-27T12:50:58Z</time>
      </trkpt>
      <trkpt lat="51.121672960174" lon="4.489921392711">
        <ele>8</ele>
        <time>2020-06-27T12:51:02Z</time>
      </trkpt>
      <trkpt lat="51.122226249393" lon="4.489843692498">
        <ele>6.2</ele>
        <time>2020-06-27T12:51:14Z</time>
      </trkpt>
      <trkpt lat="51.122381901276" lon="4.489813601477">
        <ele>6.2</ele>
        <time>2020-06-27T12:51:17Z</time>
      </trkpt>
      <trkpt lat="51.122703095684" lon="4.489667588779">
        <ele>6.8</ele>
        <time>2020-06-27T12:51:23Z</time>
      </trkpt>
      <trkpt lat="51.12281574842" lon="4.489652752816">
        <ele>6.6</ele>
        <time>2020-06-27T12:51:25Z</time>
      </trkpt>
      <trkpt lat="51.122956061426" lon="4.489538256062">
        <ele>6.2</ele>
        <time>2020-06-27T12:51:28Z</time>
      </trkpt>
      <trkpt lat="51.122988583198" lon="4.489384280559">
        <ele>5.6</ele>
        <time>2020-06-27T12:51:30Z</time>
      </trkpt>
      <trkpt lat="51.122971735579" lon="4.489202477148">
        <ele>6.2</ele>
        <time>2020-06-27T12:51:32Z</time>
      </trkpt>
      <trkpt lat="51.122957067254" lon="4.488298321595">
        <ele>9.2</ele>
        <time>2020-06-27T12:51:43Z</time>
      </trkpt>
      <trkpt lat="51.123027475214" lon="4.487778979071">
        <ele>8.6</ele>
        <time>2020-06-27T12:51:49Z</time>
      </trkpt>
      <trkpt lat="51.123290918331" lon="4.486972807929">
        <ele>7</ele>
        <time>2020-06-27T12:52:00Z</time>
      </trkpt>
      <trkpt lat="51.123361158653" lon="4.486856634795">
        <ele>6.6</ele>
        <time>2020-06-27T12:52:02Z</time>
      </trkpt>
      <trkpt lat="51.123831718519" lon="4.486341986135">
        <ele>5.8</ele>
        <time>2020-06-27T12:52:14Z</time>
      </trkpt>
      <trkpt lat="51.123863318282" lon="4.486295634228">
        <ele>6.6</ele>
        <time>2020-06-27T12:52:15Z</time>
      </trkpt>
      <trkpt lat="51.124178980636" lon="4.486008218877">
        <ele>5.8</ele>
        <time>2020-06-27T12:52:23Z</time>
      </trkpt>
      <trkpt lat="51.124652306529" lon="4.485508992913">
        <ele>5.2</ele>
        <time>2020-06-27T12:52:34Z</time>
      </trkpt>
      <trkpt lat="51.125101660188" lon="4.485011527148">
        <ele>8</ele>
        <time>2020-06-27T12:52:45Z</time>
      </trkpt>
      <trkpt lat="51.125548499277" lon="4.484439881568">
        <ele>6.8</ele>
        <time>2020-06-27T12:52:59Z</time>
      </trkpt>
      <trkpt lat="51.125995086909" lon="4.483925987279">
        <ele>4</ele>
        <time>2020-06-27T12:53:11Z</time>
      </trkpt>
      <trkpt lat="51.126460952911" lon="4.483448051341">
        <ele>10.6</ele>
        <time>2020-06-27T12:53:25Z</time>
      </trkpt>
      <trkpt lat="51.126552818535" lon="4.483486188986">
        <ele>10</ele>
        <time>2020-06-27T12:53:26Z</time>
      </trkpt>
      <trkpt lat="51.126603445211" lon="4.483532205617">
        <ele>10.2</ele>
        <time>2020-06-27T12:53:28Z</time>
      </trkpt>
      <trkpt lat="51.126750966651" lon="4.483711494458">
        <ele>9.8</ele>
        <time>2020-06-27T12:53:31Z</time>
      </trkpt>
      <trkpt lat="51.126817518937" lon="4.483890364204">
        <ele>9.6</ele>
        <time>2020-06-27T12:53:33Z</time>
      </trkpt>
      <trkpt lat="51.127012481931" lon="4.484732326059">
        <ele>9.8</ele>
        <time>2020-06-27T12:53:42Z</time>
      </trkpt>
      <trkpt lat="51.127185065252" lon="4.485560457779">
        <ele>10.4</ele>
        <time>2020-06-27T12:53:51Z</time>
      </trkpt>
      <trkpt lat="51.127357816211" lon="4.486385823472">
        <ele>10</ele>
        <time>2020-06-27T12:53:59Z</time>
      </trkpt>
      <trkpt lat="51.127480108132" lon="4.486926204565">
        <ele>10.6</ele>
        <time>2020-06-27T12:54:05Z</time>
      </trkpt>
      <trkpt lat="51.127533333197" lon="4.487045562821">
        <ele>11.2</ele>
        <time>2020-06-27T12:54:07Z</time>
      </trkpt>
      <trkpt lat="51.127781102161" lon="4.486964006934">
        <ele>7.8</ele>
        <time>2020-06-27T12:54:14Z</time>
      </trkpt>
      <trkpt lat="51.127881349685" lon="4.486781868247">
        <ele>6.8</ele>
        <time>2020-06-27T12:54:17Z</time>
      </trkpt>
      <trkpt lat="51.12793206018" lon="4.485913922502">
        <ele>8.6</ele>
        <time>2020-06-27T12:54:29Z</time>
      </trkpt>
      <trkpt lat="51.127948069609" lon="4.485019154677">
        <ele>7.4</ele>
        <time>2020-06-27T12:54:41Z</time>
      </trkpt>
      <trkpt lat="51.127989979109" lon="4.484107120138">
        <ele>8.8</ele>
        <time>2020-06-27T12:54:53Z</time>
      </trkpt>
      <trkpt lat="51.128097937981" lon="4.483195420875">
        <ele>6.2</ele>
        <time>2020-06-27T12:55:03Z</time>
      </trkpt>
      <trkpt lat="51.128279573754" lon="4.482322613628">
        <ele>4.8</ele>
        <time>2020-06-27T12:55:13Z</time>
      </trkpt>
      <trkpt lat="51.128449726324" lon="4.481786339666">
        <ele>4</ele>
        <time>2020-06-27T12:55:20Z</time>
      </trkpt>
      <trkpt lat="51.128550812038" lon="4.481679638079">
        <ele>2</ele>
        <time>2020-06-27T12:55:22Z</time>
      </trkpt>
      <trkpt lat="51.128705961007" lon="4.481525914033">
        <ele>1.8</ele>
        <time>2020-06-27T12:55:25Z</time>
      </trkpt>
      <trkpt lat="51.128918861267" lon="4.481061556773">
        <ele>2.8</ele>
        <time>2020-06-27T12:55:31Z</time>
      </trkpt>
      <trkpt lat="51.129210551387" lon="4.480669870586">
        <ele>5.4</ele>
        <time>2020-06-27T12:55:38Z</time>
      </trkpt>
      <trkpt lat="51.129293364559" lon="4.480591667459">
        <ele>5.8</ele>
        <time>2020-06-27T12:55:40Z</time>
      </trkpt>
      <trkpt lat="51.129786220279" lon="4.480122364878">
        <ele>5.2</ele>
        <time>2020-06-27T12:55:51Z</time>
      </trkpt>
      <trkpt lat="51.129998282349" lon="4.479896053578">
        <ele>6.2</ele>
        <time>2020-06-27T12:55:56Z</time>
      </trkpt>
      <trkpt lat="51.130097775502" lon="4.479731684519">
        <ele>6.2</ele>
        <time>2020-06-27T12:55:59Z</time>
      </trkpt>
      <trkpt lat="51.130106241221" lon="4.47958743202">
        <ele>7</ele>
        <time>2020-06-27T12:56:01Z</time>
      </trkpt>
      <trkpt lat="51.130077575123" lon="4.479424571703">
        <ele>8.8</ele>
        <time>2020-06-27T12:56:03Z</time>
      </trkpt>
      <trkpt lat="51.129838020421" lon="4.478609012833">
        <ele>16.2</ele>
        <time>2020-06-27T12:56:16Z</time>
      </trkpt>
      <trkpt lat="51.129797787301" lon="4.47846844837">
        <ele>16.2</ele>
        <time>2020-06-27T12:56:20Z</time>
      </trkpt>
      <trkpt lat="51.130181259226" lon="4.478573473577">
        <ele>17.2</ele>
        <time>2020-06-27T12:57:20Z</time>
      </trkpt>
      <trkpt lat="51.130702781044" lon="4.478265690209">
        <ele>13.6</ele>
        <time>2020-06-27T12:57:30Z</time>
      </trkpt>
      <trkpt lat="51.131258668652" lon="4.477939299023">
        <ele>10.6</ele>
        <time>2020-06-27T12:57:40Z</time>
      </trkpt>
      <trkpt lat="51.131769880733" lon="4.477650039654">
        <ele>10.2</ele>
        <time>2020-06-27T12:57:49Z</time>
      </trkpt>
      <trkpt lat="51.13229316275" lon="4.477326330676">
        <ele>11.6</ele>
        <time>2020-06-27T12:57:59Z</time>
      </trkpt>
      <trkpt lat="51.132824659029" lon="4.47705023089">
        <ele>10.2</ele>
        <time>2020-06-27T12:58:09Z</time>
      </trkpt>
      <trkpt lat="51.133362860828" lon="4.476742447522">
        <ele>8</ele>
        <time>2020-06-27T12:58:19Z</time>
      </trkpt>
      <trkpt lat="51.133412314038" lon="4.476696766167">
        <ele>7.8</ele>
        <time>2020-06-27T12:58:20Z</time>
      </trkpt>
      <trkpt lat="51.133622364452" lon="4.476422761856">
        <ele>8.4</ele>
        <time>2020-06-27T12:58:25Z</time>
      </trkpt>
      <trkpt lat="51.133744991649" lon="4.476146745889">
        <ele>9</ele>
        <time>2020-06-27T12:58:29Z</time>
      </trkpt>
      <trkpt lat="51.133905505034" lon="4.475515840276">
        <ele>8.4</ele>
        <time>2020-06-27T12:58:37Z</time>
      </trkpt>
      <trkpt lat="51.133980774496" lon="4.475408384318">
        <ele>6.8</ele>
        <time>2020-06-27T12:58:39Z</time>
      </trkpt>
      <trkpt lat="51.134212869307" lon="4.475537549397">
        <ele>4</ele>
        <time>2020-06-27T12:58:44Z</time>
      </trkpt>
      <trkpt lat="51.134295011927" lon="4.475502848331">
        <ele>1.8</ele>
        <time>2020-06-27T12:58:46Z</time>
      </trkpt>
      <trkpt lat="51.134803374162" lon="4.475179726086">
        <ele>0</ele>
        <time>2020-06-27T12:58:56Z</time>
      </trkpt>
      <trkpt lat="51.135330511853" lon="4.474871020709">
        <ele>1.4</ele>
        <time>2020-06-27T12:59:05Z</time>
      </trkpt>
      <trkpt lat="51.135849854377" lon="4.474588383041">
        <ele>1.8</ele>
        <time>2020-06-27T12:59:14Z</time>
      </trkpt>
      <trkpt lat="51.136382859398" lon="4.474256292163">
        <ele>3</ele>
        <time>2020-06-27T12:59:23Z</time>
      </trkpt>
      <trkpt lat="51.136906979605" lon="4.474001063308">
        <ele>2.8</ele>
        <time>2020-06-27T12:59:34Z</time>
      </trkpt>
      <trkpt lat="51.136952325684" lon="4.474037943668">
        <ele>5.2</ele>
        <time>2020-06-27T12:59:40Z</time>
      </trkpt>
      <trkpt lat="51.137226078538" lon="4.474530715569">
        <ele>9</ele>
        <time>2020-06-27T12:59:56Z</time>
      </trkpt>
      <trkpt lat="51.137519696495" lon="4.474370034546">
        <ele>7.2</ele>
        <time>2020-06-27T13:00:16Z</time>
      </trkpt>
      <trkpt lat="51.137846590595" lon="4.474012295054">
        <ele>7.6</ele>
        <time>2020-06-27T13:00:24Z</time>
      </trkpt>
      <trkpt lat="51.13828370668" lon="4.473486163191">
        <ele>6.2</ele>
        <time>2020-06-27T13:00:35Z</time>
      </trkpt>
      <trkpt lat="51.138421840392" lon="4.473345934004">
        <ele>5.4</ele>
        <time>2020-06-27T13:00:38Z</time>
      </trkpt>
      <trkpt lat="51.138530302178" lon="4.473338474113">
        <ele>4.2</ele>
        <time>2020-06-27T13:00:40Z</time>
      </trkpt>
      <trkpt lat="51.139077304972" lon="4.473503429905">
        <ele>3</ele>
        <time>2020-06-27T13:00:48Z</time>
      </trkpt>
      <trkpt lat="51.139221306014" lon="4.473470991952">
        <ele>2.2</ele>
        <time>2020-06-27T13:00:50Z</time>
      </trkpt>
      <trkpt lat="51.139762022383" lon="4.473186258809">
        <ele>0.2</ele>
        <time>2020-06-27T13:00:59Z</time>
      </trkpt>
      <trkpt lat="51.140312713213" lon="4.472851401904">
        <ele>3.6</ele>
        <time>2020-06-27T13:01:09Z</time>
      </trkpt>
      <trkpt lat="51.140864074595" lon="4.472549904961">
        <ele>4.2</ele>
        <time>2020-06-27T13:01:19Z</time>
      </trkpt>
      <trkpt lat="51.141374532305" lon="4.472249581484">
        <ele>6.8</ele>
        <time>2020-06-27T13:01:29Z</time>
      </trkpt>
      <trkpt lat="51.141918601434" lon="4.471962501409">
        <ele>8</ele>
        <time>2020-06-27T13:01:39Z</time>
      </trkpt>
      <trkpt lat="51.142470214273" lon="4.471610042514">
        <ele>11.2</ele>
        <time>2020-06-27T13:01:49Z</time>
      </trkpt>
      <trkpt lat="51.1429926581" lon="4.471298487291">
        <ele>10.8</ele>
        <time>2020-06-27T13:01:57Z</time>
      </trkpt>
      <trkpt lat="51.14356011273" lon="4.470995816882">
        <ele>10.6</ele>
        <time>2020-06-27T13:02:06Z</time>
      </trkpt>
      <trkpt lat="51.144067888232" lon="4.47066825223">
        <ele>10</ele>
        <time>2020-06-27T13:02:16Z</time>
      </trkpt>
      <trkpt lat="51.144109630094" lon="4.470637825933">
        <ele>9.6</ele>
        <time>2020-06-27T13:02:17Z</time>
      </trkpt>
      <trkpt lat="51.144271652221" lon="4.470511259243">
        <ele>9</ele>
        <time>2020-06-27T13:02:21Z</time>
      </trkpt>
      <trkpt lat="51.144662835494" lon="4.470315625697">
        <ele>10.6</ele>
        <time>2020-06-27T13:02:32Z</time>
      </trkpt>
      <trkpt lat="51.145174047575" lon="4.469980433516">
        <ele>13.6</ele>
        <time>2020-06-27T13:02:46Z</time>
      </trkpt>
      <trkpt lat="51.145704538026" lon="4.469733167466">
        <ele>15.4</ele>
        <time>2020-06-27T13:02:58Z</time>
      </trkpt>
      <trkpt lat="51.146222707084" lon="4.469454385472">
        <ele>14</ele>
        <time>2020-06-27T13:03:10Z</time>
      </trkpt>
      <trkpt lat="51.146781863633" lon="4.469149535769">
        <ele>12.8</ele>
        <time>2020-06-27T13:03:21Z</time>
      </trkpt>
      <trkpt lat="51.147339846716" lon="4.468852229776">
        <ele>15</ele>
        <time>2020-06-27T13:03:32Z</time>
      </trkpt>
      <trkpt lat="51.147884167302" lon="4.468542853847">
        <ele>14.4</ele>
        <time>2020-06-27T13:03:44Z</time>
      </trkpt>
      <trkpt lat="51.147921802033" lon="4.468510583532">
        <ele>14.2</ele>
        <time>2020-06-27T13:03:45Z</time>
      </trkpt>
      <trkpt lat="51.148046357067" lon="4.468412515302">
        <ele>14</ele>
        <time>2020-06-27T13:03:48Z</time>
      </trkpt>
      <trkpt lat="51.148102851073" lon="4.468306568086">
        <ele>14.2</ele>
        <time>2020-06-27T13:03:50Z</time>
      </trkpt>
      <trkpt lat="51.148124811651" lon="4.468164327243">
        <ele>15</ele>
        <time>2020-06-27T13:03:52Z</time>
      </trkpt>
      <trkpt lat="51.148151885188" lon="4.468011692844">
        <ele>15.6</ele>
        <time>2020-06-27T13:03:54Z</time>
      </trkpt>
      <trkpt lat="51.148218102198" lon="4.467893508054">
        <ele>15.4</ele>
        <time>2020-06-27T13:03:56Z</time>
      </trkpt>
      <trkpt lat="51.148304519587" lon="4.467817735678">
        <ele>14.6</ele>
        <time>2020-06-27T13:03:58Z</time>
      </trkpt>
      <trkpt lat="51.148455561425" lon="4.467749926107">
        <ele>12.2</ele>
        <time>2020-06-27T13:04:01Z</time>
      </trkpt>
      <trkpt lat="51.148556814777" lon="4.467704999123">
        <ele>11.8</ele>
        <time>2020-06-27T13:04:03Z</time>
      </trkpt>
      <trkpt lat="51.148709784452" lon="4.467616318621">
        <ele>12.2</ele>
        <time>2020-06-27T13:04:06Z</time>
      </trkpt>
      <trkpt lat="51.149244130577" lon="4.467360922128">
        <ele>11.4</ele>
        <time>2020-06-27T13:04:16Z</time>
      </trkpt>
      <trkpt lat="51.149767077318" lon="4.46711181206">
        <ele>10</ele>
        <time>2020-06-27T13:04:26Z</time>
      </trkpt>
      <trkpt lat="51.150305949669" lon="4.466896816325">
        <ele>8</ele>
        <time>2020-06-27T13:04:38Z</time>
      </trkpt>
      <trkpt lat="51.150836943034" lon="4.466606467309">
        <ele>10</ele>
        <time>2020-06-27T13:04:50Z</time>
      </trkpt>
      <trkpt lat="51.151359889775" lon="4.466306730565">
        <ele>11</ele>
        <time>2020-06-27T13:05:02Z</time>
      </trkpt>
      <trkpt lat="51.151897001927" lon="4.465962737389">
        <ele>11</ele>
        <time>2020-06-27T13:05:13Z</time>
      </trkpt>
      <trkpt lat="51.152134125878" lon="4.465847067169">
        <ele>10.4</ele>
        <time>2020-06-27T13:05:18Z</time>
      </trkpt>
      <trkpt lat="51.152466384394" lon="4.465882774063">
        <ele>9.4</ele>
        <time>2020-06-27T13:05:24Z</time>
      </trkpt>
      <trkpt lat="51.152610217798" lon="4.465846899531">
        <ele>12.4</ele>
        <time>2020-06-27T13:05:26Z</time>
      </trkpt>
      <trkpt lat="51.153171888917" lon="4.465558897447">
        <ele>17.8</ele>
        <time>2020-06-27T13:05:35Z</time>
      </trkpt>
      <trkpt lat="51.153715287494" lon="4.465270643906">
        <ele>18.4</ele>
        <time>2020-06-27T13:05:44Z</time>
      </trkpt>
      <trkpt lat="51.154227505403" lon="4.464934110621">
        <ele>21.8</ele>
        <time>2020-06-27T13:05:54Z</time>
      </trkpt>
      <trkpt lat="51.154795798223" lon="4.464692544263">
        <ele>21.8</ele>
        <time>2020-06-27T13:06:04Z</time>
      </trkpt>
      <trkpt lat="51.155061588272" lon="4.464488193541">
        <ele>20.4</ele>
        <time>2020-06-27T13:06:09Z</time>
      </trkpt>
      <trkpt lat="51.155293347807" lon="4.464379061203">
        <ele>20.6</ele>
        <time>2020-06-27T13:06:13Z</time>
      </trkpt>
      <trkpt lat="51.155442797084" lon="4.464327847794">
        <ele>20.6</ele>
        <time>2020-06-27T13:06:16Z</time>
      </trkpt>
      <trkpt lat="51.155954595898" lon="4.464050406904">
        <ele>20</ele>
        <time>2020-06-27T13:06:26Z</time>
      </trkpt>
      <trkpt lat="51.156005976945" lon="4.464012269259">
        <ele>19</ele>
        <time>2020-06-27T13:06:27Z</time>
      </trkpt>
      <trkpt lat="51.156625734631" lon="4.463664001314">
        <ele>19.8</ele>
        <time>2020-06-27T13:06:38Z</time>
      </trkpt>
      <trkpt lat="51.157174581443" lon="4.463363929294">
        <ele>19.6</ele>
        <time>2020-06-27T13:06:47Z</time>
      </trkpt>
      <trkpt lat="51.157700964763" lon="4.463070814251">
        <ele>18.6</ele>
        <time>2020-06-27T13:06:56Z</time>
      </trkpt>
      <trkpt lat="51.158210332826" lon="4.462760683951">
        <ele>16.6</ele>
        <time>2020-06-27T13:07:04Z</time>
      </trkpt>
      <trkpt lat="51.158769740832" lon="4.462437310249">
        <ele>15.4</ele>
        <time>2020-06-27T13:07:13Z</time>
      </trkpt>
      <trkpt lat="51.158820954241" lon="4.462381319157">
        <ele>15.6</ele>
        <time>2020-06-27T13:07:14Z</time>
      </trkpt>
      <trkpt lat="51.158875268953" lon="4.462224074713">
        <ele>15.8</ele>
        <time>2020-06-27T13:07:16Z</time>
      </trkpt>
      <trkpt lat="51.158880130455" lon="4.462029446995">
        <ele>15</ele>
        <time>2020-06-27T13:07:18Z</time>
      </trkpt>
      <trkpt lat="51.158908545096" lon="4.461856528398">
        <ele>14</ele>
        <time>2020-06-27T13:07:20Z</time>
      </trkpt>
      <trkpt lat="51.158987754051" lon="4.461751754648">
        <ele>13.8</ele>
        <time>2020-06-27T13:07:22Z</time>
      </trkpt>
      <trkpt lat="51.159542132917" lon="4.46140709092">
        <ele>13.4</ele>
        <time>2020-06-27T13:07:33Z</time>
      </trkpt>
      <trkpt lat="51.15989978859" lon="4.461241380757">
        <ele>12.8</ele>
        <time>2020-06-27T13:07:40Z</time>
      </trkpt>
      <trkpt lat="51.1604186282" lon="4.460904679834">
        <ele>21</ele>
        <time>2020-06-27T13:07:52Z</time>
      </trkpt>
      <trkpt lat="51.160632701926" lon="4.460749698503">
        <ele>18.8</ele>
        <time>2020-06-27T13:07:57Z</time>
      </trkpt>
      <trkpt lat="51.160984574088" lon="4.460663364933">
        <ele>13.8</ele>
        <time>2020-06-27T13:08:05Z</time>
      </trkpt>
      <trkpt lat="51.16149905511" lon="4.460809712907">
        <ele>17.8</ele>
        <time>2020-06-27T13:08:19Z</time>
      </trkpt>
      <trkpt lat="51.161512214693" lon="4.460931334276">
        <ele>18.2</ele>
        <time>2020-06-27T13:08:21Z</time>
      </trkpt>
      <trkpt lat="51.161701561814" lon="4.461337604969">
        <ele>20.8</ele>
        <time>2020-06-27T13:08:33Z</time>
      </trkpt>
      <trkpt lat="51.162247139685" lon="4.461036778578">
        <ele>16.4</ele>
        <time>2020-06-27T13:08:44Z</time>
      </trkpt>
      <trkpt lat="51.162819623455" lon="4.460752967444">
        <ele>11.6</ele>
        <time>2020-06-27T13:08:53Z</time>
      </trkpt>
      <trkpt lat="51.163353047571" lon="4.460449123569">
        <ele>11.6</ele>
        <time>2020-06-27T13:09:02Z</time>
      </trkpt>
      <trkpt lat="51.163883873298" lon="4.460159696562">
        <ele>12.6</ele>
        <time>2020-06-27T13:09:11Z</time>
      </trkpt>
      <trkpt lat="51.164398438139" lon="4.459877142713">
        <ele>13.4</ele>
        <time>2020-06-27T13:09:20Z</time>
      </trkpt>
      <trkpt lat="51.164838906984" lon="4.459573298838">
        <ele>14.4</ele>
        <time>2020-06-27T13:09:29Z</time>
      </trkpt>
      <trkpt lat="51.164878972466" lon="4.459467603079">
        <ele>16.2</ele>
        <time>2020-06-27T13:09:31Z</time>
      </trkpt>
      <trkpt lat="51.164763134608" lon="4.459032582469">
        <ele>18.6</ele>
        <time>2020-06-27T13:09:39Z</time>
      </trkpt>
      <trkpt lat="51.16480403828" lon="4.459027301872">
        <ele>17.8</ele>
        <time>2020-06-27T13:09:42Z</time>
      </trkpt>
      <trkpt lat="51.164822813736" lon="4.459038868894">
        <ele>17.8</ele>
        <time>2020-06-27T13:09:43Z</time>
      </trkpt>
      <trkpt lat="51.165187594024" lon="4.458881037717">
        <ele>20.8</ele>
        <time>2020-06-27T13:09:56Z</time>
      </trkpt>
      <trkpt lat="51.165396387153" lon="4.458760170719">
        <ele>20.8</ele>
        <time>2020-06-27T13:10:00Z</time>
      </trkpt>
      <trkpt lat="51.165947999992" lon="4.45843403099">
        <ele>18.8</ele>
        <time>2020-06-27T13:10:09Z</time>
      </trkpt>
      <trkpt lat="51.166504977247" lon="4.45811216603">
        <ele>18</ele>
        <time>2020-06-27T13:10:18Z</time>
      </trkpt>
      <trkpt lat="51.167010908731" lon="4.457807735422">
        <ele>17.2</ele>
        <time>2020-06-27T13:10:27Z</time>
      </trkpt>
      <trkpt lat="51.167528407237" lon="4.45750699285">
        <ele>15.8</ele>
        <time>2020-06-27T13:10:36Z</time>
      </trkpt>
      <trkpt lat="51.168091168003" lon="4.457183283872">
        <ele>13.2</ele>
        <time>2020-06-27T13:10:45Z</time>
      </trkpt>
      <trkpt lat="51.16860271536" lon="4.456883128033">
        <ele>12.2</ele>
        <time>2020-06-27T13:10:53Z</time>
      </trkpt>
      <trkpt lat="51.168836821827" lon="4.456759914103">
        <ele>11.8</ele>
        <time>2020-06-27T13:10:57Z</time>
      </trkpt>
      <trkpt lat="51.169058439263" lon="4.456729906901">
        <ele>10.4</ele>
        <time>2020-06-27T13:11:01Z</time>
      </trkpt>
      <trkpt lat="51.169128679585" lon="4.456812300978">
        <ele>10.2</ele>
        <time>2020-06-27T13:11:03Z</time>
      </trkpt>
      <trkpt lat="51.169214091146" lon="4.457095860655">
        <ele>8.8</ele>
        <time>2020-06-27T13:11:07Z</time>
      </trkpt>
      <trkpt lat="51.169226244901" lon="4.457190659944">
        <ele>7</ele>
        <time>2020-06-27T13:11:09Z</time>
      </trkpt>
      <trkpt lat="51.169303777476" lon="4.457331392045">
        <ele>9.6</ele>
        <time>2020-06-27T13:11:23Z</time>
      </trkpt>
      <trkpt lat="51.169733852765" lon="4.457144224218">
        <ele>8.2</ele>
        <time>2020-06-27T13:11:32Z</time>
      </trkpt>
      <trkpt lat="51.170116654138" lon="4.457360896333">
        <ele>7</ele>
        <time>2020-06-27T13:11:43Z</time>
      </trkpt>
      <trkpt lat="51.170321507774" lon="4.457535407491">
        <ele>11.4</ele>
        <time>2020-06-27T13:11:50Z</time>
      </trkpt>
      <trkpt lat="51.170409517724" lon="4.457543202658">
        <ele>11</ele>
        <time>2020-06-27T13:11:52Z</time>
      </trkpt>
      <trkpt lat="51.170495851294" lon="4.457513530732">
        <ele>10.8</ele>
        <time>2020-06-27T13:11:54Z</time>
      </trkpt>
      <trkpt lat="51.170775052383" lon="4.45724044843">
        <ele>13.4</ele>
        <time>2020-06-27T13:12:00Z</time>
      </trkpt>
      <trkpt lat="51.171089373633" lon="4.456518515383">
        <ele>15.8</ele>
        <time>2020-06-27T13:12:10Z</time>
      </trkpt>
      <trkpt lat="51.171136982825" lon="4.456390942865">
        <ele>15.8</ele>
        <time>2020-06-27T13:12:12Z</time>
      </trkpt>
      <trkpt lat="51.171267405189" lon="4.456163541918">
        <ele>14.8</ele>
        <time>2020-06-27T13:12:19Z</time>
      </trkpt>
      <trkpt lat="51.171370083464" lon="4.455998837583">
        <ele>27</ele>
        <time>2020-06-27T13:13:07Z</time>
      </trkpt>
      <trkpt lat="51.171918343543" lon="4.455694239337">
        <ele>20</ele>
        <time>2020-06-27T13:13:17Z</time>
      </trkpt>
      <trkpt lat="51.172473141504" lon="4.455395005507">
        <ele>12.2</ele>
        <time>2020-06-27T13:13:25Z</time>
      </trkpt>
      <trkpt lat="51.172969517622" lon="4.455035673454">
        <ele>9.8</ele>
        <time>2020-06-27T13:13:33Z</time>
      </trkpt>
      <trkpt lat="51.173493721648" lon="4.454719675824">
        <ele>7.8</ele>
        <time>2020-06-27T13:13:42Z</time>
      </trkpt>
      <trkpt lat="51.174020188787" lon="4.454397643226">
        <ele>7.8</ele>
        <time>2020-06-27T13:13:51Z</time>
      </trkpt>
      <trkpt lat="51.174558809681" lon="4.454049962014">
        <ele>8.2</ele>
        <time>2020-06-27T13:14:00Z</time>
      </trkpt>
      <trkpt lat="51.175092233797" lon="4.45365383342">
        <ele>5.4</ele>
        <time>2020-06-27T13:14:09Z</time>
      </trkpt>
      <trkpt lat="51.175230451328" lon="4.453623239485">
        <ele>5</ele>
        <time>2020-06-27T13:14:11Z</time>
      </trkpt>
      <trkpt lat="51.175559440903" lon="4.453488626171">
        <ele>2.8</ele>
        <time>2020-06-27T13:14:17Z</time>
      </trkpt>
      <trkpt lat="51.175695311502" lon="4.453406148275">
        <ele>3.2</ele>
        <time>2020-06-27T13:14:20Z</time>
      </trkpt>
      <trkpt lat="51.176189675964" lon="4.452990573673">
        <ele>5.6</ele>
        <time>2020-06-27T13:14:33Z</time>
      </trkpt>
      <trkpt lat="51.176324289278" lon="4.452852691418">
        <ele>5.8</ele>
        <time>2020-06-27T13:14:36Z</time>
      </trkpt>
      <trkpt lat="51.176841368689" lon="4.452433261142">
        <ele>10</ele>
        <time>2020-06-27T13:14:45Z</time>
      </trkpt>
      <trkpt lat="51.177365405077" lon="4.452040569127">
        <ele>11.4</ele>
        <time>2020-06-27T13:14:54Z</time>
      </trkpt>
      <trkpt lat="51.177844849757" lon="4.451647541836">
        <ele>11.2</ele>
        <time>2020-06-27T13:15:02Z</time>
      </trkpt>
      <trkpt lat="51.178313230329" lon="4.451197349987">
        <ele>10.2</ele>
        <time>2020-06-27T13:15:10Z</time>
      </trkpt>
      <trkpt lat="51.178810360818" lon="4.45078638543">
        <ele>10.6</ele>
        <time>2020-06-27T13:15:19Z</time>
      </trkpt>
      <trkpt lat="51.179304306185" lon="4.450358405616">
        <ele>11.4</ele>
        <time>2020-06-27T13:15:28Z</time>
      </trkpt>
      <trkpt lat="51.179803699787" lon="4.449931766906">
        <ele>11.2</ele>
        <time>2020-06-27T13:15:38Z</time>
      </trkpt>
      <trkpt lat="51.180312732574" lon="4.449438408272">
        <ele>9.6</ele>
        <time>2020-06-27T13:15:47Z</time>
      </trkpt>
      <trkpt lat="51.180849844726" lon="4.448995927771">
        <ele>8.6</ele>
        <time>2020-06-27T13:15:56Z</time>
      </trkpt>
      <trkpt lat="51.181330798148" lon="4.44854087442">
        <ele>9.6</ele>
        <time>2020-06-27T13:16:05Z</time>
      </trkpt>
      <trkpt lat="51.181623661734" lon="4.448256644191">
        <ele>10.8</ele>
        <time>2020-06-27T13:16:11Z</time>
      </trkpt>
      <trkpt lat="51.181936977156" lon="4.448051287641">
        <ele>11.6</ele>
        <time>2020-06-27T13:16:18Z</time>
      </trkpt>
      <trkpt lat="51.183606232541" lon="4.448760228743">
        <ele>23.2</ele>
        <time>2020-06-27T13:17:58Z</time>
      </trkpt>
      <trkpt lat="51.184111325835" lon="4.449068431206">
        <ele>24.4</ele>
        <time>2020-06-27T13:18:08Z</time>
      </trkpt>
      <trkpt lat="51.184653634765" lon="4.449408652527">
        <ele>23.8</ele>
        <time>2020-06-27T13:18:17Z</time>
      </trkpt>
      <trkpt lat="51.185173983117" lon="4.449708137814">
        <ele>20.2</ele>
        <time>2020-06-27T13:18:26Z</time>
      </trkpt>
      <trkpt lat="51.185721153549" lon="4.450067805143">
        <ele>21</ele>
        <time>2020-06-27T13:18:35Z</time>
      </trkpt>
      <trkpt lat="51.18616531043" lon="4.450222702655">
        <ele>16.2</ele>
        <time>2020-06-27T13:18:42Z</time>
      </trkpt>
      <trkpt lat="51.186390364445" lon="4.450181715164">
        <ele>11.6</ele>
        <time>2020-06-27T13:18:45Z</time>
      </trkpt>
      <trkpt lat="51.186680210547" lon="4.450052717723">
        <ele>9.2</ele>
        <time>2020-06-27T13:18:49Z</time>
      </trkpt>
      <trkpt lat="51.187029568139" lon="4.44971685499">
        <ele>7.2</ele>
        <time>2020-06-27T13:19:07Z</time>
      </trkpt>
      <trkpt lat="51.187073573114" lon="4.449691374014">
        <ele>6.8</ele>
        <time>2020-06-27T13:19:08Z</time>
      </trkpt>
      <trkpt lat="51.187608505972" lon="4.4494142684">
        <ele>6.4</ele>
        <time>2020-06-27T13:19:17Z</time>
      </trkpt>
      <trkpt lat="51.187722835088" lon="4.449327599554">
        <ele>6.6</ele>
        <time>2020-06-27T13:19:18Z</time>
      </trkpt>
      <trkpt lat="51.187774048497" lon="4.449265741132">
        <ele>6.8</ele>
        <time>2020-06-27T13:19:20Z</time>
      </trkpt>
      <trkpt lat="51.188215187894" lon="4.448600302091">
        <ele>4.6</ele>
        <time>2020-06-27T13:19:29Z</time>
      </trkpt>
      <trkpt lat="51.188299845084" lon="4.448387820926">
        <ele>5.4</ele>
        <time>2020-06-27T13:19:33Z</time>
      </trkpt>
      <trkpt lat="51.188369917768" lon="4.448282963357">
        <ele>5.2</ele>
        <time>2020-06-27T13:19:35Z</time>
      </trkpt>
      <trkpt lat="51.188494808078" lon="4.44829528475">
        <ele>4.4</ele>
        <time>2020-06-27T13:19:38Z</time>
      </trkpt>
      <trkpt lat="51.188884147333" lon="4.448824937011">
        <ele>2.8</ele>
        <time>2020-06-27T13:19:48Z</time>
      </trkpt>
      <trkpt lat="51.188978443708" lon="4.448890651107">
        <ele>2</ele>
        <time>2020-06-27T13:19:50Z</time>
      </trkpt>
      <trkpt lat="51.189567356002" lon="4.449051164492">
        <ele>3.4</ele>
        <time>2020-06-27T13:20:01Z</time>
      </trkpt>
      <trkpt lat="51.190139504496" lon="4.449039932746">
        <ele>8.8</ele>
        <time>2020-06-27T13:20:10Z</time>
      </trkpt>
      <trkpt lat="51.190453239013" lon="4.448917557006">
        <ele>9.6</ele>
        <time>2020-06-27T13:20:15Z</time>
      </trkpt>
      <trkpt lat="51.190800082035" lon="4.449106568851">
        <ele>6.2</ele>
        <time>2020-06-27T13:20:29Z</time>
      </trkpt>
      <trkpt lat="51.190858671516" lon="4.449399097161">
        <ele>7.6</ele>
        <time>2020-06-27T13:20:34Z</time>
      </trkpt>
      <trkpt lat="51.191392850003" lon="4.449805284035">
        <ele>7</ele>
        <time>2020-06-27T13:20:43Z</time>
      </trkpt>
      <trkpt lat="51.191881598592" lon="4.450201244991">
        <ele>8.6</ele>
        <time>2020-06-27T13:20:51Z</time>
      </trkpt>
      <trkpt lat="51.192404880609" lon="4.450591338617">
        <ele>11.8</ele>
        <time>2020-06-27T13:20:59Z</time>
      </trkpt>
      <trkpt lat="51.192476545854" lon="4.45061958562">
        <ele>11.6</ele>
        <time>2020-06-27T13:21:00Z</time>
      </trkpt>
      <trkpt lat="51.193045341588" lon="4.45084338235">
        <ele>11.8</ele>
        <time>2020-06-27T13:21:08Z</time>
      </trkpt>
      <trkpt lat="51.19342738859" lon="4.451028538521">
        <ele>10.4</ele>
        <time>2020-06-27T13:21:14Z</time>
      </trkpt>
      <trkpt lat="51.193973720832" lon="4.451240768229">
        <ele>9</ele>
        <time>2020-06-27T13:21:23Z</time>
      </trkpt>
      <trkpt lat="51.194513599011" lon="4.451485603528">
        <ele>8.6</ele>
        <time>2020-06-27T13:21:32Z</time>
      </trkpt>
      <trkpt lat="51.195101924572" lon="4.451713088294">
        <ele>11.6</ele>
        <time>2020-06-27T13:21:41Z</time>
      </trkpt>
      <trkpt lat="51.195658315094" lon="4.451960186706">
        <ele>17.4</ele>
        <time>2020-06-27T13:21:50Z</time>
      </trkpt>
      <trkpt lat="51.196205653164" lon="4.4521719135">
        <ele>19.4</ele>
        <time>2020-06-27T13:21:59Z</time>
      </trkpt>
      <trkpt lat="51.196732287941" lon="4.45236218263">
        <ele>15.4</ele>
        <time>2020-06-27T13:22:08Z</time>
      </trkpt>
      <trkpt lat="51.197257833071" lon="4.45259017031">
        <ele>11</ele>
        <time>2020-06-27T13:22:17Z</time>
      </trkpt>
      <trkpt lat="51.197541979481" lon="4.452678431717">
        <ele>13.4</ele>
        <time>2020-06-27T13:22:26Z</time>
      </trkpt>
      <trkpt lat="51.198066267326" lon="4.452986382723">
        <ele>14.4</ele>
        <time>2020-06-27T13:22:37Z</time>
      </trkpt>
      <trkpt lat="51.198379079834" lon="4.453116637449">
        <ele>11.4</ele>
        <time>2020-06-27T13:22:43Z</time>
      </trkpt>
      <trkpt lat="51.198696586206" lon="4.452830395564">
        <ele>9</ele>
        <time>2020-06-27T13:23:03Z</time>
      </trkpt>
      <trkpt lat="51.19900805761" lon="4.452103517196">
        <ele>12</ele>
        <time>2020-06-27T13:23:11Z</time>
      </trkpt>
      <trkpt lat="51.199308548725" lon="4.451371358231">
        <ele>12.2</ele>
        <time>2020-06-27T13:23:19Z</time>
      </trkpt>
      <trkpt lat="51.199720016196" lon="4.450429232671">
        <ele>13.6</ele>
        <time>2020-06-27T13:23:30Z</time>
      </trkpt>
      <trkpt lat="51.200014807619" lon="4.450321944351">
        <ele>28.8</ele>
        <time>2020-06-27T13:24:28Z</time>
      </trkpt>
      <trkpt lat="51.20058888395" lon="4.450341809454">
        <ele>26.2</ele>
        <time>2020-06-27T13:24:39Z</time>
      </trkpt>
      <trkpt lat="51.201190117637" lon="4.450323285455">
        <ele>20.2</ele>
        <time>2020-06-27T13:24:48Z</time>
      </trkpt>
      <trkpt lat="51.20177659918" lon="4.450308700949">
        <ele>17.6</ele>
        <time>2020-06-27T13:24:56Z</time>
      </trkpt>
      <trkpt lat="51.202341120145" lon="4.450287830018">
        <ele>16.2</ele>
        <time>2020-06-27T13:25:03Z</time>
      </trkpt>
      <trkpt lat="51.202903294178" lon="4.450292440063">
        <ele>11</ele>
        <time>2020-06-27T13:25:11Z</time>
      </trkpt>
      <trkpt lat="51.203490781549" lon="4.450245501423">
        <ele>6.4</ele>
        <time>2020-06-27T13:25:19Z</time>
      </trkpt>
      <trkpt lat="51.204076508721" lon="4.450236868066">
        <ele>5.8</ele>
        <time>2020-06-27T13:25:26Z</time>
      </trkpt>
      <trkpt lat="51.204628289198" lon="4.450225384863">
        <ele>7.4</ele>
        <time>2020-06-27T13:25:33Z</time>
      </trkpt>
      <trkpt lat="51.205197084932" lon="4.450153384342">
        <ele>7.8</ele>
        <time>2020-06-27T13:25:41Z</time>
      </trkpt>
      <trkpt lat="51.205696562353" lon="4.450103931132">
        <ele>6</ele>
        <time>2020-06-27T13:25:48Z</time>
      </trkpt>
      <trkpt lat="51.20579907299" lon="4.45022647451">
        <ele>6.8</ele>
        <time>2020-06-27T13:25:50Z</time>
      </trkpt>
      <trkpt lat="51.205894794288" lon="4.450346838594">
        <ele>6.8</ele>
        <time>2020-06-27T13:25:52Z</time>
      </trkpt>
      <trkpt lat="51.206007530843" lon="4.450353125019">
        <ele>7.4</ele>
        <time>2020-06-27T13:25:54Z</time>
      </trkpt>
      <trkpt lat="51.206103755055" lon="4.450238376808">
        <ele>8.8</ele>
        <time>2020-06-27T13:25:56Z</time>
      </trkpt>
      <trkpt lat="51.206142227976" lon="4.45009068773">
        <ele>8</ele>
        <time>2020-06-27T13:25:58Z</time>
      </trkpt>
      <trkpt lat="51.206216072515" lon="4.450003851246">
        <ele>7.6</ele>
        <time>2020-06-27T13:26:00Z</time>
      </trkpt>
      <trkpt lat="51.20677724072" lon="4.449779383964">
        <ele>4.8</ele>
        <time>2020-06-27T13:26:09Z</time>
      </trkpt>
      <trkpt lat="51.206893832949" lon="4.449770666788">
        <ele>3.6</ele>
        <time>2020-06-27T13:26:10Z</time>
      </trkpt>
      <trkpt lat="51.206937754105" lon="4.449830765011">
        <ele>3.4</ele>
        <time>2020-06-27T13:26:12Z</time>
      </trkpt>
      <trkpt lat="51.206993409921" lon="4.449998403011">
        <ele>1.6</ele>
        <time>2020-06-27T13:26:14Z</time>
      </trkpt>
      <trkpt lat="51.207025093503" lon="4.45020971071">
        <ele>2</ele>
        <time>2020-06-27T13:26:16Z</time>
      </trkpt>
      <trkpt lat="51.207101117336" lon="4.451116045557">
        <ele>4.8</ele>
        <time>2020-06-27T13:26:24Z</time>
      </trkpt>
      <trkpt lat="51.207153001297" lon="4.452006287156">
        <ele>9.8</ele>
        <time>2020-06-27T13:26:32Z</time>
      </trkpt>
      <trkpt lat="51.20716280812" lon="4.452201669245">
        <ele>10.6</ele>
        <time>2020-06-27T13:26:34Z</time>
      </trkpt>
      <trkpt lat="51.207216033185" lon="4.452296719991">
        <ele>11.2</ele>
        <time>2020-06-27T13:26:36Z</time>
      </trkpt>
      <trkpt lat="51.207780721788" lon="4.452233352827">
        <ele>13</ele>
        <time>2020-06-27T13:26:45Z</time>
      </trkpt>
      <trkpt lat="51.208353373196" lon="4.452117682607">
        <ele>10.2</ele>
        <time>2020-06-27T13:26:53Z</time>
      </trkpt>
      <trkpt lat="51.208678590916" lon="4.452072755623">
        <ele>10.4</ele>
        <time>2020-06-27T13:26:58Z</time>
      </trkpt>
      <trkpt lat="51.209260294776" lon="4.452235448302">
        <ele>10.8</ele>
        <time>2020-06-27T13:27:07Z</time>
      </trkpt>
      <trkpt lat="51.209792461607" lon="4.452452874788">
        <ele>17.6</ele>
        <time>2020-06-27T13:27:16Z</time>
      </trkpt>
      <trkpt lat="51.210232008443" lon="4.452584889713">
        <ele>18.8</ele>
        <time>2020-06-27T13:27:24Z</time>
      </trkpt>
      <trkpt lat="51.2105842997" lon="4.452813715583">
        <ele>8.6</ele>
        <time>2020-06-27T13:27:39Z</time>
      </trkpt>
      <trkpt lat="51.210754116994" lon="4.452923434654">
        <ele>9.6</ele>
        <time>2020-06-27T13:27:43Z</time>
      </trkpt>
      <trkpt lat="51.210876241277" lon="4.453044888385">
        <ele>9</ele>
        <time>2020-06-27T13:27:46Z</time>
      </trkpt>
      <trkpt lat="51.211208918888" lon="4.453835804469">
        <ele>9.2</ele>
        <time>2020-06-27T13:27:54Z</time>
      </trkpt>
      <trkpt lat="51.211471607634" lon="4.454605598165">
        <ele>16</ele>
        <time>2020-06-27T13:28:02Z</time>
      </trkpt>
      <trkpt lat="51.211755502587" lon="4.455378996078">
        <ele>23.8</ele>
        <time>2020-06-27T13:28:10Z</time>
      </trkpt>
      <trkpt lat="51.211915932153" lon="4.455722570159">
        <ele>23.4</ele>
        <time>2020-06-27T13:28:14Z</time>
      </trkpt>
      <trkpt lat="51.212430245537" lon="4.456228334005">
        <ele>22.6</ele>
        <time>2020-06-27T13:28:22Z</time>
      </trkpt>
      <trkpt lat="51.212963669653" lon="4.456706689038">
        <ele>26.2</ele>
        <time>2020-06-27T13:28:30Z</time>
      </trkpt>
      <trkpt lat="51.21348695167" lon="4.457097788492">
        <ele>31.4</ele>
        <time>2020-06-27T13:28:38Z</time>
      </trkpt>
      <trkpt lat="51.213583092063" lon="4.457233994367">
        <ele>29.4</ele>
        <time>2020-06-27T13:28:39Z</time>
      </trkpt>
      <trkpt lat="51.213623073726" lon="4.457328206923">
        <ele>29.4</ele>
        <time>2020-06-27T13:28:41Z</time>
      </trkpt>
      <trkpt lat="51.213901939539" lon="4.458098419714">
        <ele>25.4</ele>
        <time>2020-06-27T13:28:49Z</time>
      </trkpt>
      <trkpt lat="51.213936472967" lon="4.458158937032">
        <ele>25</ele>
        <time>2020-06-27T13:28:50Z</time>
      </trkpt>
      <trkpt lat="51.21401165861" lon="4.458263459325">
        <ele>23.8</ele>
        <time>2020-06-27T13:28:52Z</time>
      </trkpt>
      <trkpt lat="51.214076702154" lon="4.458425816728">
        <ele>22.6</ele>
        <time>2020-06-27T13:28:54Z</time>
      </trkpt>
      <trkpt lat="51.214083407674" lon="4.458835607819">
        <ele>13.6</ele>
        <time>2020-06-27T13:28:58Z</time>
      </trkpt>
      <trkpt lat="51.214080725466" lon="4.459012130633">
        <ele>12.4</ele>
        <time>2020-06-27T13:29:00Z</time>
      </trkpt>
      <trkpt lat="51.214293374269" lon="4.459828946788">
        <ele>9.4</ele>
        <time>2020-06-27T13:29:09Z</time>
      </trkpt>
      <trkpt lat="51.214359339822" lon="4.460026172895">
        <ele>9</ele>
        <time>2020-06-27T13:29:11Z</time>
      </trkpt>
      <trkpt lat="51.21450199976" lon="4.460285089786">
        <ele>9.8</ele>
        <time>2020-06-27T13:29:14Z</time>
      </trkpt>
      <trkpt lat="51.21479788083" lon="4.461032503809">
        <ele>11.4</ele>
        <time>2020-06-27T13:29:22Z</time>
      </trkpt>
      <trkpt lat="51.215148160431" lon="4.461769608095">
        <ele>8.4</ele>
        <time>2020-06-27T13:29:31Z</time>
      </trkpt>
      <trkpt lat="51.215456027618" lon="4.46252775095">
        <ele>9.2</ele>
        <time>2020-06-27T13:29:41Z</time>
      </trkpt>
      <trkpt lat="51.215563651214" lon="4.462526661303">
        <ele>9.6</ele>
        <time>2020-06-27T13:29:43Z</time>
      </trkpt>
      <trkpt lat="51.215655852114" lon="4.462390958342">
        <ele>9.4</ele>
        <time>2020-06-27T13:29:45Z</time>
      </trkpt>
      <trkpt lat="51.216046951568" lon="4.461659218472">
        <ele>8.2</ele>
        <time>2020-06-27T13:29:54Z</time>
      </trkpt>
      <trkpt lat="51.216436961375" lon="4.460875594641">
        <ele>5.6</ele>
        <time>2020-06-27T13:30:02Z</time>
      </trkpt>
      <trkpt lat="51.216785396958" lon="4.46013890945">
        <ele>2.8</ele>
        <time>2020-06-27T13:30:11Z</time>
      </trkpt>
      <trkpt lat="51.217137939672" lon="4.459485372707">
        <ele>1.4</ele>
        <time>2020-06-27T13:30:19Z</time>
      </trkpt>
      <trkpt lat="51.217469443817" lon="4.458750112439">
        <ele>2</ele>
        <time>2020-06-27T13:30:28Z</time>
      </trkpt>
      <trkpt lat="51.217848221878" lon="4.458052067807">
        <ele>1.8</ele>
        <time>2020-06-27T13:30:38Z</time>
      </trkpt>
      <trkpt lat="51.218209481768" lon="4.457373469183">
        <ele>0</ele>
        <time>2020-06-27T13:30:49Z</time>
      </trkpt>
      <trkpt lat="51.218303778143" lon="4.457239191145">
        <ele>0</ele>
        <time>2020-06-27T13:30:52Z</time>
      </trkpt>
      <trkpt lat="51.218771907258" lon="4.456786317088">
        <ele>0</ele>
        <time>2020-06-27T13:31:00Z</time>
      </trkpt>
      <trkpt lat="51.219267864281" lon="4.456266220193">
        <ele>0</ele>
        <time>2020-06-27T13:31:09Z</time>
      </trkpt>
      <trkpt lat="51.219748314789" lon="4.455825248434">
        <ele>0</ele>
        <time>2020-06-27T13:31:18Z</time>
      </trkpt>
      <trkpt lat="51.219797851818" lon="4.455768335333">
        <ele>0</ele>
        <time>2020-06-27T13:31:19Z</time>
      </trkpt>
      <trkpt lat="51.220253743359" lon="4.455454097902">
        <ele>37.4</ele>
        <time>2020-06-27T13:32:22Z</time>
      </trkpt>
      <trkpt lat="51.220362288964" lon="4.455318814036">
        <ele>37.4</ele>
        <time>2020-06-27T13:32:25Z</time>
      </trkpt>
      <trkpt lat="51.220479719383" lon="4.455145727801">
        <ele>34.2</ele>
        <time>2020-06-27T13:32:28Z</time>
      </trkpt>
      <trkpt lat="51.220554234474" lon="4.45497817362">
        <ele>32.4</ele>
        <time>2020-06-27T13:32:30Z</time>
      </trkpt>
      <trkpt lat="51.220710724547" lon="4.454720262557">
        <ele>23.4</ele>
        <time>2020-06-27T13:32:33Z</time>
      </trkpt>
      <trkpt lat="51.220888588465" lon="4.454559581534">
        <ele>20.8</ele>
        <time>2020-06-27T13:32:36Z</time>
      </trkpt>
      <trkpt lat="51.221026722177" lon="4.454530161065">
        <ele>18.6</ele>
        <time>2020-06-27T13:32:38Z</time>
      </trkpt>
      <trkpt lat="51.221584872898" lon="4.454523204088">
        <ele>13.6</ele>
        <time>2020-06-27T13:32:46Z</time>
      </trkpt>
      <trkpt lat="51.222182837644" lon="4.45451549274">
        <ele>7.6</ele>
        <time>2020-06-27T13:32:54Z</time>
      </trkpt>
      <trkpt lat="51.222739814899" lon="4.45453309473">
        <ele>7</ele>
        <time>2020-06-27T13:33:02Z</time>
      </trkpt>
      <trkpt lat="51.223290254272" lon="4.454597048627">
        <ele>6.4</ele>
        <time>2020-06-27T13:33:10Z</time>
      </trkpt>
      <trkpt lat="51.223874221245" lon="4.454684639482">
        <ele>4.8</ele>
        <time>2020-06-27T13:33:18Z</time>
      </trkpt>
      <trkpt lat="51.224439748038" lon="4.454691680278">
        <ele>4.6</ele>
        <time>2020-06-27T13:33:27Z</time>
      </trkpt>
      <trkpt lat="51.225023966468" lon="4.454699391626">
        <ele>6.4</ele>
        <time>2020-06-27T13:33:36Z</time>
      </trkpt>
      <trkpt lat="51.225616902074" lon="4.45468564531">
        <ele>6.6</ele>
        <time>2020-06-27T13:33:45Z</time>
      </trkpt>
      <trkpt lat="51.226163821049" lon="4.454667959501">
        <ele>8</ele>
        <time>2020-06-27T13:33:53Z</time>
      </trkpt>
      <trkpt lat="51.226738903208" lon="4.454673575374">
        <ele>6.4</ele>
        <time>2020-06-27T13:34:02Z</time>
      </trkpt>
      <trkpt lat="51.227334521022" lon="4.454696457961">
        <ele>4.8</ele>
        <time>2020-06-27T13:34:13Z</time>
      </trkpt>
      <trkpt lat="51.227940616211" lon="4.454695535952">
        <ele>5.6</ele>
        <time>2020-06-27T13:34:22Z</time>
      </trkpt>
      <trkpt lat="51.228529528505" lon="4.454764770446">
        <ele>6</ele>
        <time>2020-06-27T13:34:31Z</time>
      </trkpt>
      <trkpt lat="51.229074938738" lon="4.454873567508">
        <ele>1.8</ele>
        <time>2020-06-27T13:34:40Z</time>
      </trkpt>
      <trkpt lat="51.229616325659" lon="4.455074062556">
        <ele>3.4</ele>
        <time>2020-06-27T13:34:49Z</time>
      </trkpt>
      <trkpt lat="51.23014513973" lon="4.455332560352">
        <ele>6</ele>
        <time>2020-06-27T13:34:58Z</time>
      </trkpt>
      <trkpt lat="51.230681162235" lon="4.455692898233">
        <ele>13</ele>
        <time>2020-06-27T13:35:06Z</time>
      </trkpt>
      <trkpt lat="51.231166390426" lon="4.456166307945">
        <ele>18.8</ele>
        <time>2020-06-27T13:35:14Z</time>
      </trkpt>
      <trkpt lat="51.231665364933" lon="4.456682968261">
        <ele>19.6</ele>
        <time>2020-06-27T13:35:23Z</time>
      </trkpt>
      <trkpt lat="51.232167524562" lon="4.457153192851">
        <ele>17.8</ele>
        <time>2020-06-27T13:35:31Z</time>
      </trkpt>
      <trkpt lat="51.232511098643" lon="4.457462065866">
        <ele>16.4</ele>
        <time>2020-06-27T13:35:37Z</time>
      </trkpt>
      <trkpt lat="51.232559797482" lon="4.457646300028">
        <ele>13.2</ele>
        <time>2020-06-27T13:35:39Z</time>
      </trkpt>
      <trkpt lat="51.232672366399" lon="4.45851952637">
        <ele>8.4</ele>
        <time>2020-06-27T13:35:47Z</time>
      </trkpt>
      <trkpt lat="51.232817373269" lon="4.459396356929">
        <ele>7</ele>
        <time>2020-06-27T13:35:55Z</time>
      </trkpt>
      <trkpt lat="51.232977299921" lon="4.460289867469">
        <ele>7</ele>
        <time>2020-06-27T13:36:03Z</time>
      </trkpt>
      <trkpt lat="51.233096574358" lon="4.461196789049">
        <ele>8.4</ele>
        <time>2020-06-27T13:36:11Z</time>
      </trkpt>
      <trkpt lat="51.233230852396" lon="4.462055514704">
        <ele>10.8</ele>
        <time>2020-06-27T13:36:19Z</time>
      </trkpt>
      <trkpt lat="51.233376948913" lon="4.462961849551">
        <ele>7.6</ele>
        <time>2020-06-27T13:36:28Z</time>
      </trkpt>
      <trkpt lat="51.233518686842" lon="4.46385712029">
        <ele>5</ele>
        <time>2020-06-27T13:36:37Z</time>
      </trkpt>
      <trkpt lat="51.233500665757" lon="4.464052586198">
        <ele>4.2</ele>
        <time>2020-06-27T13:36:39Z</time>
      </trkpt>
      <trkpt lat="51.233434029652" lon="4.464221313845">
        <ele>3.4</ele>
        <time>2020-06-27T13:36:41Z</time>
      </trkpt>
      <trkpt lat="51.233050557727" lon="4.464907791455">
        <ele>0.4</ele>
        <time>2020-06-27T13:36:50Z</time>
      </trkpt>
      <trkpt lat="51.232337425675" lon="4.46642784902">
        <ele>0</ele>
        <time>2020-06-27T13:37:08Z</time>
      </trkpt>
      <trkpt lat="51.232013968154" lon="4.46713779595">
        <ele>1</ele>
        <time>2020-06-27T13:37:17Z</time>
      </trkpt>
      <trkpt lat="51.231849850552" lon="4.467306691235">
        <ele>2.2</ele>
        <time>2020-06-27T13:37:20Z</time>
      </trkpt>
      <trkpt lat="51.23172261331" lon="4.467335273514">
        <ele>2.6</ele>
        <time>2020-06-27T13:37:22Z</time>
      </trkpt>
      <trkpt lat="51.231349451122" lon="4.467276264938">
        <ele>1</ele>
        <time>2020-06-27T13:37:28Z</time>
      </trkpt>
      <trkpt lat="51.230794234066" lon="4.467338542455">
        <ele>0.2</ele>
        <time>2020-06-27T13:37:38Z</time>
      </trkpt>
      <trkpt lat="51.230246393082" lon="4.467484555153">
        <ele>0</ele>
        <time>2020-06-27T13:37:48Z</time>
      </trkpt>
      <trkpt lat="51.229674160769" lon="4.46764070995">
        <ele>0</ele>
        <time>2020-06-27T13:37:57Z</time>
      </trkpt>
      <trkpt lat="51.229437204456" lon="4.467669543686">
        <ele>0</ele>
        <time>2020-06-27T13:38:01Z</time>
      </trkpt>
      <trkpt lat="51.229282139306" lon="4.467620509571">
        <ele>0</ele>
        <time>2020-06-27T13:38:04Z</time>
      </trkpt>
      <trkpt lat="51.229164876525" lon="4.46757952208">
        <ele>0</ele>
        <time>2020-06-27T13:38:06Z</time>
      </trkpt>
      <trkpt lat="51.228605719976" lon="4.467383637077">
        <ele>0</ele>
        <time>2020-06-27T13:38:16Z</time>
      </trkpt>
      <trkpt lat="51.228102973614" lon="4.467030759087">
        <ele>18.4</ele>
        <time>2020-06-27T13:38:26Z</time>
      </trkpt>
      <trkpt lat="51.227868196595" lon="4.466808052004">
        <ele>20.4</ele>
        <time>2020-06-27T13:38:32Z</time>
      </trkpt>
      <trkpt lat="51.227849588777" lon="4.466681401495">
        <ele>18.2</ele>
        <time>2020-06-27T13:38:34Z</time>
      </trkpt>
      <trkpt lat="51.227867190767" lon="4.466532874227">
        <ele>16.8</ele>
        <time>2020-06-27T13:38:36Z</time>
      </trkpt>
      <trkpt lat="51.227897868521" lon="4.466296085552">
        <ele>14.8</ele>
        <time>2020-06-27T13:38:39Z</time>
      </trkpt>
      <trkpt lat="51.227897700883" lon="4.465404251392">
        <ele>10.8</ele>
        <time>2020-06-27T13:38:49Z</time>
      </trkpt>
      <trkpt lat="51.227858976505" lon="4.464486014247">
        <ele>8.6</ele>
        <time>2020-06-27T13:38:59Z</time>
      </trkpt>
      <trkpt lat="51.227840284868" lon="4.463590240594">
        <ele>7.6</ele>
        <time>2020-06-27T13:39:10Z</time>
      </trkpt>
      <trkpt lat="51.227829136941" lon="4.463250773644">
        <ele>7.2</ele>
        <time>2020-06-27T13:39:14Z</time>
      </trkpt>
      <trkpt lat="51.227864173283" lon="4.462957155687">
        <ele>5.6</ele>
        <time>2020-06-27T13:39:18Z</time>
      </trkpt>
      <trkpt lat="51.227853779727" lon="4.462040594922">
        <ele>4.6</ele>
        <time>2020-06-27T13:39:29Z</time>
      </trkpt>
      <trkpt lat="51.227785970156" lon="4.461151359151">
        <ele>3.2</ele>
        <time>2020-06-27T13:39:40Z</time>
      </trkpt>
      <trkpt lat="51.227764093397" lon="4.460738131481">
        <ele>2.6</ele>
        <time>2020-06-27T13:39:45Z</time>
      </trkpt>
      <trkpt lat="51.227823604887" lon="4.460577199001">
        <ele>2.2</ele>
        <time>2020-06-27T13:39:47Z</time>
      </trkpt>
      <trkpt lat="51.228279077333" lon="4.460171934136">
        <ele>0.6</ele>
        <time>2020-06-27T13:39:57Z</time>
      </trkpt>
    </trkseg>
  </trk>
</gpx>